<?xml version="1.0" encoding="UTF-8" standalone="no" ?>
<gpx xmlns="http://www.topografix.com/GPX/1/1" xmlns:xsi="http://www.w3.org/2001/XMLSchema-instance" xsi:schemaLocation="http://www.topografix.com/GPX/1/1 http://www.topografix.com/GPX/1/1/gpx.xsd" version="1.1" creator="VisuGPX - https://www.visugpx.com">
  <metadata>
    <name>ESSAI RALLON</name>
    <desc><![CDATA[Essai vtt]]></desc>
  </metadata>
  <trk>
    <name><![CDATA[ESSAI RALLON]]></name>
    <cmt><![CDATA[8/5/2016]]></cmt>
    <desc><![CDATA[comment ...]]></desc>
    <trkseg>
      <trkpt lat="47.08577" lon="-1.51242">
        <ele>22</ele>
        <time>2016-05-08T10:11:40Z</time>
      </trkpt>
      <trkpt lat="47.08577" lon="-1.51242">
        <ele>22</ele>
        <time>2016-05-08T10:11:41Z</time>
      </trkpt>
      <trkpt lat="47.08583" lon="-1.51237">
        <ele>24</ele>
        <time>2016-05-08T10:11:56Z</time>
      </trkpt>
      <trkpt lat="47.08585" lon="-1.51234">
        <ele>25</ele>
        <time>2016-05-08T10:11:58Z</time>
      </trkpt>
      <trkpt lat="47.08584" lon="-1.5123">
        <ele>25</ele>
        <time>2016-05-08T10:12:00Z</time>
      </trkpt>
      <trkpt lat="47.08565" lon="-1.51196">
        <ele>24</ele>
        <time>2016-05-08T10:12:12Z</time>
      </trkpt>
      <trkpt lat="47.08566" lon="-1.51192">
        <ele>24</ele>
        <time>2016-05-08T10:12:13Z</time>
      </trkpt>
      <trkpt lat="47.08665" lon="-1.51005">
        <ele>20</ele>
        <time>2016-05-08T10:12:43Z</time>
      </trkpt>
      <trkpt lat="47.08723" lon="-1.50853">
        <ele>15</ele>
        <time>2016-05-08T10:13:04Z</time>
      </trkpt>
      <trkpt lat="47.08747" lon="-1.50864">
        <ele>14</ele>
        <time>2016-05-08T10:13:11Z</time>
      </trkpt>
      <trkpt lat="47.08833" lon="-1.50658">
        <ele>11</ele>
        <time>2016-05-08T10:13:41Z</time>
      </trkpt>
      <trkpt lat="47.08891" lon="-1.50627">
        <ele>12</ele>
        <time>2016-05-08T10:13:57Z</time>
      </trkpt>
      <trkpt lat="47.08915" lon="-1.50646">
        <ele>9</ele>
        <time>2016-05-08T10:14:03Z</time>
      </trkpt>
      <trkpt lat="47.08936" lon="-1.50633">
        <ele>9</ele>
        <time>2016-05-08T10:14:09Z</time>
      </trkpt>
      <trkpt lat="47.08947" lon="-1.50631">
        <ele>10</ele>
        <time>2016-05-08T10:14:12Z</time>
      </trkpt>
      <trkpt lat="47.09044" lon="-1.5068">
        <ele>15</ele>
        <time>2016-05-08T10:14:42Z</time>
      </trkpt>
      <trkpt lat="47.09093" lon="-1.50712">
        <ele>16</ele>
        <time>2016-05-08T10:14:58Z</time>
      </trkpt>
      <trkpt lat="47.09096" lon="-1.50709">
        <ele>16</ele>
        <time>2016-05-08T10:14:59Z</time>
      </trkpt>
      <trkpt lat="47.09095" lon="-1.50707">
        <ele>16</ele>
        <time>2016-05-08T10:15:04Z</time>
      </trkpt>
      <trkpt lat="47.09097" lon="-1.50703">
        <ele>16</ele>
        <time>2016-05-08T10:15:26Z</time>
      </trkpt>
      <trkpt lat="47.09136" lon="-1.50644">
        <ele>18</ele>
        <time>2016-05-08T10:15:43Z</time>
      </trkpt>
      <trkpt lat="47.09174" lon="-1.50601">
        <ele>18</ele>
        <time>2016-05-08T10:16:13Z</time>
      </trkpt>
      <trkpt lat="47.09212" lon="-1.50525">
        <ele>16</ele>
        <time>2016-05-08T10:16:27Z</time>
      </trkpt>
      <trkpt lat="47.0921" lon="-1.50511">
        <ele>16</ele>
        <time>2016-05-08T10:16:29Z</time>
      </trkpt>
      <trkpt lat="47.09116" lon="-1.50371">
        <ele>15</ele>
        <time>2016-05-08T10:16:59Z</time>
      </trkpt>
      <trkpt lat="47.08994" lon="-1.50253">
        <ele>14</ele>
        <time>2016-05-08T10:17:29Z</time>
      </trkpt>
      <trkpt lat="47.08883" lon="-1.5004">
        <ele>14</ele>
        <time>2016-05-08T10:17:59Z</time>
      </trkpt>
      <trkpt lat="47.08801" lon="-1.49857">
        <ele>16</ele>
        <time>2016-05-08T10:18:29Z</time>
      </trkpt>
      <trkpt lat="47.087" lon="-1.49738">
        <ele>18</ele>
        <time>2016-05-08T10:18:59Z</time>
      </trkpt>
      <trkpt lat="47.08695" lon="-1.49729">
        <ele>17</ele>
        <time>2016-05-08T10:19:01Z</time>
      </trkpt>
      <trkpt lat="47.08694" lon="-1.49723">
        <ele>17</ele>
        <time>2016-05-08T10:19:02Z</time>
      </trkpt>
      <trkpt lat="47.087" lon="-1.49703">
        <ele>17</ele>
        <time>2016-05-08T10:19:06Z</time>
      </trkpt>
      <trkpt lat="47.08699" lon="-1.49693">
        <ele>18</ele>
        <time>2016-05-08T10:19:08Z</time>
      </trkpt>
      <trkpt lat="47.08649" lon="-1.49523">
        <ele>22</ele>
        <time>2016-05-08T10:19:38Z</time>
      </trkpt>
      <trkpt lat="47.08642" lon="-1.49454">
        <ele>23</ele>
        <time>2016-05-08T10:19:50Z</time>
      </trkpt>
      <trkpt lat="47.08665" lon="-1.49336">
        <ele>22</ele>
        <time>2016-05-08T10:20:08Z</time>
      </trkpt>
      <trkpt lat="47.08663" lon="-1.49334">
        <ele>22</ele>
        <time>2016-05-08T10:20:09Z</time>
      </trkpt>
      <trkpt lat="47.0866" lon="-1.49334">
        <ele>22</ele>
        <time>2016-05-08T10:20:10Z</time>
      </trkpt>
      <trkpt lat="47.08515" lon="-1.49325">
        <ele>18</ele>
        <time>2016-05-08T10:20:37Z</time>
      </trkpt>
      <trkpt lat="47.08515" lon="-1.49318">
        <ele>19</ele>
        <time>2016-05-08T10:20:38Z</time>
      </trkpt>
      <trkpt lat="47.08532" lon="-1.49279">
        <ele>20</ele>
        <time>2016-05-08T10:20:45Z</time>
      </trkpt>
      <trkpt lat="47.08619" lon="-1.49097">
        <ele>22</ele>
        <time>2016-05-08T10:21:15Z</time>
      </trkpt>
      <trkpt lat="47.08677" lon="-1.48899">
        <ele>27</ele>
        <time>2016-05-08T10:21:45Z</time>
      </trkpt>
      <trkpt lat="47.08722" lon="-1.48741">
        <ele>27</ele>
        <time>2016-05-08T10:22:09Z</time>
      </trkpt>
      <trkpt lat="47.08872" lon="-1.48631">
        <ele>26</ele>
        <time>2016-05-08T10:22:39Z</time>
      </trkpt>
      <trkpt lat="47.0903" lon="-1.48633">
        <ele>26</ele>
        <time>2016-05-08T10:23:09Z</time>
      </trkpt>
      <trkpt lat="47.0906" lon="-1.48639">
        <ele>26</ele>
        <time>2016-05-08T10:23:15Z</time>
      </trkpt>
      <trkpt lat="47.09084" lon="-1.48609">
        <ele>27</ele>
        <time>2016-05-08T10:23:21Z</time>
      </trkpt>
      <trkpt lat="47.09181" lon="-1.4842">
        <ele>26</ele>
        <time>2016-05-08T10:23:51Z</time>
      </trkpt>
      <trkpt lat="47.0925" lon="-1.48216">
        <ele>24</ele>
        <time>2016-05-08T10:24:22Z</time>
      </trkpt>
      <trkpt lat="47.09265" lon="-1.48179">
        <ele>24</ele>
        <time>2016-05-08T10:24:29Z</time>
      </trkpt>
      <trkpt lat="47.09271" lon="-1.48178">
        <ele>24</ele>
        <time>2016-05-08T10:24:31Z</time>
      </trkpt>
      <trkpt lat="47.09375" lon="-1.48293">
        <ele>29</ele>
        <time>2016-05-08T10:25:01Z</time>
      </trkpt>
      <trkpt lat="47.09538" lon="-1.48403">
        <ele>27</ele>
        <time>2016-05-08T10:25:31Z</time>
      </trkpt>
      <trkpt lat="47.09664" lon="-1.48518">
        <ele>24</ele>
        <time>2016-05-08T10:26:01Z</time>
      </trkpt>
      <trkpt lat="47.09739" lon="-1.48408">
        <ele>21</ele>
        <time>2016-05-08T10:26:20Z</time>
      </trkpt>
      <trkpt lat="47.09743" lon="-1.4841">
        <ele>21</ele>
        <time>2016-05-08T10:26:21Z</time>
      </trkpt>
      <trkpt lat="47.09763" lon="-1.48433">
        <ele>20</ele>
        <time>2016-05-08T10:26:26Z</time>
      </trkpt>
      <trkpt lat="47.09849" lon="-1.48308">
        <ele>18</ele>
        <time>2016-05-08T10:26:56Z</time>
      </trkpt>
      <trkpt lat="47.09842" lon="-1.48097">
        <ele>15</ele>
        <time>2016-05-08T10:27:26Z</time>
      </trkpt>
      <trkpt lat="47.09837" lon="-1.47947">
        <ele>15</ele>
        <time>2016-05-08T10:27:46Z</time>
      </trkpt>
      <trkpt lat="47.09844" lon="-1.47948">
        <ele>16</ele>
        <time>2016-05-08T10:27:48Z</time>
      </trkpt>
      <trkpt lat="47.09849" lon="-1.47957">
        <ele>17</ele>
        <time>2016-05-08T10:27:50Z</time>
      </trkpt>
      <trkpt lat="47.09932" lon="-1.48073">
        <ele>19</ele>
        <time>2016-05-08T10:28:20Z</time>
      </trkpt>
      <trkpt lat="47.09936" lon="-1.48075">
        <ele>19</ele>
        <time>2016-05-08T10:28:22Z</time>
      </trkpt>
      <trkpt lat="47.10004" lon="-1.48024">
        <ele>29</ele>
        <time>2016-05-08T10:28:52Z</time>
      </trkpt>
      <trkpt lat="47.10087" lon="-1.4796">
        <ele>33</ele>
        <time>2016-05-08T10:29:22Z</time>
      </trkpt>
      <trkpt lat="47.10188" lon="-1.4789">
        <ele>28</ele>
        <time>2016-05-08T10:29:49Z</time>
      </trkpt>
      <trkpt lat="47.10188" lon="-1.47884">
        <ele>28</ele>
        <time>2016-05-08T10:29:50Z</time>
      </trkpt>
      <trkpt lat="47.10185" lon="-1.47871">
        <ele>27</ele>
        <time>2016-05-08T10:29:52Z</time>
      </trkpt>
      <trkpt lat="47.10171" lon="-1.47844">
        <ele>28</ele>
        <time>2016-05-08T10:29:58Z</time>
      </trkpt>
      <trkpt lat="47.10111" lon="-1.47687">
        <ele>28</ele>
        <time>2016-05-08T10:30:28Z</time>
      </trkpt>
      <trkpt lat="47.09996" lon="-1.47541">
        <ele>22</ele>
        <time>2016-05-08T10:30:58Z</time>
      </trkpt>
      <trkpt lat="47.09923" lon="-1.47501">
        <ele>21</ele>
        <time>2016-05-08T10:31:12Z</time>
      </trkpt>
      <trkpt lat="47.09836" lon="-1.47601">
        <ele>19</ele>
        <time>2016-05-08T10:31:57Z</time>
      </trkpt>
      <trkpt lat="47.09834" lon="-1.476">
        <ele>19</ele>
        <time>2016-05-08T10:31:58Z</time>
      </trkpt>
      <trkpt lat="47.09833" lon="-1.47598">
        <ele>20</ele>
        <time>2016-05-08T10:31:59Z</time>
      </trkpt>
      <trkpt lat="47.09832" lon="-1.47595">
        <ele>20</ele>
        <time>2016-05-08T10:32:00Z</time>
      </trkpt>
      <trkpt lat="47.09836" lon="-1.47574">
        <ele>21</ele>
        <time>2016-05-08T10:32:05Z</time>
      </trkpt>
      <trkpt lat="47.09904" lon="-1.47438">
        <ele>28</ele>
        <time>2016-05-08T10:32:35Z</time>
      </trkpt>
      <trkpt lat="47.09978" lon="-1.47301">
        <ele>32</ele>
        <time>2016-05-08T10:33:05Z</time>
      </trkpt>
      <trkpt lat="47.10077" lon="-1.47099">
        <ele>30</ele>
        <time>2016-05-08T10:33:36Z</time>
      </trkpt>
      <trkpt lat="47.10141" lon="-1.46861">
        <ele>33</ele>
        <time>2016-05-08T10:34:06Z</time>
      </trkpt>
      <trkpt lat="47.10175" lon="-1.46671">
        <ele>38</ele>
        <time>2016-05-08T10:34:36Z</time>
      </trkpt>
      <trkpt lat="47.10194" lon="-1.46485">
        <ele>39</ele>
        <time>2016-05-08T10:35:06Z</time>
      </trkpt>
      <trkpt lat="47.10196" lon="-1.46384">
        <ele>42</ele>
        <time>2016-05-08T10:35:25Z</time>
      </trkpt>
      <trkpt lat="47.10181" lon="-1.46371">
        <ele>42</ele>
        <time>2016-05-08T10:35:29Z</time>
      </trkpt>
      <trkpt lat="47.10022" lon="-1.46332">
        <ele>40</ele>
        <time>2016-05-08T10:35:59Z</time>
      </trkpt>
      <trkpt lat="47.09829" lon="-1.46299">
        <ele>35</ele>
        <time>2016-05-08T10:36:29Z</time>
      </trkpt>
      <trkpt lat="47.09648" lon="-1.46327">
        <ele>33</ele>
        <time>2016-05-08T10:36:59Z</time>
      </trkpt>
      <trkpt lat="47.09464" lon="-1.46356">
        <ele>35</ele>
        <time>2016-05-08T10:37:29Z</time>
      </trkpt>
      <trkpt lat="47.09414" lon="-1.46354">
        <ele>34</ele>
        <time>2016-05-08T10:37:38Z</time>
      </trkpt>
      <trkpt lat="47.09297" lon="-1.46208">
        <ele>32</ele>
        <time>2016-05-08T10:38:09Z</time>
      </trkpt>
      <trkpt lat="47.09193" lon="-1.46069">
        <ele>32</ele>
        <time>2016-05-08T10:38:39Z</time>
      </trkpt>
      <trkpt lat="47.09111" lon="-1.45963">
        <ele>37</ele>
        <time>2016-05-08T10:39:09Z</time>
      </trkpt>
      <trkpt lat="47.09035" lon="-1.45843">
        <ele>40</ele>
        <time>2016-05-08T10:39:39Z</time>
      </trkpt>
      <trkpt lat="47.09089" lon="-1.45708">
        <ele>40</ele>
        <time>2016-05-08T10:40:02Z</time>
      </trkpt>
      <trkpt lat="47.09015" lon="-1.45537">
        <ele>39</ele>
        <time>2016-05-08T10:40:32Z</time>
      </trkpt>
      <trkpt lat="47.08998" lon="-1.4548">
        <ele>38</ele>
        <time>2016-05-08T10:40:41Z</time>
      </trkpt>
      <trkpt lat="47.09013" lon="-1.45429">
        <ele>38</ele>
        <time>2016-05-08T10:40:49Z</time>
      </trkpt>
      <trkpt lat="47.0899" lon="-1.45394">
        <ele>38</ele>
        <time>2016-05-08T10:40:56Z</time>
      </trkpt>
      <trkpt lat="47.08982" lon="-1.45382">
        <ele>38</ele>
        <time>2016-05-08T10:40:59Z</time>
      </trkpt>
      <trkpt lat="47.08982" lon="-1.45379">
        <ele>38</ele>
        <time>2016-05-08T10:41:00Z</time>
      </trkpt>
      <trkpt lat="47.08982" lon="-1.45375">
        <ele>38</ele>
        <time>2016-05-08T10:41:01Z</time>
      </trkpt>
      <trkpt lat="47.09018" lon="-1.45333">
        <ele>38</ele>
        <time>2016-05-08T10:41:11Z</time>
      </trkpt>
      <trkpt lat="47.09184" lon="-1.45163">
        <ele>39</ele>
        <time>2016-05-08T10:41:41Z</time>
      </trkpt>
      <trkpt lat="47.09334" lon="-1.45034">
        <ele>41</ele>
        <time>2016-05-08T10:42:12Z</time>
      </trkpt>
      <trkpt lat="47.09446" lon="-1.44927">
        <ele>47</ele>
        <time>2016-05-08T10:42:42Z</time>
      </trkpt>
      <trkpt lat="47.09487" lon="-1.44873">
        <ele>47</ele>
        <time>2016-05-08T10:42:57Z</time>
      </trkpt>
      <trkpt lat="47.09486" lon="-1.44869">
        <ele>46</ele>
        <time>2016-05-08T10:42:58Z</time>
      </trkpt>
      <trkpt lat="47.09481" lon="-1.44862">
        <ele>46</ele>
        <time>2016-05-08T10:43:00Z</time>
      </trkpt>
      <trkpt lat="47.0937" lon="-1.44769">
        <ele>45</ele>
        <time>2016-05-08T10:43:30Z</time>
      </trkpt>
      <trkpt lat="47.09248" lon="-1.44609">
        <ele>42</ele>
        <time>2016-05-08T10:44:00Z</time>
      </trkpt>
      <trkpt lat="47.09113" lon="-1.44465">
        <ele>38</ele>
        <time>2016-05-08T10:44:30Z</time>
      </trkpt>
      <trkpt lat="47.09069" lon="-1.44388">
        <ele>33</ele>
        <time>2016-05-08T10:44:46Z</time>
      </trkpt>
      <trkpt lat="47.09074" lon="-1.44363">
        <ele>34</ele>
        <time>2016-05-08T10:44:50Z</time>
      </trkpt>
      <trkpt lat="47.09182" lon="-1.44236">
        <ele>41</ele>
        <time>2016-05-08T10:45:20Z</time>
      </trkpt>
      <trkpt lat="47.09285" lon="-1.44133">
        <ele>44</ele>
        <time>2016-05-08T10:45:50Z</time>
      </trkpt>
      <trkpt lat="47.09304" lon="-1.44104">
        <ele>44</ele>
        <time>2016-05-08T10:45:59Z</time>
      </trkpt>
      <trkpt lat="47.09302" lon="-1.44099">
        <ele>44</ele>
        <time>2016-05-08T10:46:01Z</time>
      </trkpt>
      <trkpt lat="47.09298" lon="-1.44095">
        <ele>43</ele>
        <time>2016-05-08T10:46:03Z</time>
      </trkpt>
      <trkpt lat="47.09297" lon="-1.44093">
        <ele>43</ele>
        <time>2016-05-08T10:46:04Z</time>
      </trkpt>
      <trkpt lat="47.09297" lon="-1.4409">
        <ele>43</ele>
        <time>2016-05-08T10:46:05Z</time>
      </trkpt>
      <trkpt lat="47.09298" lon="-1.44087">
        <ele>44</ele>
        <time>2016-05-08T10:46:06Z</time>
      </trkpt>
      <trkpt lat="47.09389" lon="-1.43984">
        <ele>43</ele>
        <time>2016-05-08T10:49:57Z</time>
      </trkpt>
      <trkpt lat="47.09395" lon="-1.43964">
        <ele>42</ele>
        <time>2016-05-08T10:50:05Z</time>
      </trkpt>
      <trkpt lat="47.09381" lon="-1.43867">
        <ele>39</ele>
        <time>2016-05-08T10:50:35Z</time>
      </trkpt>
      <trkpt lat="47.09359" lon="-1.4366">
        <ele>38</ele>
        <time>2016-05-08T10:51:05Z</time>
      </trkpt>
      <trkpt lat="47.09353" lon="-1.43639">
        <ele>38</ele>
        <time>2016-05-08T10:51:08Z</time>
      </trkpt>
      <trkpt lat="47.09357" lon="-1.43624">
        <ele>37</ele>
        <time>2016-05-08T10:51:10Z</time>
      </trkpt>
      <trkpt lat="47.09445" lon="-1.4346">
        <ele>35</ele>
        <time>2016-05-08T10:51:40Z</time>
      </trkpt>
      <trkpt lat="47.09471" lon="-1.43264">
        <ele>30</ele>
        <time>2016-05-08T10:52:10Z</time>
      </trkpt>
      <trkpt lat="47.09455" lon="-1.43178">
        <ele>29</ele>
        <time>2016-05-08T10:52:22Z</time>
      </trkpt>
      <trkpt lat="47.0941" lon="-1.43138">
        <ele>31</ele>
        <time>2016-05-08T10:52:33Z</time>
      </trkpt>
      <trkpt lat="47.09378" lon="-1.43109">
        <ele>31</ele>
        <time>2016-05-08T10:53:56Z</time>
      </trkpt>
      <trkpt lat="47.09368" lon="-1.43096">
        <ele>31</ele>
        <time>2016-05-08T10:54:02Z</time>
      </trkpt>
      <trkpt lat="47.09367" lon="-1.43093">
        <ele>31</ele>
        <time>2016-05-08T10:54:03Z</time>
      </trkpt>
      <trkpt lat="47.09368" lon="-1.43089">
        <ele>32</ele>
        <time>2016-05-08T10:54:04Z</time>
      </trkpt>
      <trkpt lat="47.09467" lon="-1.42907">
        <ele>33</ele>
        <time>2016-05-08T10:54:34Z</time>
      </trkpt>
      <trkpt lat="47.09618" lon="-1.42824">
        <ele>33</ele>
        <time>2016-05-08T10:55:04Z</time>
      </trkpt>
      <trkpt lat="47.09755" lon="-1.42696">
        <ele>39</ele>
        <time>2016-05-08T10:55:34Z</time>
      </trkpt>
      <trkpt lat="47.09843" lon="-1.42589">
        <ele>37</ele>
        <time>2016-05-08T10:55:56Z</time>
      </trkpt>
      <trkpt lat="47.09903" lon="-1.42555">
        <ele>34</ele>
        <time>2016-05-08T10:56:20Z</time>
      </trkpt>
      <trkpt lat="47.09925" lon="-1.42567">
        <ele>33</ele>
        <time>2016-05-08T10:56:25Z</time>
      </trkpt>
      <trkpt lat="47.09927" lon="-1.42565">
        <ele>33</ele>
        <time>2016-05-08T10:56:26Z</time>
      </trkpt>
      <trkpt lat="47.09928" lon="-1.42561">
        <ele>33</ele>
        <time>2016-05-08T10:56:27Z</time>
      </trkpt>
      <trkpt lat="47.09928" lon="-1.42556">
        <ele>33</ele>
        <time>2016-05-08T10:56:28Z</time>
      </trkpt>
      <trkpt lat="47.09913" lon="-1.42372">
        <ele>33</ele>
        <time>2016-05-08T10:56:58Z</time>
      </trkpt>
      <trkpt lat="47.09902" lon="-1.42183">
        <ele>34</ele>
        <time>2016-05-08T10:57:28Z</time>
      </trkpt>
      <trkpt lat="47.09875" lon="-1.41997">
        <ele>31</ele>
        <time>2016-05-08T10:57:58Z</time>
      </trkpt>
      <trkpt lat="47.0985" lon="-1.41789">
        <ele>26</ele>
        <time>2016-05-08T10:58:25Z</time>
      </trkpt>
      <trkpt lat="47.098" lon="-1.41737">
        <ele>23</ele>
        <time>2016-05-08T10:58:38Z</time>
      </trkpt>
      <trkpt lat="47.09714" lon="-1.41665">
        <ele>30</ele>
        <time>2016-05-08T10:59:08Z</time>
      </trkpt>
      <trkpt lat="47.09651" lon="-1.4156">
        <ele>35</ele>
        <time>2016-05-08T10:59:38Z</time>
      </trkpt>
      <trkpt lat="47.09578" lon="-1.41405">
        <ele>32</ele>
        <time>2016-05-08T11:00:09Z</time>
      </trkpt>
      <trkpt lat="47.09505" lon="-1.41288">
        <ele>34</ele>
        <time>2016-05-08T11:00:33Z</time>
      </trkpt>
      <trkpt lat="47.09389" lon="-1.41195">
        <ele>36</ele>
        <time>2016-05-08T11:01:03Z</time>
      </trkpt>
      <trkpt lat="47.09387" lon="-1.41193">
        <ele>36</ele>
        <time>2016-05-08T11:01:04Z</time>
      </trkpt>
      <trkpt lat="47.09387" lon="-1.41189">
        <ele>36</ele>
        <time>2016-05-08T11:01:05Z</time>
      </trkpt>
      <trkpt lat="47.09388" lon="-1.41186">
        <ele>36</ele>
        <time>2016-05-08T11:01:06Z</time>
      </trkpt>
      <trkpt lat="47.09526" lon="-1.40997">
        <ele>33</ele>
        <time>2016-05-08T11:01:36Z</time>
      </trkpt>
      <trkpt lat="47.09624" lon="-1.40932">
        <ele>28</ele>
        <time>2016-05-08T11:02:18Z</time>
      </trkpt>
      <trkpt lat="47.09631" lon="-1.40945">
        <ele>27</ele>
        <time>2016-05-08T11:02:28Z</time>
      </trkpt>
      <trkpt lat="47.09633" lon="-1.40945">
        <ele>27</ele>
        <time>2016-05-08T11:02:29Z</time>
      </trkpt>
      <trkpt lat="47.09646" lon="-1.40933">
        <ele>28</ele>
        <time>2016-05-08T11:02:34Z</time>
      </trkpt>
      <trkpt lat="47.09781" lon="-1.40879">
        <ele>16</ele>
        <time>2016-05-08T11:03:04Z</time>
      </trkpt>
      <trkpt lat="47.0979" lon="-1.40877">
        <ele>15</ele>
        <time>2016-05-08T11:03:07Z</time>
      </trkpt>
      <trkpt lat="47.09794" lon="-1.40869">
        <ele>15</ele>
        <time>2016-05-08T11:03:09Z</time>
      </trkpt>
      <trkpt lat="47.09793" lon="-1.40839">
        <ele>11</ele>
        <time>2016-05-08T11:03:15Z</time>
      </trkpt>
      <trkpt lat="47.09766" lon="-1.40654">
        <ele>7</ele>
        <time>2016-05-08T11:03:45Z</time>
      </trkpt>
      <trkpt lat="47.09725" lon="-1.40544">
        <ele>6</ele>
        <time>2016-05-08T11:04:05Z</time>
      </trkpt>
      <trkpt lat="47.09607" lon="-1.40486">
        <ele>2</ele>
        <time>2016-05-08T11:04:35Z</time>
      </trkpt>
      <trkpt lat="47.09486" lon="-1.40473">
        <ele>8</ele>
        <time>2016-05-08T11:05:05Z</time>
      </trkpt>
      <trkpt lat="47.09443" lon="-1.40463">
        <ele>10</ele>
        <time>2016-05-08T11:05:19Z</time>
      </trkpt>
      <trkpt lat="47.09443" lon="-1.40461">
        <ele>11</ele>
        <time>2016-05-08T11:05:27Z</time>
      </trkpt>
      <trkpt lat="47.09441" lon="-1.4046">
        <ele>11</ele>
        <time>2016-05-08T11:05:30Z</time>
      </trkpt>
      <trkpt lat="47.09417" lon="-1.40457">
        <ele>15</ele>
        <time>2016-05-08T11:05:43Z</time>
      </trkpt>
      <trkpt lat="47.09314" lon="-1.4042">
        <ele>18</ele>
        <time>2016-05-08T11:06:13Z</time>
      </trkpt>
      <trkpt lat="47.09194" lon="-1.40433">
        <ele>21</ele>
        <time>2016-05-08T11:06:44Z</time>
      </trkpt>
      <trkpt lat="47.09159" lon="-1.40438">
        <ele>29</ele>
        <time>2016-05-08T11:07:05Z</time>
      </trkpt>
      <trkpt lat="47.09139" lon="-1.40473">
        <ele>15</ele>
        <time>2016-05-08T11:07:46Z</time>
      </trkpt>
      <trkpt lat="47.09138" lon="-1.40473">
        <ele>15</ele>
        <time>2016-05-08T11:10:43Z</time>
      </trkpt>
      <trkpt lat="47.09136" lon="-1.40473">
        <ele>16</ele>
        <time>2016-05-08T11:11:07Z</time>
      </trkpt>
      <trkpt lat="47.09134" lon="-1.40471">
        <ele>16</ele>
        <time>2016-05-08T11:12:08Z</time>
      </trkpt>
      <trkpt lat="47.09133" lon="-1.40469">
        <ele>16</ele>
        <time>2016-05-08T11:12:10Z</time>
      </trkpt>
      <trkpt lat="47.0913" lon="-1.40467">
        <ele>18</ele>
        <time>2016-05-08T11:12:16Z</time>
      </trkpt>
      <trkpt lat="47.09129" lon="-1.40465">
        <ele>18</ele>
        <time>2016-05-08T11:12:20Z</time>
      </trkpt>
      <trkpt lat="47.09127" lon="-1.40465">
        <ele>18</ele>
        <time>2016-05-08T11:12:26Z</time>
      </trkpt>
      <trkpt lat="47.09125" lon="-1.4046">
        <ele>19</ele>
        <time>2016-05-08T11:12:30Z</time>
      </trkpt>
      <trkpt lat="47.09123" lon="-1.40453">
        <ele>22</ele>
        <time>2016-05-08T11:12:35Z</time>
      </trkpt>
      <trkpt lat="47.09124" lon="-1.40448">
        <ele>23</ele>
        <time>2016-05-08T11:12:47Z</time>
      </trkpt>
      <trkpt lat="47.09122" lon="-1.40444">
        <ele>23</ele>
        <time>2016-05-08T11:13:53Z</time>
      </trkpt>
      <trkpt lat="47.0912" lon="-1.40442">
        <ele>23</ele>
        <time>2016-05-08T11:13:57Z</time>
      </trkpt>
      <trkpt lat="47.09061" lon="-1.40416">
        <ele>28</ele>
        <time>2016-05-08T11:14:27Z</time>
      </trkpt>
      <trkpt lat="47.09013" lon="-1.404">
        <ele>30</ele>
        <time>2016-05-08T11:14:58Z</time>
      </trkpt>
      <trkpt lat="47.08947" lon="-1.40344">
        <ele>35</ele>
        <time>2016-05-08T11:15:28Z</time>
      </trkpt>
      <trkpt lat="47.0886" lon="-1.40265">
        <ele>28</ele>
        <time>2016-05-08T11:15:57Z</time>
      </trkpt>
      <trkpt lat="47.08861" lon="-1.40262">
        <ele>28</ele>
        <time>2016-05-08T11:15:59Z</time>
      </trkpt>
      <trkpt lat="47.08871" lon="-1.40214">
        <ele>26</ele>
        <time>2016-05-08T11:16:13Z</time>
      </trkpt>
      <trkpt lat="47.08866" lon="-1.40199">
        <ele>24</ele>
        <time>2016-05-08T11:16:16Z</time>
      </trkpt>
      <trkpt lat="47.0881" lon="-1.40098">
        <ele>15</ele>
        <time>2016-05-08T11:16:34Z</time>
      </trkpt>
      <trkpt lat="47.08807" lon="-1.40098">
        <ele>11</ele>
        <time>2016-05-08T11:16:55Z</time>
      </trkpt>
      <trkpt lat="47.08805" lon="-1.40097">
        <ele>11</ele>
        <time>2016-05-08T11:16:59Z</time>
      </trkpt>
      <trkpt lat="47.08804" lon="-1.40096">
        <ele>10</ele>
        <time>2016-05-08T11:17:01Z</time>
      </trkpt>
      <trkpt lat="47.08787" lon="-1.40091">
        <ele>6</ele>
        <time>2016-05-08T11:17:24Z</time>
      </trkpt>
      <trkpt lat="47.08785" lon="-1.4009">
        <ele>7</ele>
        <time>2016-05-08T11:17:28Z</time>
      </trkpt>
      <trkpt lat="47.08783" lon="-1.4009">
        <ele>7</ele>
        <time>2016-05-08T11:18:12Z</time>
      </trkpt>
      <trkpt lat="47.08782" lon="-1.40092">
        <ele>7</ele>
        <time>2016-05-08T11:18:17Z</time>
      </trkpt>
      <trkpt lat="47.0878" lon="-1.40093">
        <ele>6</ele>
        <time>2016-05-08T11:18:24Z</time>
      </trkpt>
      <trkpt lat="47.08773" lon="-1.40095">
        <ele>2</ele>
        <time>2016-05-08T11:18:34Z</time>
      </trkpt>
      <trkpt lat="47.08772" lon="-1.40094">
        <ele>3</ele>
        <time>2016-05-08T11:18:38Z</time>
      </trkpt>
      <trkpt lat="47.08767" lon="-1.40093">
        <ele>2</ele>
        <time>2016-05-08T11:18:45Z</time>
      </trkpt>
      <trkpt lat="47.08765" lon="-1.40093">
        <ele>2</ele>
        <time>2016-05-08T11:18:48Z</time>
      </trkpt>
      <trkpt lat="47.0876" lon="-1.40091">
        <ele>3</ele>
        <time>2016-05-08T11:19:00Z</time>
      </trkpt>
      <trkpt lat="47.08757" lon="-1.40089">
        <ele>5</ele>
        <time>2016-05-08T11:19:03Z</time>
      </trkpt>
      <trkpt lat="47.08756" lon="-1.40089">
        <ele>6</ele>
        <time>2016-05-08T11:19:11Z</time>
      </trkpt>
      <trkpt lat="47.08754" lon="-1.40088">
        <ele>7</ele>
        <time>2016-05-08T11:19:16Z</time>
      </trkpt>
      <trkpt lat="47.0875" lon="-1.40092">
        <ele>6</ele>
        <time>2016-05-08T11:19:29Z</time>
      </trkpt>
      <trkpt lat="47.08748" lon="-1.40093">
        <ele>4</ele>
        <time>2016-05-08T11:19:31Z</time>
      </trkpt>
      <trkpt lat="47.08742" lon="-1.40094">
        <ele>4</ele>
        <time>2016-05-08T11:19:44Z</time>
      </trkpt>
      <trkpt lat="47.08739" lon="-1.40097">
        <ele>4</ele>
        <time>2016-05-08T11:19:46Z</time>
      </trkpt>
      <trkpt lat="47.08736" lon="-1.40104">
        <ele>4</ele>
        <time>2016-05-08T11:19:50Z</time>
      </trkpt>
      <trkpt lat="47.08706" lon="-1.40104">
        <ele>13</ele>
        <time>2016-05-08T11:20:04Z</time>
      </trkpt>
      <trkpt lat="47.08673" lon="-1.40143">
        <ele>14</ele>
        <time>2016-05-08T11:20:22Z</time>
      </trkpt>
      <trkpt lat="47.0864" lon="-1.40187">
        <ele>17</ele>
        <time>2016-05-08T11:20:42Z</time>
      </trkpt>
      <trkpt lat="47.08611" lon="-1.4024">
        <ele>19</ele>
        <time>2016-05-08T11:21:04Z</time>
      </trkpt>
      <trkpt lat="47.08611" lon="-1.40245">
        <ele>18</ele>
        <time>2016-05-08T11:21:06Z</time>
      </trkpt>
      <trkpt lat="47.08611" lon="-1.40249">
        <ele>18</ele>
        <time>2016-05-08T11:21:08Z</time>
      </trkpt>
      <trkpt lat="47.08608" lon="-1.40249">
        <ele>17</ele>
        <time>2016-05-08T11:21:10Z</time>
      </trkpt>
      <trkpt lat="47.08606" lon="-1.40248">
        <ele>18</ele>
        <time>2016-05-08T11:21:13Z</time>
      </trkpt>
      <trkpt lat="47.08602" lon="-1.4025">
        <ele>19</ele>
        <time>2016-05-08T11:21:31Z</time>
      </trkpt>
      <trkpt lat="47.08598" lon="-1.40249">
        <ele>22</ele>
        <time>2016-05-08T11:21:55Z</time>
      </trkpt>
      <trkpt lat="47.08597" lon="-1.4025">
        <ele>23</ele>
        <time>2016-05-08T11:22:02Z</time>
      </trkpt>
      <trkpt lat="47.08596" lon="-1.40249">
        <ele>23</ele>
        <time>2016-05-08T11:22:12Z</time>
      </trkpt>
      <trkpt lat="47.08595" lon="-1.40247">
        <ele>23</ele>
        <time>2016-05-08T11:22:18Z</time>
      </trkpt>
      <trkpt lat="47.08593" lon="-1.40246">
        <ele>23</ele>
        <time>2016-05-08T11:22:22Z</time>
      </trkpt>
      <trkpt lat="47.0859" lon="-1.40246">
        <ele>25</ele>
        <time>2016-05-08T11:22:25Z</time>
      </trkpt>
      <trkpt lat="47.08576" lon="-1.40247">
        <ele>29</ele>
        <time>2016-05-08T11:22:46Z</time>
      </trkpt>
      <trkpt lat="47.08579" lon="-1.40248">
        <ele>29</ele>
        <time>2016-05-08T11:23:06Z</time>
      </trkpt>
      <trkpt lat="47.08578" lon="-1.4025">
        <ele>29</ele>
        <time>2016-05-08T11:25:49Z</time>
      </trkpt>
      <trkpt lat="47.08576" lon="-1.40248">
        <ele>29</ele>
        <time>2016-05-08T11:25:58Z</time>
      </trkpt>
      <trkpt lat="47.08573" lon="-1.40247">
        <ele>29</ele>
        <time>2016-05-08T11:26:00Z</time>
      </trkpt>
      <trkpt lat="47.08513" lon="-1.40204">
        <ele>33</ele>
        <time>2016-05-08T11:26:30Z</time>
      </trkpt>
      <trkpt lat="47.08411" lon="-1.40141">
        <ele>34</ele>
        <time>2016-05-08T11:27:01Z</time>
      </trkpt>
      <trkpt lat="47.08344" lon="-1.40125">
        <ele>33</ele>
        <time>2016-05-08T11:27:31Z</time>
      </trkpt>
      <trkpt lat="47.08266" lon="-1.40077">
        <ele>30</ele>
        <time>2016-05-08T11:28:01Z</time>
      </trkpt>
      <trkpt lat="47.0821" lon="-1.40028">
        <ele>37</ele>
        <time>2016-05-08T11:28:23Z</time>
      </trkpt>
      <trkpt lat="47.08147" lon="-1.39933">
        <ele>31</ele>
        <time>2016-05-08T11:28:53Z</time>
      </trkpt>
      <trkpt lat="47.08123" lon="-1.39864">
        <ele>18</ele>
        <time>2016-05-08T11:29:07Z</time>
      </trkpt>
      <trkpt lat="47.08116" lon="-1.39858">
        <ele>15</ele>
        <time>2016-05-08T11:29:12Z</time>
      </trkpt>
      <trkpt lat="47.08116" lon="-1.39855">
        <ele>13</ele>
        <time>2016-05-08T11:29:14Z</time>
      </trkpt>
      <trkpt lat="47.08114" lon="-1.39852">
        <ele>12</ele>
        <time>2016-05-08T11:29:34Z</time>
      </trkpt>
      <trkpt lat="47.08039" lon="-1.39801">
        <ele>10</ele>
        <time>2016-05-08T11:30:05Z</time>
      </trkpt>
      <trkpt lat="47.08028" lon="-1.39798">
        <ele>9</ele>
        <time>2016-05-08T11:30:08Z</time>
      </trkpt>
      <trkpt lat="47.07969" lon="-1.39783">
        <ele>16</ele>
        <time>2016-05-08T11:30:34Z</time>
      </trkpt>
      <trkpt lat="47.07968" lon="-1.39779">
        <ele>16</ele>
        <time>2016-05-08T11:30:36Z</time>
      </trkpt>
      <trkpt lat="47.07966" lon="-1.39768">
        <ele>18</ele>
        <time>2016-05-08T11:30:41Z</time>
      </trkpt>
      <trkpt lat="47.07954" lon="-1.39758">
        <ele>13</ele>
        <time>2016-05-08T11:30:47Z</time>
      </trkpt>
      <trkpt lat="47.07953" lon="-1.39756">
        <ele>13</ele>
        <time>2016-05-08T11:30:51Z</time>
      </trkpt>
      <trkpt lat="47.07953" lon="-1.39752">
        <ele>14</ele>
        <time>2016-05-08T11:31:07Z</time>
      </trkpt>
      <trkpt lat="47.07952" lon="-1.3975">
        <ele>13</ele>
        <time>2016-05-08T11:31:11Z</time>
      </trkpt>
      <trkpt lat="47.07951" lon="-1.39747">
        <ele>12</ele>
        <time>2016-05-08T11:31:14Z</time>
      </trkpt>
      <trkpt lat="47.07949" lon="-1.39739">
        <ele>11</ele>
        <time>2016-05-08T11:31:20Z</time>
      </trkpt>
      <trkpt lat="47.07948" lon="-1.39736">
        <ele>11</ele>
        <time>2016-05-08T11:31:22Z</time>
      </trkpt>
      <trkpt lat="47.07948" lon="-1.39734">
        <ele>11</ele>
        <time>2016-05-08T11:31:25Z</time>
      </trkpt>
      <trkpt lat="47.07947" lon="-1.39732">
        <ele>11</ele>
        <time>2016-05-08T11:31:31Z</time>
      </trkpt>
      <trkpt lat="47.07948" lon="-1.39728">
        <ele>12</ele>
        <time>2016-05-08T11:32:01Z</time>
      </trkpt>
      <trkpt lat="47.07948" lon="-1.39725">
        <ele>14</ele>
        <time>2016-05-08T11:32:52Z</time>
      </trkpt>
      <trkpt lat="47.07947" lon="-1.39719">
        <ele>12</ele>
        <time>2016-05-08T11:32:58Z</time>
      </trkpt>
      <trkpt lat="47.07946" lon="-1.39716">
        <ele>11</ele>
        <time>2016-05-08T11:33:00Z</time>
      </trkpt>
      <trkpt lat="47.07939" lon="-1.39678">
        <ele>12</ele>
        <time>2016-05-08T11:33:31Z</time>
      </trkpt>
      <trkpt lat="47.07936" lon="-1.39679">
        <ele>12</ele>
        <time>2016-05-08T11:35:05Z</time>
      </trkpt>
      <trkpt lat="47.07932" lon="-1.39679">
        <ele>13</ele>
        <time>2016-05-08T11:35:07Z</time>
      </trkpt>
      <trkpt lat="47.07875" lon="-1.3966">
        <ele>16</ele>
        <time>2016-05-08T11:35:37Z</time>
      </trkpt>
      <trkpt lat="47.07871" lon="-1.39655">
        <ele>16</ele>
        <time>2016-05-08T11:35:40Z</time>
      </trkpt>
      <trkpt lat="47.07855" lon="-1.39619">
        <ele>20</ele>
        <time>2016-05-08T11:35:56Z</time>
      </trkpt>
      <trkpt lat="47.07854" lon="-1.39616">
        <ele>19</ele>
        <time>2016-05-08T11:35:59Z</time>
      </trkpt>
      <trkpt lat="47.07858" lon="-1.39627">
        <ele>16</ele>
        <time>2016-05-08T11:36:30Z</time>
      </trkpt>
      <trkpt lat="47.0786" lon="-1.39634">
        <ele>16</ele>
        <time>2016-05-08T11:36:34Z</time>
      </trkpt>
      <trkpt lat="47.0786" lon="-1.39639">
        <ele>16</ele>
        <time>2016-05-08T11:36:36Z</time>
      </trkpt>
      <trkpt lat="47.07862" lon="-1.39644">
        <ele>15</ele>
        <time>2016-05-08T11:36:38Z</time>
      </trkpt>
      <trkpt lat="47.07899" lon="-1.39669">
        <ele>16</ele>
        <time>2016-05-08T11:37:12Z</time>
      </trkpt>
      <trkpt lat="47.07901" lon="-1.39664">
        <ele>15</ele>
        <time>2016-05-08T11:37:16Z</time>
      </trkpt>
      <trkpt lat="47.07904" lon="-1.39665">
        <ele>15</ele>
        <time>2016-05-08T11:37:24Z</time>
      </trkpt>
      <trkpt lat="47.07907" lon="-1.39664">
        <ele>17</ele>
        <time>2016-05-08T11:39:07Z</time>
      </trkpt>
      <trkpt lat="47.07909" lon="-1.39661">
        <ele>17</ele>
        <time>2016-05-08T11:39:10Z</time>
      </trkpt>
      <trkpt lat="47.07911" lon="-1.39656">
        <ele>21</ele>
        <time>2016-05-08T11:39:17Z</time>
      </trkpt>
      <trkpt lat="47.0791" lon="-1.39653">
        <ele>22</ele>
        <time>2016-05-08T11:39:23Z</time>
      </trkpt>
      <trkpt lat="47.07909" lon="-1.39653">
        <ele>23</ele>
        <time>2016-05-08T11:39:26Z</time>
      </trkpt>
      <trkpt lat="47.07907" lon="-1.39651">
        <ele>24</ele>
        <time>2016-05-08T11:39:29Z</time>
      </trkpt>
      <trkpt lat="47.07908" lon="-1.39647">
        <ele>24</ele>
        <time>2016-05-08T11:40:06Z</time>
      </trkpt>
      <trkpt lat="47.07906" lon="-1.39645">
        <ele>24</ele>
        <time>2016-05-08T11:40:21Z</time>
      </trkpt>
      <trkpt lat="47.07905" lon="-1.3964">
        <ele>23</ele>
        <time>2016-05-08T11:40:24Z</time>
      </trkpt>
      <trkpt lat="47.07905" lon="-1.39638">
        <ele>23</ele>
        <time>2016-05-08T11:40:26Z</time>
      </trkpt>
      <trkpt lat="47.07906" lon="-1.39636">
        <ele>22</ele>
        <time>2016-05-08T11:40:46Z</time>
      </trkpt>
      <trkpt lat="47.07909" lon="-1.39637">
        <ele>22</ele>
        <time>2016-05-08T11:40:48Z</time>
      </trkpt>
      <trkpt lat="47.07924" lon="-1.39635">
        <ele>25</ele>
        <time>2016-05-08T11:41:21Z</time>
      </trkpt>
      <trkpt lat="47.07946" lon="-1.39619">
        <ele>27</ele>
        <time>2016-05-08T11:41:38Z</time>
      </trkpt>
      <trkpt lat="47.07952" lon="-1.39623">
        <ele>26</ele>
        <time>2016-05-08T11:41:42Z</time>
      </trkpt>
      <trkpt lat="47.07956" lon="-1.39631">
        <ele>25</ele>
        <time>2016-05-08T11:41:46Z</time>
      </trkpt>
      <trkpt lat="47.07979" lon="-1.3963">
        <ele>26</ele>
        <time>2016-05-08T11:42:16Z</time>
      </trkpt>
      <trkpt lat="47.08006" lon="-1.39622">
        <ele>29</ele>
        <time>2016-05-08T11:42:47Z</time>
      </trkpt>
      <trkpt lat="47.08007" lon="-1.39621">
        <ele>27</ele>
        <time>2016-05-08T11:42:49Z</time>
      </trkpt>
      <trkpt lat="47.08018" lon="-1.39627">
        <ele>27</ele>
        <time>2016-05-08T11:42:59Z</time>
      </trkpt>
      <trkpt lat="47.08019" lon="-1.39625">
        <ele>29</ele>
        <time>2016-05-08T11:43:01Z</time>
      </trkpt>
      <trkpt lat="47.08023" lon="-1.39626">
        <ele>31</ele>
        <time>2016-05-08T11:46:13Z</time>
      </trkpt>
      <trkpt lat="47.08106" lon="-1.39645">
        <ele>35</ele>
        <time>2016-05-08T11:46:43Z</time>
      </trkpt>
      <trkpt lat="47.0812" lon="-1.39638">
        <ele>35</ele>
        <time>2016-05-08T11:46:49Z</time>
      </trkpt>
      <trkpt lat="47.08207" lon="-1.39665">
        <ele>39</ele>
        <time>2016-05-08T11:47:20Z</time>
      </trkpt>
      <trkpt lat="47.08317" lon="-1.39703">
        <ele>36</ele>
        <time>2016-05-08T11:47:50Z</time>
      </trkpt>
      <trkpt lat="47.08326" lon="-1.39706">
        <ele>36</ele>
        <time>2016-05-08T11:47:52Z</time>
      </trkpt>
      <trkpt lat="47.08431" lon="-1.39683">
        <ele>38</ele>
        <time>2016-05-08T11:48:22Z</time>
      </trkpt>
      <trkpt lat="47.0852" lon="-1.39729">
        <ele>35</ele>
        <time>2016-05-08T11:48:52Z</time>
      </trkpt>
      <trkpt lat="47.08561" lon="-1.39755">
        <ele>35</ele>
        <time>2016-05-08T11:49:22Z</time>
      </trkpt>
      <trkpt lat="47.08674" lon="-1.39713">
        <ele>39</ele>
        <time>2016-05-08T11:49:52Z</time>
      </trkpt>
      <trkpt lat="47.08794" lon="-1.39866">
        <ele>31</ele>
        <time>2016-05-08T11:50:22Z</time>
      </trkpt>
      <trkpt lat="47.08833" lon="-1.39872">
        <ele>28</ele>
        <time>2016-05-08T11:50:28Z</time>
      </trkpt>
      <trkpt lat="47.0886" lon="-1.399">
        <ele>27</ele>
        <time>2016-05-08T11:50:36Z</time>
      </trkpt>
      <trkpt lat="47.08928" lon="-1.4">
        <ele>33</ele>
        <time>2016-05-08T11:51:06Z</time>
      </trkpt>
      <trkpt lat="47.09052" lon="-1.40047">
        <ele>32</ele>
        <time>2016-05-08T11:51:36Z</time>
      </trkpt>
      <trkpt lat="47.09176" lon="-1.40089">
        <ele>30</ele>
        <time>2016-05-08T11:52:04Z</time>
      </trkpt>
      <trkpt lat="47.09229" lon="-1.40157">
        <ele>23</ele>
        <time>2016-05-08T11:52:20Z</time>
      </trkpt>
      <trkpt lat="47.09229" lon="-1.40155">
        <ele>24</ele>
        <time>2016-05-08T11:52:44Z</time>
      </trkpt>
      <trkpt lat="47.09227" lon="-1.40151">
        <ele>25</ele>
        <time>2016-05-08T11:52:49Z</time>
      </trkpt>
      <trkpt lat="47.09192" lon="-1.40106">
        <ele>33</ele>
        <time>2016-05-08T11:53:11Z</time>
      </trkpt>
      <trkpt lat="47.09191" lon="-1.40104">
        <ele>34</ele>
        <time>2016-05-08T11:53:16Z</time>
      </trkpt>
      <trkpt lat="47.09189" lon="-1.40103">
        <ele>34</ele>
        <time>2016-05-08T11:55:20Z</time>
      </trkpt>
      <trkpt lat="47.09189" lon="-1.40108">
        <ele>33</ele>
        <time>2016-05-08T11:55:26Z</time>
      </trkpt>
      <trkpt lat="47.09192" lon="-1.40116">
        <ele>33</ele>
        <time>2016-05-08T11:55:30Z</time>
      </trkpt>
      <trkpt lat="47.09193" lon="-1.40186">
        <ele>27</ele>
        <time>2016-05-08T11:55:48Z</time>
      </trkpt>
      <trkpt lat="47.0919" lon="-1.4019">
        <ele>27</ele>
        <time>2016-05-08T11:55:50Z</time>
      </trkpt>
      <trkpt lat="47.09188" lon="-1.40191">
        <ele>27</ele>
        <time>2016-05-08T11:55:51Z</time>
      </trkpt>
      <trkpt lat="47.09084" lon="-1.40196">
        <ele>18</ele>
        <time>2016-05-08T11:56:11Z</time>
      </trkpt>
      <trkpt lat="47.09068" lon="-1.40196">
        <ele>18</ele>
        <time>2016-05-08T11:56:14Z</time>
      </trkpt>
      <trkpt lat="47.09063" lon="-1.40202">
        <ele>18</ele>
        <time>2016-05-08T11:56:15Z</time>
      </trkpt>
      <trkpt lat="47.0906" lon="-1.40204">
        <ele>17</ele>
        <time>2016-05-08T11:56:16Z</time>
      </trkpt>
      <trkpt lat="47.09058" lon="-1.40209">
        <ele>16</ele>
        <time>2016-05-08T11:56:17Z</time>
      </trkpt>
      <trkpt lat="47.09056" lon="-1.40211">
        <ele>15</ele>
        <time>2016-05-08T11:56:18Z</time>
      </trkpt>
      <trkpt lat="47.09056" lon="-1.40214">
        <ele>14</ele>
        <time>2016-05-08T11:56:19Z</time>
      </trkpt>
      <trkpt lat="47.09059" lon="-1.40217">
        <ele>14</ele>
        <time>2016-05-08T11:56:20Z</time>
      </trkpt>
      <trkpt lat="47.09147" lon="-1.40262">
        <ele>12</ele>
        <time>2016-05-08T11:56:50Z</time>
      </trkpt>
      <trkpt lat="47.09209" lon="-1.40325">
        <ele>3</ele>
        <time>2016-05-08T11:57:20Z</time>
      </trkpt>
      <trkpt lat="47.09302" lon="-1.40352">
        <ele>2</ele>
        <time>2016-05-08T11:57:50Z</time>
      </trkpt>
      <trkpt lat="47.09348" lon="-1.40343">
        <ele>12</ele>
        <time>2016-05-08T11:58:07Z</time>
      </trkpt>
      <trkpt lat="47.09348" lon="-1.40341">
        <ele>11</ele>
        <time>2016-05-08T11:58:14Z</time>
      </trkpt>
      <trkpt lat="47.09352" lon="-1.40337">
        <ele>10</ele>
        <time>2016-05-08T11:58:20Z</time>
      </trkpt>
      <trkpt lat="47.09359" lon="-1.40332">
        <ele>10</ele>
        <time>2016-05-08T11:58:31Z</time>
      </trkpt>
      <trkpt lat="47.09363" lon="-1.40329">
        <ele>11</ele>
        <time>2016-05-08T12:01:06Z</time>
      </trkpt>
      <trkpt lat="47.09365" lon="-1.40329">
        <ele>11</ele>
        <time>2016-05-08T12:01:11Z</time>
      </trkpt>
      <trkpt lat="47.09366" lon="-1.40321">
        <ele>9</ele>
        <time>2016-05-08T12:01:21Z</time>
      </trkpt>
      <trkpt lat="47.09367" lon="-1.4032">
        <ele>8</ele>
        <time>2016-05-08T12:01:23Z</time>
      </trkpt>
      <trkpt lat="47.0937" lon="-1.40318">
        <ele>8</ele>
        <time>2016-05-08T12:01:58Z</time>
      </trkpt>
      <trkpt lat="47.09372" lon="-1.40317">
        <ele>10</ele>
        <time>2016-05-08T12:02:42Z</time>
      </trkpt>
      <trkpt lat="47.09373" lon="-1.40318">
        <ele>10</ele>
        <time>2016-05-08T12:05:08Z</time>
      </trkpt>
      <trkpt lat="47.09373" lon="-1.40315">
        <ele>9</ele>
        <time>2016-05-08T12:06:54Z</time>
      </trkpt>
      <trkpt lat="47.09371" lon="-1.40304">
        <ele>10</ele>
        <time>2016-05-08T12:07:07Z</time>
      </trkpt>
      <trkpt lat="47.09372" lon="-1.403">
        <ele>10</ele>
        <time>2016-05-08T12:07:14Z</time>
      </trkpt>
      <trkpt lat="47.09372" lon="-1.40296">
        <ele>10</ele>
        <time>2016-05-08T12:07:16Z</time>
      </trkpt>
      <trkpt lat="47.09373" lon="-1.4029">
        <ele>11</ele>
        <time>2016-05-08T12:07:19Z</time>
      </trkpt>
      <trkpt lat="47.09375" lon="-1.40216">
        <ele>18</ele>
        <time>2016-05-08T12:07:50Z</time>
      </trkpt>
      <trkpt lat="47.09377" lon="-1.40199">
        <ele>20</ele>
        <time>2016-05-08T12:07:57Z</time>
      </trkpt>
      <trkpt lat="47.09397" lon="-1.40176">
        <ele>27</ele>
        <time>2016-05-08T12:08:12Z</time>
      </trkpt>
      <trkpt lat="47.09479" lon="-1.40103">
        <ele>34</ele>
        <time>2016-05-08T12:08:42Z</time>
      </trkpt>
      <trkpt lat="47.095" lon="-1.40074">
        <ele>31</ele>
        <time>2016-05-08T12:08:51Z</time>
      </trkpt>
      <trkpt lat="47.09528" lon="-1.40078">
        <ele>29</ele>
        <time>2016-05-08T12:09:05Z</time>
      </trkpt>
      <trkpt lat="47.09553" lon="-1.40034">
        <ele>35</ele>
        <time>2016-05-08T12:09:23Z</time>
      </trkpt>
      <trkpt lat="47.09642" lon="-1.39926">
        <ele>31</ele>
        <time>2016-05-08T12:09:53Z</time>
      </trkpt>
      <trkpt lat="47.09724" lon="-1.3994">
        <ele>41</ele>
        <time>2016-05-08T12:10:23Z</time>
      </trkpt>
      <trkpt lat="47.09785" lon="-1.39931">
        <ele>48</ele>
        <time>2016-05-08T12:10:53Z</time>
      </trkpt>
      <trkpt lat="47.09874" lon="-1.39886">
        <ele>51</ele>
        <time>2016-05-08T12:11:24Z</time>
      </trkpt>
      <trkpt lat="47.09907" lon="-1.3987">
        <ele>51</ele>
        <time>2016-05-08T12:11:34Z</time>
      </trkpt>
      <trkpt lat="47.09912" lon="-1.39876">
        <ele>51</ele>
        <time>2016-05-08T12:11:36Z</time>
      </trkpt>
      <trkpt lat="47.09951" lon="-1.40038">
        <ele>52</ele>
        <time>2016-05-08T12:12:06Z</time>
      </trkpt>
      <trkpt lat="47.09971" lon="-1.40066">
        <ele>54</ele>
        <time>2016-05-08T12:12:15Z</time>
      </trkpt>
      <trkpt lat="47.09988" lon="-1.40184">
        <ele>56</ele>
        <time>2016-05-08T12:12:42Z</time>
      </trkpt>
      <trkpt lat="47.0999" lon="-1.40184">
        <ele>57</ele>
        <time>2016-05-08T12:12:45Z</time>
      </trkpt>
      <trkpt lat="47.1005" lon="-1.40098">
        <ele>56</ele>
        <time>2016-05-08T12:13:09Z</time>
      </trkpt>
      <trkpt lat="47.10035" lon="-1.40052">
        <ele>56</ele>
        <time>2016-05-08T12:13:18Z</time>
      </trkpt>
      <trkpt lat="47.10037" lon="-1.40048">
        <ele>56</ele>
        <time>2016-05-08T12:13:19Z</time>
      </trkpt>
      <trkpt lat="47.10061" lon="-1.40039">
        <ele>55</ele>
        <time>2016-05-08T12:13:24Z</time>
      </trkpt>
      <trkpt lat="47.10145" lon="-1.39987">
        <ele>53</ele>
        <time>2016-05-08T12:13:42Z</time>
      </trkpt>
      <trkpt lat="47.10144" lon="-1.39981">
        <ele>53</ele>
        <time>2016-05-08T12:13:43Z</time>
      </trkpt>
      <trkpt lat="47.10139" lon="-1.39965">
        <ele>53</ele>
        <time>2016-05-08T12:13:46Z</time>
      </trkpt>
      <trkpt lat="47.10139" lon="-1.39958">
        <ele>53</ele>
        <time>2016-05-08T12:13:47Z</time>
      </trkpt>
      <trkpt lat="47.10141" lon="-1.39952">
        <ele>53</ele>
        <time>2016-05-08T12:13:48Z</time>
      </trkpt>
      <trkpt lat="47.10184" lon="-1.39913">
        <ele>53</ele>
        <time>2016-05-08T12:14:00Z</time>
      </trkpt>
      <trkpt lat="47.10188" lon="-1.39912">
        <ele>53</ele>
        <time>2016-05-08T12:14:01Z</time>
      </trkpt>
      <trkpt lat="47.1028" lon="-1.39845">
        <ele>56</ele>
        <time>2016-05-08T12:14:31Z</time>
      </trkpt>
      <trkpt lat="47.10416" lon="-1.39739">
        <ele>50</ele>
        <time>2016-05-08T12:14:58Z</time>
      </trkpt>
      <trkpt lat="47.10509" lon="-1.396">
        <ele>49</ele>
        <time>2016-05-08T12:15:28Z</time>
      </trkpt>
      <trkpt lat="47.10614" lon="-1.39459">
        <ele>50</ele>
        <time>2016-05-08T12:15:58Z</time>
      </trkpt>
      <trkpt lat="47.10736" lon="-1.3938">
        <ele>52</ele>
        <time>2016-05-08T12:16:28Z</time>
      </trkpt>
      <trkpt lat="47.10852" lon="-1.39325">
        <ele>55</ele>
        <time>2016-05-08T12:16:58Z</time>
      </trkpt>
      <trkpt lat="47.10911" lon="-1.39305">
        <ele>55</ele>
        <time>2016-05-08T12:17:13Z</time>
      </trkpt>
      <trkpt lat="47.1092" lon="-1.39331">
        <ele>55</ele>
        <time>2016-05-08T12:17:18Z</time>
      </trkpt>
      <trkpt lat="47.10967" lon="-1.39528">
        <ele>54</ele>
        <time>2016-05-08T12:17:48Z</time>
      </trkpt>
      <trkpt lat="47.10971" lon="-1.39538">
        <ele>55</ele>
        <time>2016-05-08T12:18:58Z</time>
      </trkpt>
      <trkpt lat="47.10985" lon="-1.39579">
        <ele>55</ele>
        <time>2016-05-08T12:19:09Z</time>
      </trkpt>
      <trkpt lat="47.10992" lon="-1.39581">
        <ele>55</ele>
        <time>2016-05-08T12:19:11Z</time>
      </trkpt>
      <trkpt lat="47.11052" lon="-1.39521">
        <ele>56</ele>
        <time>2016-05-08T12:19:31Z</time>
      </trkpt>
      <trkpt lat="47.11116" lon="-1.39621">
        <ele>55</ele>
        <time>2016-05-08T12:19:59Z</time>
      </trkpt>
      <trkpt lat="47.11119" lon="-1.39615">
        <ele>55</ele>
        <time>2016-05-08T12:20:00Z</time>
      </trkpt>
      <trkpt lat="47.11122" lon="-1.39614">
        <ele>55</ele>
        <time>2016-05-08T12:20:01Z</time>
      </trkpt>
      <trkpt lat="47.11203" lon="-1.39497">
        <ele>55</ele>
        <time>2016-05-08T12:20:27Z</time>
      </trkpt>
      <trkpt lat="47.11319" lon="-1.39577">
        <ele>55</ele>
        <time>2016-05-08T12:20:57Z</time>
      </trkpt>
      <trkpt lat="47.11419" lon="-1.39647">
        <ele>54</ele>
        <time>2016-05-08T12:22:30Z</time>
      </trkpt>
      <trkpt lat="47.11421" lon="-1.39651">
        <ele>54</ele>
        <time>2016-05-08T12:22:32Z</time>
      </trkpt>
      <trkpt lat="47.11421" lon="-1.39653">
        <ele>55</ele>
        <time>2016-05-08T12:24:02Z</time>
      </trkpt>
      <trkpt lat="47.11418" lon="-1.39652">
        <ele>55</ele>
        <time>2016-05-08T12:24:06Z</time>
      </trkpt>
      <trkpt lat="47.11416" lon="-1.39653">
        <ele>54</ele>
        <time>2016-05-08T12:24:07Z</time>
      </trkpt>
      <trkpt lat="47.11414" lon="-1.39655">
        <ele>54</ele>
        <time>2016-05-08T12:24:08Z</time>
      </trkpt>
      <trkpt lat="47.11374" lon="-1.39794">
        <ele>56</ele>
        <time>2016-05-08T12:24:31Z</time>
      </trkpt>
      <trkpt lat="47.11376" lon="-1.39808">
        <ele>56</ele>
        <time>2016-05-08T12:24:33Z</time>
      </trkpt>
      <trkpt lat="47.11495" lon="-1.40016">
        <ele>53</ele>
        <time>2016-05-08T12:25:03Z</time>
      </trkpt>
      <trkpt lat="47.11572" lon="-1.40312">
        <ele>51</ele>
        <time>2016-05-08T12:25:33Z</time>
      </trkpt>
      <trkpt lat="47.11608" lon="-1.40421">
        <ele>51</ele>
        <time>2016-05-08T12:25:44Z</time>
      </trkpt>
      <trkpt lat="47.11654" lon="-1.40455">
        <ele>51</ele>
        <time>2016-05-08T12:25:51Z</time>
      </trkpt>
      <trkpt lat="47.11673" lon="-1.40546">
        <ele>51</ele>
        <time>2016-05-08T12:26:00Z</time>
      </trkpt>
      <trkpt lat="47.11669" lon="-1.4068">
        <ele>49</ele>
        <time>2016-05-08T12:26:13Z</time>
      </trkpt>
      <trkpt lat="47.1159" lon="-1.40737">
        <ele>46</ele>
        <time>2016-05-08T12:26:25Z</time>
      </trkpt>
      <trkpt lat="47.11588" lon="-1.40759">
        <ele>47</ele>
        <time>2016-05-08T12:26:27Z</time>
      </trkpt>
      <trkpt lat="47.11594" lon="-1.40768">
        <ele>47</ele>
        <time>2016-05-08T12:26:28Z</time>
      </trkpt>
      <trkpt lat="47.11636" lon="-1.40972">
        <ele>50</ele>
        <time>2016-05-08T12:26:55Z</time>
      </trkpt>
      <trkpt lat="47.11626" lon="-1.40978">
        <ele>50</ele>
        <time>2016-05-08T12:26:57Z</time>
      </trkpt>
      <trkpt lat="47.11465" lon="-1.41066">
        <ele>45</ele>
        <time>2016-05-08T12:27:25Z</time>
      </trkpt>
      <trkpt lat="47.11463" lon="-1.41081">
        <ele>44</ele>
        <time>2016-05-08T12:27:27Z</time>
      </trkpt>
      <trkpt lat="47.11468" lon="-1.41096">
        <ele>44</ele>
        <time>2016-05-08T12:27:29Z</time>
      </trkpt>
      <trkpt lat="47.11475" lon="-1.41121">
        <ele>44</ele>
        <time>2016-05-08T12:27:35Z</time>
      </trkpt>
      <trkpt lat="47.11473" lon="-1.41123">
        <ele>44</ele>
        <time>2016-05-08T12:27:36Z</time>
      </trkpt>
      <trkpt lat="47.11465" lon="-1.4113">
        <ele>44</ele>
        <time>2016-05-08T12:27:42Z</time>
      </trkpt>
      <trkpt lat="47.11464" lon="-1.41129">
        <ele>45</ele>
        <time>2016-05-08T12:28:45Z</time>
      </trkpt>
      <trkpt lat="47.11421" lon="-1.41155">
        <ele>38</ele>
        <time>2016-05-08T12:29:15Z</time>
      </trkpt>
      <trkpt lat="47.11389" lon="-1.4118">
        <ele>34</ele>
        <time>2016-05-08T12:29:23Z</time>
      </trkpt>
      <trkpt lat="47.11388" lon="-1.41186">
        <ele>34</ele>
        <time>2016-05-08T12:29:24Z</time>
      </trkpt>
      <trkpt lat="47.11388" lon="-1.41192">
        <ele>34</ele>
        <time>2016-05-08T12:29:25Z</time>
      </trkpt>
      <trkpt lat="47.11441" lon="-1.41361">
        <ele>32</ele>
        <time>2016-05-08T12:29:55Z</time>
      </trkpt>
      <trkpt lat="47.11487" lon="-1.41445">
        <ele>22</ele>
        <time>2016-05-08T12:30:14Z</time>
      </trkpt>
      <trkpt lat="47.11485" lon="-1.41423">
        <ele>16</ele>
        <time>2016-05-08T12:30:27Z</time>
      </trkpt>
      <trkpt lat="47.11481" lon="-1.41421">
        <ele>13</ele>
        <time>2016-05-08T12:30:30Z</time>
      </trkpt>
      <trkpt lat="47.11475" lon="-1.41419">
        <ele>11</ele>
        <time>2016-05-08T12:30:33Z</time>
      </trkpt>
      <trkpt lat="47.11473" lon="-1.41417">
        <ele>11</ele>
        <time>2016-05-08T12:30:34Z</time>
      </trkpt>
      <trkpt lat="47.11472" lon="-1.41414">
        <ele>10</ele>
        <time>2016-05-08T12:30:35Z</time>
      </trkpt>
      <trkpt lat="47.11473" lon="-1.41404">
        <ele>9</ele>
        <time>2016-05-08T12:30:38Z</time>
      </trkpt>
      <trkpt lat="47.11471" lon="-1.41401">
        <ele>10</ele>
        <time>2016-05-08T12:30:40Z</time>
      </trkpt>
      <trkpt lat="47.1147" lon="-1.41401">
        <ele>11</ele>
        <time>2016-05-08T12:30:41Z</time>
      </trkpt>
      <trkpt lat="47.11453" lon="-1.41399">
        <ele>12</ele>
        <time>2016-05-08T12:30:49Z</time>
      </trkpt>
      <trkpt lat="47.11452" lon="-1.41398">
        <ele>12</ele>
        <time>2016-05-08T12:30:50Z</time>
      </trkpt>
      <trkpt lat="47.1145" lon="-1.41393">
        <ele>12</ele>
        <time>2016-05-08T12:30:52Z</time>
      </trkpt>
      <trkpt lat="47.11437" lon="-1.41379">
        <ele>15</ele>
        <time>2016-05-08T12:30:59Z</time>
      </trkpt>
      <trkpt lat="47.11436" lon="-1.41378">
        <ele>16</ele>
        <time>2016-05-08T12:31:06Z</time>
      </trkpt>
      <trkpt lat="47.11435" lon="-1.41376">
        <ele>16</ele>
        <time>2016-05-08T12:31:15Z</time>
      </trkpt>
      <trkpt lat="47.11435" lon="-1.41372">
        <ele>16</ele>
        <time>2016-05-08T12:31:17Z</time>
      </trkpt>
      <trkpt lat="47.11433" lon="-1.41367">
        <ele>15</ele>
        <time>2016-05-08T12:31:25Z</time>
      </trkpt>
      <trkpt lat="47.11431" lon="-1.41364">
        <ele>14</ele>
        <time>2016-05-08T12:31:29Z</time>
      </trkpt>
      <trkpt lat="47.11429" lon="-1.41362">
        <ele>13</ele>
        <time>2016-05-08T12:31:31Z</time>
      </trkpt>
      <trkpt lat="47.11426" lon="-1.41358">
        <ele>12</ele>
        <time>2016-05-08T12:31:35Z</time>
      </trkpt>
      <trkpt lat="47.11423" lon="-1.41353">
        <ele>9</ele>
        <time>2016-05-08T12:31:40Z</time>
      </trkpt>
      <trkpt lat="47.11421" lon="-1.41333">
        <ele>5</ele>
        <time>2016-05-08T12:31:58Z</time>
      </trkpt>
      <trkpt lat="47.1142" lon="-1.41331">
        <ele>5</ele>
        <time>2016-05-08T12:32:01Z</time>
      </trkpt>
      <trkpt lat="47.11418" lon="-1.41326">
        <ele>6</ele>
        <time>2016-05-08T12:32:08Z</time>
      </trkpt>
      <trkpt lat="47.11417" lon="-1.41325">
        <ele>7</ele>
        <time>2016-05-08T12:32:13Z</time>
      </trkpt>
      <trkpt lat="47.11416" lon="-1.41323">
        <ele>8</ele>
        <time>2016-05-08T12:32:32Z</time>
      </trkpt>
      <trkpt lat="47.11415" lon="-1.41321">
        <ele>8</ele>
        <time>2016-05-08T12:32:33Z</time>
      </trkpt>
      <trkpt lat="47.11395" lon="-1.41301">
        <ele>6</ele>
        <time>2016-05-08T12:32:41Z</time>
      </trkpt>
      <trkpt lat="47.11347" lon="-1.41274">
        <ele>10</ele>
        <time>2016-05-08T12:33:06Z</time>
      </trkpt>
      <trkpt lat="47.11341" lon="-1.41221">
        <ele>17</ele>
        <time>2016-05-08T12:33:31Z</time>
      </trkpt>
      <trkpt lat="47.11342" lon="-1.41205">
        <ele>23</ele>
        <time>2016-05-08T12:33:41Z</time>
      </trkpt>
      <trkpt lat="47.11341" lon="-1.412">
        <ele>22</ele>
        <time>2016-05-08T12:33:43Z</time>
      </trkpt>
      <trkpt lat="47.11329" lon="-1.41134">
        <ele>22</ele>
        <time>2016-05-08T12:34:13Z</time>
      </trkpt>
      <trkpt lat="47.11329" lon="-1.41132">
        <ele>24</ele>
        <time>2016-05-08T12:34:15Z</time>
      </trkpt>
      <trkpt lat="47.11324" lon="-1.41087">
        <ele>21</ele>
        <time>2016-05-08T12:34:33Z</time>
      </trkpt>
      <trkpt lat="47.11321" lon="-1.41068">
        <ele>23</ele>
        <time>2016-05-08T12:34:43Z</time>
      </trkpt>
      <trkpt lat="47.11322" lon="-1.41064">
        <ele>23</ele>
        <time>2016-05-08T12:34:45Z</time>
      </trkpt>
      <trkpt lat="47.11334" lon="-1.40995">
        <ele>31</ele>
        <time>2016-05-08T12:35:16Z</time>
      </trkpt>
      <trkpt lat="47.11335" lon="-1.40987">
        <ele>32</ele>
        <time>2016-05-08T12:35:20Z</time>
      </trkpt>
      <trkpt lat="47.11343" lon="-1.409">
        <ele>35</ele>
        <time>2016-05-08T12:35:51Z</time>
      </trkpt>
      <trkpt lat="47.11341" lon="-1.40877">
        <ele>33</ele>
        <time>2016-05-08T12:35:59Z</time>
      </trkpt>
      <trkpt lat="47.11343" lon="-1.40869">
        <ele>34</ele>
        <time>2016-05-08T12:36:01Z</time>
      </trkpt>
      <trkpt lat="47.11363" lon="-1.40836">
        <ele>35</ele>
        <time>2016-05-08T12:36:11Z</time>
      </trkpt>
      <trkpt lat="47.11418" lon="-1.40839">
        <ele>39</ele>
        <time>2016-05-08T12:36:40Z</time>
      </trkpt>
      <trkpt lat="47.11417" lon="-1.40855">
        <ele>43</ele>
        <time>2016-05-08T12:36:47Z</time>
      </trkpt>
      <trkpt lat="47.11416" lon="-1.40857">
        <ele>44</ele>
        <time>2016-05-08T12:36:49Z</time>
      </trkpt>
      <trkpt lat="47.11386" lon="-1.40862">
        <ele>44</ele>
        <time>2016-05-08T12:37:02Z</time>
      </trkpt>
      <trkpt lat="47.11383" lon="-1.40867">
        <ele>44</ele>
        <time>2016-05-08T12:37:03Z</time>
      </trkpt>
      <trkpt lat="47.11382" lon="-1.40872">
        <ele>44</ele>
        <time>2016-05-08T12:37:04Z</time>
      </trkpt>
      <trkpt lat="47.11378" lon="-1.41025">
        <ele>39</ele>
        <time>2016-05-08T12:37:37Z</time>
      </trkpt>
      <trkpt lat="47.11376" lon="-1.41026">
        <ele>39</ele>
        <time>2016-05-08T12:37:38Z</time>
      </trkpt>
      <trkpt lat="47.11364" lon="-1.4103">
        <ele>38</ele>
        <time>2016-05-08T12:37:44Z</time>
      </trkpt>
      <trkpt lat="47.11362" lon="-1.41032">
        <ele>38</ele>
        <time>2016-05-08T12:37:46Z</time>
      </trkpt>
      <trkpt lat="47.11362" lon="-1.41036">
        <ele>38</ele>
        <time>2016-05-08T12:37:48Z</time>
      </trkpt>
      <trkpt lat="47.11371" lon="-1.41084">
        <ele>38</ele>
        <time>2016-05-08T12:38:05Z</time>
      </trkpt>
      <trkpt lat="47.1137" lon="-1.41084">
        <ele>37</ele>
        <time>2016-05-08T12:38:23Z</time>
      </trkpt>
      <trkpt lat="47.11381" lon="-1.41171">
        <ele>34</ele>
        <time>2016-05-08T12:38:38Z</time>
      </trkpt>
      <trkpt lat="47.11394" lon="-1.41225">
        <ele>33</ele>
        <time>2016-05-08T12:43:50Z</time>
      </trkpt>
      <trkpt lat="47.11399" lon="-1.41246">
        <ele>32</ele>
        <time>2016-05-08T12:43:56Z</time>
      </trkpt>
      <trkpt lat="47.11427" lon="-1.41298">
        <ele>31</ele>
        <time>2016-05-08T12:44:03Z</time>
      </trkpt>
      <trkpt lat="47.11439" lon="-1.41357">
        <ele>29</ele>
        <time>2016-05-08T12:44:10Z</time>
      </trkpt>
      <trkpt lat="47.11479" lon="-1.41407">
        <ele>22</ele>
        <time>2016-05-08T12:44:18Z</time>
      </trkpt>
      <trkpt lat="47.11478" lon="-1.41413">
        <ele>22</ele>
        <time>2016-05-08T12:44:19Z</time>
      </trkpt>
      <trkpt lat="47.11475" lon="-1.4142">
        <ele>22</ele>
        <time>2016-05-08T12:44:20Z</time>
      </trkpt>
      <trkpt lat="47.11486" lon="-1.41442">
        <ele>22</ele>
        <time>2016-05-08T12:44:24Z</time>
      </trkpt>
      <trkpt lat="47.11583" lon="-1.41572">
        <ele>20</ele>
        <time>2016-05-08T12:44:54Z</time>
      </trkpt>
      <trkpt lat="47.11593" lon="-1.41585">
        <ele>20</ele>
        <time>2016-05-08T12:44:57Z</time>
      </trkpt>
      <trkpt lat="47.11685" lon="-1.41674">
        <ele>14</ele>
        <time>2016-05-08T12:45:20Z</time>
      </trkpt>
      <trkpt lat="47.11689" lon="-1.41671">
        <ele>14</ele>
        <time>2016-05-08T12:45:21Z</time>
      </trkpt>
      <trkpt lat="47.117" lon="-1.41664">
        <ele>20</ele>
        <time>2016-05-08T12:45:24Z</time>
      </trkpt>
      <trkpt lat="47.1173" lon="-1.41684">
        <ele>13</ele>
        <time>2016-05-08T12:45:30Z</time>
      </trkpt>
      <trkpt lat="47.11837" lon="-1.41702">
        <ele>15</ele>
        <time>2016-05-08T12:46:00Z</time>
      </trkpt>
      <trkpt lat="47.11961" lon="-1.41712">
        <ele>13</ele>
        <time>2016-05-08T12:46:30Z</time>
      </trkpt>
      <trkpt lat="47.11964" lon="-1.41716">
        <ele>13</ele>
        <time>2016-05-08T12:46:31Z</time>
      </trkpt>
      <trkpt lat="47.1197" lon="-1.41716">
        <ele>12</ele>
        <time>2016-05-08T12:46:32Z</time>
      </trkpt>
      <trkpt lat="47.12054" lon="-1.41715">
        <ele>13</ele>
        <time>2016-05-08T12:46:50Z</time>
      </trkpt>
      <trkpt lat="47.12056" lon="-1.41721">
        <ele>13</ele>
        <time>2016-05-08T12:46:51Z</time>
      </trkpt>
      <trkpt lat="47.12069" lon="-1.4173">
        <ele>14</ele>
        <time>2016-05-08T12:47:08Z</time>
      </trkpt>
      <trkpt lat="47.1207" lon="-1.41734">
        <ele>13</ele>
        <time>2016-05-08T12:47:12Z</time>
      </trkpt>
      <trkpt lat="47.12088" lon="-1.41744">
        <ele>9</ele>
        <time>2016-05-08T12:47:39Z</time>
      </trkpt>
      <trkpt lat="47.12088" lon="-1.41746">
        <ele>10</ele>
        <time>2016-05-08T12:47:49Z</time>
      </trkpt>
      <trkpt lat="47.12094" lon="-1.41753">
        <ele>12</ele>
        <time>2016-05-08T12:48:01Z</time>
      </trkpt>
      <trkpt lat="47.12097" lon="-1.41752">
        <ele>12</ele>
        <time>2016-05-08T12:48:04Z</time>
      </trkpt>
      <trkpt lat="47.12112" lon="-1.41757">
        <ele>8</ele>
        <time>2016-05-08T12:48:30Z</time>
      </trkpt>
      <trkpt lat="47.12112" lon="-1.41759">
        <ele>9</ele>
        <time>2016-05-08T12:48:39Z</time>
      </trkpt>
      <trkpt lat="47.12135" lon="-1.4177">
        <ele>12</ele>
        <time>2016-05-08T12:49:09Z</time>
      </trkpt>
      <trkpt lat="47.12215" lon="-1.4181">
        <ele>16</ele>
        <time>2016-05-08T12:49:39Z</time>
      </trkpt>
      <trkpt lat="47.12284" lon="-1.41806">
        <ele>13</ele>
        <time>2016-05-08T12:50:10Z</time>
      </trkpt>
      <trkpt lat="47.12291" lon="-1.41814">
        <ele>16</ele>
        <time>2016-05-08T12:50:21Z</time>
      </trkpt>
      <trkpt lat="47.12305" lon="-1.41819">
        <ele>14</ele>
        <time>2016-05-08T12:50:34Z</time>
      </trkpt>
      <trkpt lat="47.1231" lon="-1.41828">
        <ele>13</ele>
        <time>2016-05-08T12:50:40Z</time>
      </trkpt>
      <trkpt lat="47.1236" lon="-1.41787">
        <ele>9</ele>
        <time>2016-05-08T12:51:12Z</time>
      </trkpt>
      <trkpt lat="47.12364" lon="-1.41781">
        <ele>9</ele>
        <time>2016-05-08T12:51:17Z</time>
      </trkpt>
      <trkpt lat="47.12368" lon="-1.41766">
        <ele>7</ele>
        <time>2016-05-08T12:51:24Z</time>
      </trkpt>
      <trkpt lat="47.12366" lon="-1.41765">
        <ele>8</ele>
        <time>2016-05-08T12:51:26Z</time>
      </trkpt>
      <trkpt lat="47.12364" lon="-1.41763">
        <ele>8</ele>
        <time>2016-05-08T12:51:28Z</time>
      </trkpt>
      <trkpt lat="47.12363" lon="-1.41761">
        <ele>8</ele>
        <time>2016-05-08T12:51:30Z</time>
      </trkpt>
      <trkpt lat="47.12362" lon="-1.41759">
        <ele>9</ele>
        <time>2016-05-08T12:51:33Z</time>
      </trkpt>
      <trkpt lat="47.12361" lon="-1.41752">
        <ele>10</ele>
        <time>2016-05-08T12:51:41Z</time>
      </trkpt>
      <trkpt lat="47.12361" lon="-1.41745">
        <ele>10</ele>
        <time>2016-05-08T12:51:45Z</time>
      </trkpt>
      <trkpt lat="47.12359" lon="-1.41743">
        <ele>9</ele>
        <time>2016-05-08T12:51:47Z</time>
      </trkpt>
      <trkpt lat="47.12357" lon="-1.41741">
        <ele>8</ele>
        <time>2016-05-08T12:51:49Z</time>
      </trkpt>
      <trkpt lat="47.12354" lon="-1.41741">
        <ele>8</ele>
        <time>2016-05-08T12:51:51Z</time>
      </trkpt>
      <trkpt lat="47.12348" lon="-1.41744">
        <ele>9</ele>
        <time>2016-05-08T12:51:56Z</time>
      </trkpt>
      <trkpt lat="47.12345" lon="-1.41749">
        <ele>11</ele>
        <time>2016-05-08T12:52:08Z</time>
      </trkpt>
      <trkpt lat="47.12343" lon="-1.41748">
        <ele>12</ele>
        <time>2016-05-08T12:52:11Z</time>
      </trkpt>
      <trkpt lat="47.12341" lon="-1.41745">
        <ele>12</ele>
        <time>2016-05-08T12:52:13Z</time>
      </trkpt>
      <trkpt lat="47.12339" lon="-1.41742">
        <ele>12</ele>
        <time>2016-05-08T12:52:15Z</time>
      </trkpt>
      <trkpt lat="47.12337" lon="-1.41742">
        <ele>12</ele>
        <time>2016-05-08T12:52:17Z</time>
      </trkpt>
      <trkpt lat="47.12328" lon="-1.41753">
        <ele>13</ele>
        <time>2016-05-08T12:52:30Z</time>
      </trkpt>
      <trkpt lat="47.12326" lon="-1.41751">
        <ele>13</ele>
        <time>2016-05-08T12:52:33Z</time>
      </trkpt>
      <trkpt lat="47.12324" lon="-1.41749">
        <ele>12</ele>
        <time>2016-05-08T12:52:35Z</time>
      </trkpt>
      <trkpt lat="47.12321" lon="-1.41748">
        <ele>11</ele>
        <time>2016-05-08T12:52:37Z</time>
      </trkpt>
      <trkpt lat="47.12318" lon="-1.41746">
        <ele>11</ele>
        <time>2016-05-08T12:52:39Z</time>
      </trkpt>
      <trkpt lat="47.12319" lon="-1.41744">
        <ele>10</ele>
        <time>2016-05-08T12:52:41Z</time>
      </trkpt>
      <trkpt lat="47.12314" lon="-1.41731">
        <ele>9</ele>
        <time>2016-05-08T12:52:47Z</time>
      </trkpt>
      <trkpt lat="47.12315" lon="-1.41727">
        <ele>10</ele>
        <time>2016-05-08T12:52:49Z</time>
      </trkpt>
      <trkpt lat="47.12317" lon="-1.41722">
        <ele>11</ele>
        <time>2016-05-08T12:52:51Z</time>
      </trkpt>
      <trkpt lat="47.12319" lon="-1.4172">
        <ele>11</ele>
        <time>2016-05-08T12:52:53Z</time>
      </trkpt>
      <trkpt lat="47.12341" lon="-1.41706">
        <ele>8</ele>
        <time>2016-05-08T12:53:05Z</time>
      </trkpt>
      <trkpt lat="47.12344" lon="-1.41715">
        <ele>10</ele>
        <time>2016-05-08T12:53:10Z</time>
      </trkpt>
      <trkpt lat="47.1235" lon="-1.41718">
        <ele>11</ele>
        <time>2016-05-08T12:53:19Z</time>
      </trkpt>
      <trkpt lat="47.12358" lon="-1.41717">
        <ele>12</ele>
        <time>2016-05-08T12:53:30Z</time>
      </trkpt>
      <trkpt lat="47.12358" lon="-1.41714">
        <ele>12</ele>
        <time>2016-05-08T12:53:37Z</time>
      </trkpt>
      <trkpt lat="47.12359" lon="-1.41711">
        <ele>13</ele>
        <time>2016-05-08T12:53:40Z</time>
      </trkpt>
      <trkpt lat="47.1236" lon="-1.41709">
        <ele>15</ele>
        <time>2016-05-08T12:53:43Z</time>
      </trkpt>
      <trkpt lat="47.12359" lon="-1.41705">
        <ele>15</ele>
        <time>2016-05-08T12:53:52Z</time>
      </trkpt>
      <trkpt lat="47.12357" lon="-1.41704">
        <ele>15</ele>
        <time>2016-05-08T12:53:55Z</time>
      </trkpt>
      <trkpt lat="47.12356" lon="-1.41706">
        <ele>14</ele>
        <time>2016-05-08T12:53:58Z</time>
      </trkpt>
      <trkpt lat="47.12347" lon="-1.41721">
        <ele>8</ele>
        <time>2016-05-08T12:54:10Z</time>
      </trkpt>
      <trkpt lat="47.12345" lon="-1.4172">
        <ele>9</ele>
        <time>2016-05-08T12:54:12Z</time>
      </trkpt>
      <trkpt lat="47.12342" lon="-1.41719">
        <ele>9</ele>
        <time>2016-05-08T12:54:14Z</time>
      </trkpt>
      <trkpt lat="47.1234" lon="-1.41719">
        <ele>8</ele>
        <time>2016-05-08T12:54:16Z</time>
      </trkpt>
      <trkpt lat="47.12337" lon="-1.41721">
        <ele>8</ele>
        <time>2016-05-08T12:54:18Z</time>
      </trkpt>
      <trkpt lat="47.12335" lon="-1.41725">
        <ele>8</ele>
        <time>2016-05-08T12:54:20Z</time>
      </trkpt>
      <trkpt lat="47.12335" lon="-1.41728">
        <ele>11</ele>
        <time>2016-05-08T12:54:31Z</time>
      </trkpt>
      <trkpt lat="47.12333" lon="-1.4173">
        <ele>11</ele>
        <time>2016-05-08T12:54:35Z</time>
      </trkpt>
      <trkpt lat="47.12327" lon="-1.41734">
        <ele>14</ele>
        <time>2016-05-08T12:55:00Z</time>
      </trkpt>
      <trkpt lat="47.12326" lon="-1.4174">
        <ele>13</ele>
        <time>2016-05-08T12:55:05Z</time>
      </trkpt>
      <trkpt lat="47.12329" lon="-1.41749">
        <ele>13</ele>
        <time>2016-05-08T12:55:11Z</time>
      </trkpt>
      <trkpt lat="47.12328" lon="-1.41752">
        <ele>14</ele>
        <time>2016-05-08T12:55:13Z</time>
      </trkpt>
      <trkpt lat="47.12325" lon="-1.41754">
        <ele>15</ele>
        <time>2016-05-08T12:55:17Z</time>
      </trkpt>
      <trkpt lat="47.12325" lon="-1.41759">
        <ele>15</ele>
        <time>2016-05-08T12:55:31Z</time>
      </trkpt>
      <trkpt lat="47.12328" lon="-1.41757">
        <ele>15</ele>
        <time>2016-05-08T12:55:33Z</time>
      </trkpt>
      <trkpt lat="47.12328" lon="-1.41752">
        <ele>15</ele>
        <time>2016-05-08T12:55:40Z</time>
      </trkpt>
      <trkpt lat="47.12329" lon="-1.41749">
        <ele>12</ele>
        <time>2016-05-08T12:55:46Z</time>
      </trkpt>
      <trkpt lat="47.1233" lon="-1.41749">
        <ele>12</ele>
        <time>2016-05-08T12:55:48Z</time>
      </trkpt>
      <trkpt lat="47.12335" lon="-1.41742">
        <ele>14</ele>
        <time>2016-05-08T12:55:56Z</time>
      </trkpt>
      <trkpt lat="47.12338" lon="-1.41733">
        <ele>12</ele>
        <time>2016-05-08T12:56:02Z</time>
      </trkpt>
      <trkpt lat="47.12361" lon="-1.4171">
        <ele>6</ele>
        <time>2016-05-08T12:56:22Z</time>
      </trkpt>
      <trkpt lat="47.12362" lon="-1.41711">
        <ele>5</ele>
        <time>2016-05-08T12:56:23Z</time>
      </trkpt>
      <trkpt lat="47.12365" lon="-1.41713">
        <ele>4</ele>
        <time>2016-05-08T12:56:25Z</time>
      </trkpt>
      <trkpt lat="47.12364" lon="-1.41717">
        <ele>1</ele>
        <time>2016-05-08T12:56:35Z</time>
      </trkpt>
      <trkpt lat="47.12359" lon="-1.41727">
        <ele>4</ele>
        <time>2016-05-08T12:56:41Z</time>
      </trkpt>
      <trkpt lat="47.12357" lon="-1.41728">
        <ele>4</ele>
        <time>2016-05-08T12:56:43Z</time>
      </trkpt>
      <trkpt lat="47.12353" lon="-1.41725">
        <ele>5</ele>
        <time>2016-05-08T12:56:47Z</time>
      </trkpt>
      <trkpt lat="47.12349" lon="-1.41729">
        <ele>6</ele>
        <time>2016-05-08T12:56:51Z</time>
      </trkpt>
      <trkpt lat="47.12345" lon="-1.41736">
        <ele>7</ele>
        <time>2016-05-08T12:56:55Z</time>
      </trkpt>
      <trkpt lat="47.12347" lon="-1.41739">
        <ele>8</ele>
        <time>2016-05-08T12:57:13Z</time>
      </trkpt>
      <trkpt lat="47.12343" lon="-1.41752">
        <ele>8</ele>
        <time>2016-05-08T12:57:22Z</time>
      </trkpt>
      <trkpt lat="47.12341" lon="-1.41753">
        <ele>9</ele>
        <time>2016-05-08T12:57:24Z</time>
      </trkpt>
      <trkpt lat="47.12332" lon="-1.41756">
        <ele>12</ele>
        <time>2016-05-08T12:57:31Z</time>
      </trkpt>
      <trkpt lat="47.12327" lon="-1.41766">
        <ele>12</ele>
        <time>2016-05-08T12:57:38Z</time>
      </trkpt>
      <trkpt lat="47.12328" lon="-1.41769">
        <ele>12</ele>
        <time>2016-05-08T12:57:40Z</time>
      </trkpt>
      <trkpt lat="47.12329" lon="-1.41771">
        <ele>12</ele>
        <time>2016-05-08T12:57:42Z</time>
      </trkpt>
      <trkpt lat="47.12347" lon="-1.41772">
        <ele>12</ele>
        <time>2016-05-08T12:57:57Z</time>
      </trkpt>
      <trkpt lat="47.12351" lon="-1.4178">
        <ele>12</ele>
        <time>2016-05-08T12:58:02Z</time>
      </trkpt>
      <trkpt lat="47.12353" lon="-1.41782">
        <ele>12</ele>
        <time>2016-05-08T12:58:04Z</time>
      </trkpt>
      <trkpt lat="47.1238" lon="-1.41749">
        <ele>7</ele>
        <time>2016-05-08T12:58:18Z</time>
      </trkpt>
      <trkpt lat="47.12377" lon="-1.41748">
        <ele>7</ele>
        <time>2016-05-08T12:58:20Z</time>
      </trkpt>
      <trkpt lat="47.1237" lon="-1.41759">
        <ele>5</ele>
        <time>2016-05-08T12:58:25Z</time>
      </trkpt>
      <trkpt lat="47.12366" lon="-1.41759">
        <ele>5</ele>
        <time>2016-05-08T12:58:27Z</time>
      </trkpt>
      <trkpt lat="47.12363" lon="-1.41756">
        <ele>5</ele>
        <time>2016-05-08T12:58:29Z</time>
      </trkpt>
      <trkpt lat="47.12361" lon="-1.41754">
        <ele>5</ele>
        <time>2016-05-08T12:58:30Z</time>
      </trkpt>
      <trkpt lat="47.1236" lon="-1.4175">
        <ele>6</ele>
        <time>2016-05-08T12:58:32Z</time>
      </trkpt>
      <trkpt lat="47.12359" lon="-1.41732">
        <ele>8</ele>
        <time>2016-05-08T12:58:38Z</time>
      </trkpt>
      <trkpt lat="47.1233" lon="-1.41686">
        <ele>7</ele>
        <time>2016-05-08T12:58:55Z</time>
      </trkpt>
      <trkpt lat="47.12331" lon="-1.41682">
        <ele>6</ele>
        <time>2016-05-08T12:58:56Z</time>
      </trkpt>
      <trkpt lat="47.12333" lon="-1.4168">
        <ele>5</ele>
        <time>2016-05-08T12:58:57Z</time>
      </trkpt>
      <trkpt lat="47.12395" lon="-1.41579">
        <ele>9</ele>
        <time>2016-05-08T12:59:27Z</time>
      </trkpt>
      <trkpt lat="47.12427" lon="-1.41531">
        <ele>13</ele>
        <time>2016-05-08T12:59:57Z</time>
      </trkpt>
      <trkpt lat="47.1251" lon="-1.41449">
        <ele>13</ele>
        <time>2016-05-08T13:00:28Z</time>
      </trkpt>
      <trkpt lat="47.12538" lon="-1.41401">
        <ele>11</ele>
        <time>2016-05-08T13:00:58Z</time>
      </trkpt>
      <trkpt lat="47.12562" lon="-1.41361">
        <ele>11</ele>
        <time>2016-05-08T13:01:21Z</time>
      </trkpt>
      <trkpt lat="47.12564" lon="-1.41361">
        <ele>11</ele>
        <time>2016-05-08T13:01:23Z</time>
      </trkpt>
      <trkpt lat="47.12565" lon="-1.41363">
        <ele>11</ele>
        <time>2016-05-08T13:01:25Z</time>
      </trkpt>
      <trkpt lat="47.12563" lon="-1.41366">
        <ele>11</ele>
        <time>2016-05-08T13:01:27Z</time>
      </trkpt>
      <trkpt lat="47.12559" lon="-1.4137">
        <ele>11</ele>
        <time>2016-05-08T13:01:31Z</time>
      </trkpt>
      <trkpt lat="47.12557" lon="-1.4137">
        <ele>11</ele>
        <time>2016-05-08T13:01:33Z</time>
      </trkpt>
      <trkpt lat="47.12555" lon="-1.41369">
        <ele>12</ele>
        <time>2016-05-08T13:01:35Z</time>
      </trkpt>
      <trkpt lat="47.12552" lon="-1.41365">
        <ele>12</ele>
        <time>2016-05-08T13:01:39Z</time>
      </trkpt>
      <trkpt lat="47.12548" lon="-1.41351">
        <ele>15</ele>
        <time>2016-05-08T13:01:47Z</time>
      </trkpt>
      <trkpt lat="47.12544" lon="-1.41349">
        <ele>15</ele>
        <time>2016-05-08T13:01:50Z</time>
      </trkpt>
      <trkpt lat="47.12541" lon="-1.41348">
        <ele>16</ele>
        <time>2016-05-08T13:01:54Z</time>
      </trkpt>
      <trkpt lat="47.12516" lon="-1.41329">
        <ele>23</ele>
        <time>2016-05-08T13:02:16Z</time>
      </trkpt>
      <trkpt lat="47.12515" lon="-1.41326">
        <ele>24</ele>
        <time>2016-05-08T13:02:18Z</time>
      </trkpt>
      <trkpt lat="47.12513" lon="-1.41325">
        <ele>25</ele>
        <time>2016-05-08T13:02:20Z</time>
      </trkpt>
      <trkpt lat="47.12478" lon="-1.41298">
        <ele>32</ele>
        <time>2016-05-08T13:02:49Z</time>
      </trkpt>
      <trkpt lat="47.12477" lon="-1.41297">
        <ele>32</ele>
        <time>2016-05-08T13:02:51Z</time>
      </trkpt>
      <trkpt lat="47.12476" lon="-1.41296">
        <ele>32</ele>
        <time>2016-05-08T13:03:00Z</time>
      </trkpt>
      <trkpt lat="47.12475" lon="-1.41294">
        <ele>32</ele>
        <time>2016-05-08T13:03:07Z</time>
      </trkpt>
      <trkpt lat="47.12474" lon="-1.41292">
        <ele>32</ele>
        <time>2016-05-08T13:03:11Z</time>
      </trkpt>
      <trkpt lat="47.12473" lon="-1.4129">
        <ele>32</ele>
        <time>2016-05-08T13:03:19Z</time>
      </trkpt>
      <trkpt lat="47.12472" lon="-1.4129">
        <ele>33</ele>
        <time>2016-05-08T13:03:29Z</time>
      </trkpt>
      <trkpt lat="47.1247" lon="-1.4129">
        <ele>34</ele>
        <time>2016-05-08T13:03:38Z</time>
      </trkpt>
      <trkpt lat="47.12469" lon="-1.41288">
        <ele>34</ele>
        <time>2016-05-08T13:03:45Z</time>
      </trkpt>
      <trkpt lat="47.12468" lon="-1.41286">
        <ele>36</ele>
        <time>2016-05-08T13:04:39Z</time>
      </trkpt>
      <trkpt lat="47.12427" lon="-1.41264">
        <ele>33</ele>
        <time>2016-05-08T13:05:09Z</time>
      </trkpt>
      <trkpt lat="47.12423" lon="-1.41261">
        <ele>34</ele>
        <time>2016-05-08T13:05:12Z</time>
      </trkpt>
      <trkpt lat="47.12423" lon="-1.41259">
        <ele>35</ele>
        <time>2016-05-08T13:05:13Z</time>
      </trkpt>
      <trkpt lat="47.12423" lon="-1.41256">
        <ele>34</ele>
        <time>2016-05-08T13:05:15Z</time>
      </trkpt>
      <trkpt lat="47.1246" lon="-1.41217">
        <ele>40</ele>
        <time>2016-05-08T13:05:45Z</time>
      </trkpt>
      <trkpt lat="47.12499" lon="-1.41169">
        <ele>43</ele>
        <time>2016-05-08T13:07:17Z</time>
      </trkpt>
      <trkpt lat="47.125" lon="-1.41167">
        <ele>43</ele>
        <time>2016-05-08T13:09:36Z</time>
      </trkpt>
      <trkpt lat="47.12519" lon="-1.41124">
        <ele>45</ele>
        <time>2016-05-08T13:15:49Z</time>
      </trkpt>
      <trkpt lat="47.12579" lon="-1.41016">
        <ele>46</ele>
        <time>2016-05-08T13:16:19Z</time>
      </trkpt>
      <trkpt lat="47.12654" lon="-1.40899">
        <ele>47</ele>
        <time>2016-05-08T13:16:49Z</time>
      </trkpt>
      <trkpt lat="47.12661" lon="-1.40893">
        <ele>47</ele>
        <time>2016-05-08T13:16:52Z</time>
      </trkpt>
      <trkpt lat="47.12682" lon="-1.40897">
        <ele>46</ele>
        <time>2016-05-08T13:17:34Z</time>
      </trkpt>
      <trkpt lat="47.12819" lon="-1.40901">
        <ele>40</ele>
        <time>2016-05-08T13:18:04Z</time>
      </trkpt>
      <trkpt lat="47.12835" lon="-1.40899">
        <ele>37</ele>
        <time>2016-05-08T13:18:08Z</time>
      </trkpt>
      <trkpt lat="47.12836" lon="-1.40892">
        <ele>37</ele>
        <time>2016-05-08T13:18:09Z</time>
      </trkpt>
      <trkpt lat="47.12839" lon="-1.40888">
        <ele>37</ele>
        <time>2016-05-08T13:18:10Z</time>
      </trkpt>
      <trkpt lat="47.12837" lon="-1.40882">
        <ele>36</ele>
        <time>2016-05-08T13:18:11Z</time>
      </trkpt>
      <trkpt lat="47.1284" lon="-1.40868">
        <ele>35</ele>
        <time>2016-05-08T13:18:13Z</time>
      </trkpt>
      <trkpt lat="47.12842" lon="-1.40866">
        <ele>35</ele>
        <time>2016-05-08T13:18:14Z</time>
      </trkpt>
      <trkpt lat="47.12845" lon="-1.40868">
        <ele>35</ele>
        <time>2016-05-08T13:18:15Z</time>
      </trkpt>
      <trkpt lat="47.12847" lon="-1.40866">
        <ele>36</ele>
        <time>2016-05-08T13:18:16Z</time>
      </trkpt>
      <trkpt lat="47.12875" lon="-1.40896">
        <ele>34</ele>
        <time>2016-05-08T13:18:24Z</time>
      </trkpt>
      <trkpt lat="47.12879" lon="-1.40893">
        <ele>34</ele>
        <time>2016-05-08T13:18:25Z</time>
      </trkpt>
      <trkpt lat="47.12881" lon="-1.40885">
        <ele>34</ele>
        <time>2016-05-08T13:18:27Z</time>
      </trkpt>
      <trkpt lat="47.12897" lon="-1.40866">
        <ele>24</ele>
        <time>2016-05-08T13:18:39Z</time>
      </trkpt>
      <trkpt lat="47.12899" lon="-1.40868">
        <ele>22</ele>
        <time>2016-05-08T13:18:43Z</time>
      </trkpt>
      <trkpt lat="47.1288" lon="-1.4089">
        <ele>26</ele>
        <time>2016-05-08T13:19:07Z</time>
      </trkpt>
      <trkpt lat="47.12878" lon="-1.40889">
        <ele>26</ele>
        <time>2016-05-08T13:19:09Z</time>
      </trkpt>
      <trkpt lat="47.12876" lon="-1.40887">
        <ele>26</ele>
        <time>2016-05-08T13:19:11Z</time>
      </trkpt>
      <trkpt lat="47.12876" lon="-1.40883">
        <ele>26</ele>
        <time>2016-05-08T13:19:13Z</time>
      </trkpt>
      <trkpt lat="47.12875" lon="-1.40866">
        <ele>26</ele>
        <time>2016-05-08T13:19:21Z</time>
      </trkpt>
      <trkpt lat="47.12873" lon="-1.40863">
        <ele>26</ele>
        <time>2016-05-08T13:19:23Z</time>
      </trkpt>
      <trkpt lat="47.1287" lon="-1.40861">
        <ele>26</ele>
        <time>2016-05-08T13:19:25Z</time>
      </trkpt>
      <trkpt lat="47.12857" lon="-1.40866">
        <ele>27</ele>
        <time>2016-05-08T13:19:32Z</time>
      </trkpt>
      <trkpt lat="47.12856" lon="-1.40867">
        <ele>27</ele>
        <time>2016-05-08T13:19:33Z</time>
      </trkpt>
      <trkpt lat="47.12824" lon="-1.40902">
        <ele>35</ele>
        <time>2016-05-08T13:20:03Z</time>
      </trkpt>
      <trkpt lat="47.12819" lon="-1.40902">
        <ele>35</ele>
        <time>2016-05-08T13:20:06Z</time>
      </trkpt>
      <trkpt lat="47.12816" lon="-1.40905">
        <ele>35</ele>
        <time>2016-05-08T13:20:09Z</time>
      </trkpt>
      <trkpt lat="47.12814" lon="-1.40902">
        <ele>36</ele>
        <time>2016-05-08T13:20:11Z</time>
      </trkpt>
      <trkpt lat="47.12816" lon="-1.409">
        <ele>36</ele>
        <time>2016-05-08T13:20:13Z</time>
      </trkpt>
      <trkpt lat="47.12819" lon="-1.409">
        <ele>36</ele>
        <time>2016-05-08T13:20:51Z</time>
      </trkpt>
      <trkpt lat="47.12841" lon="-1.40896">
        <ele>34</ele>
        <time>2016-05-08T13:20:58Z</time>
      </trkpt>
      <trkpt lat="47.12843" lon="-1.40892">
        <ele>34</ele>
        <time>2016-05-08T13:20:59Z</time>
      </trkpt>
      <trkpt lat="47.12844" lon="-1.40886">
        <ele>35</ele>
        <time>2016-05-08T13:21:00Z</time>
      </trkpt>
      <trkpt lat="47.1285" lon="-1.40872">
        <ele>35</ele>
        <time>2016-05-08T13:21:02Z</time>
      </trkpt>
      <trkpt lat="47.1286" lon="-1.40864">
        <ele>34</ele>
        <time>2016-05-08T13:21:05Z</time>
      </trkpt>
      <trkpt lat="47.12866" lon="-1.4087">
        <ele>33</ele>
        <time>2016-05-08T13:21:07Z</time>
      </trkpt>
      <trkpt lat="47.12867" lon="-1.40878">
        <ele>33</ele>
        <time>2016-05-08T13:21:08Z</time>
      </trkpt>
      <trkpt lat="47.12865" lon="-1.40888">
        <ele>33</ele>
        <time>2016-05-08T13:21:09Z</time>
      </trkpt>
      <trkpt lat="47.12866" lon="-1.40893">
        <ele>33</ele>
        <time>2016-05-08T13:21:10Z</time>
      </trkpt>
      <trkpt lat="47.12869" lon="-1.40895">
        <ele>33</ele>
        <time>2016-05-08T13:21:11Z</time>
      </trkpt>
      <trkpt lat="47.12877" lon="-1.40894">
        <ele>33</ele>
        <time>2016-05-08T13:21:13Z</time>
      </trkpt>
      <trkpt lat="47.12884" lon="-1.40883">
        <ele>33</ele>
        <time>2016-05-08T13:21:15Z</time>
      </trkpt>
      <trkpt lat="47.12903" lon="-1.4086">
        <ele>29</ele>
        <time>2016-05-08T13:21:18Z</time>
      </trkpt>
      <trkpt lat="47.12919" lon="-1.40867">
        <ele>26</ele>
        <time>2016-05-08T13:21:23Z</time>
      </trkpt>
      <trkpt lat="47.12921" lon="-1.40863">
        <ele>26</ele>
        <time>2016-05-08T13:21:27Z</time>
      </trkpt>
      <trkpt lat="47.12934" lon="-1.40747">
        <ele>19</ele>
        <time>2016-05-08T13:21:57Z</time>
      </trkpt>
      <trkpt lat="47.12958" lon="-1.40721">
        <ele>25</ele>
        <time>2016-05-08T13:22:15Z</time>
      </trkpt>
      <trkpt lat="47.13003" lon="-1.40699">
        <ele>31</ele>
        <time>2016-05-08T13:22:45Z</time>
      </trkpt>
      <trkpt lat="47.13004" lon="-1.40695">
        <ele>31</ele>
        <time>2016-05-08T13:22:47Z</time>
      </trkpt>
      <trkpt lat="47.1301" lon="-1.40602">
        <ele>33</ele>
        <time>2016-05-08T13:23:17Z</time>
      </trkpt>
      <trkpt lat="47.13016" lon="-1.40562">
        <ele>34</ele>
        <time>2016-05-08T13:23:28Z</time>
      </trkpt>
      <trkpt lat="47.1302" lon="-1.40558">
        <ele>35</ele>
        <time>2016-05-08T13:23:30Z</time>
      </trkpt>
      <trkpt lat="47.13088" lon="-1.40604">
        <ele>38</ele>
        <time>2016-05-08T13:24:00Z</time>
      </trkpt>
      <trkpt lat="47.13157" lon="-1.40723">
        <ele>37</ele>
        <time>2016-05-08T13:24:27Z</time>
      </trkpt>
      <trkpt lat="47.13178" lon="-1.40726">
        <ele>37</ele>
        <time>2016-05-08T13:24:34Z</time>
      </trkpt>
      <trkpt lat="47.13181" lon="-1.40736">
        <ele>38</ele>
        <time>2016-05-08T13:24:40Z</time>
      </trkpt>
      <trkpt lat="47.13183" lon="-1.40737">
        <ele>38</ele>
        <time>2016-05-08T13:24:42Z</time>
      </trkpt>
      <trkpt lat="47.13183" lon="-1.4074">
        <ele>38</ele>
        <time>2016-05-08T13:24:44Z</time>
      </trkpt>
      <trkpt lat="47.13182" lon="-1.40743">
        <ele>38</ele>
        <time>2016-05-08T13:24:46Z</time>
      </trkpt>
      <trkpt lat="47.13203" lon="-1.40812">
        <ele>38</ele>
        <time>2016-05-08T13:25:02Z</time>
      </trkpt>
      <trkpt lat="47.1321" lon="-1.40815">
        <ele>39</ele>
        <time>2016-05-08T13:25:04Z</time>
      </trkpt>
      <trkpt lat="47.13303" lon="-1.40799">
        <ele>42</ele>
        <time>2016-05-08T13:25:26Z</time>
      </trkpt>
      <trkpt lat="47.13305" lon="-1.40804">
        <ele>42</ele>
        <time>2016-05-08T13:25:27Z</time>
      </trkpt>
      <trkpt lat="47.13316" lon="-1.40807">
        <ele>42</ele>
        <time>2016-05-08T13:25:30Z</time>
      </trkpt>
      <trkpt lat="47.13368" lon="-1.40795">
        <ele>44</ele>
        <time>2016-05-08T13:27:16Z</time>
      </trkpt>
      <trkpt lat="47.13459" lon="-1.40789">
        <ele>48</ele>
        <time>2016-05-08T13:27:39Z</time>
      </trkpt>
      <trkpt lat="47.13461" lon="-1.40815">
        <ele>48</ele>
        <time>2016-05-08T13:27:43Z</time>
      </trkpt>
      <trkpt lat="47.13458" lon="-1.40903">
        <ele>46</ele>
        <time>2016-05-08T13:27:55Z</time>
      </trkpt>
      <trkpt lat="47.13468" lon="-1.4091">
        <ele>45</ele>
        <time>2016-05-08T13:27:58Z</time>
      </trkpt>
      <trkpt lat="47.13622" lon="-1.40921">
        <ele>40</ele>
        <time>2016-05-08T13:28:24Z</time>
      </trkpt>
      <trkpt lat="47.13718" lon="-1.40919">
        <ele>34</ele>
        <time>2016-05-08T13:28:36Z</time>
      </trkpt>
      <trkpt lat="47.1372" lon="-1.40924">
        <ele>33</ele>
        <time>2016-05-08T13:28:37Z</time>
      </trkpt>
      <trkpt lat="47.13714" lon="-1.41054">
        <ele>31</ele>
        <time>2016-05-08T13:28:57Z</time>
      </trkpt>
      <trkpt lat="47.13723" lon="-1.41059">
        <ele>31</ele>
        <time>2016-05-08T13:28:59Z</time>
      </trkpt>
      <trkpt lat="47.13786" lon="-1.41074">
        <ele>29</ele>
        <time>2016-05-08T13:29:10Z</time>
      </trkpt>
      <trkpt lat="47.13788" lon="-1.41083">
        <ele>29</ele>
        <time>2016-05-08T13:29:12Z</time>
      </trkpt>
      <trkpt lat="47.13787" lon="-1.41095">
        <ele>30</ele>
        <time>2016-05-08T13:29:14Z</time>
      </trkpt>
      <trkpt lat="47.13788" lon="-1.411">
        <ele>31</ele>
        <time>2016-05-08T13:29:15Z</time>
      </trkpt>
      <trkpt lat="47.13791" lon="-1.41102">
        <ele>31</ele>
        <time>2016-05-08T13:29:16Z</time>
      </trkpt>
      <trkpt lat="47.13888" lon="-1.41114">
        <ele>27</ele>
        <time>2016-05-08T13:29:35Z</time>
      </trkpt>
      <trkpt lat="47.13897" lon="-1.41159">
        <ele>26</ele>
        <time>2016-05-08T13:29:42Z</time>
      </trkpt>
      <trkpt lat="47.1391" lon="-1.41165">
        <ele>25</ele>
        <time>2016-05-08T13:29:45Z</time>
      </trkpt>
      <trkpt lat="47.13946" lon="-1.41165">
        <ele>24</ele>
        <time>2016-05-08T13:29:52Z</time>
      </trkpt>
      <trkpt lat="47.13992" lon="-1.41152">
        <ele>24</ele>
        <time>2016-05-08T13:30:01Z</time>
      </trkpt>
      <trkpt lat="47.13998" lon="-1.41142">
        <ele>24</ele>
        <time>2016-05-08T13:30:03Z</time>
      </trkpt>
      <trkpt lat="47.14135" lon="-1.41227">
        <ele>21</ele>
        <time>2016-05-08T13:30:33Z</time>
      </trkpt>
      <trkpt lat="47.14152" lon="-1.41254">
        <ele>25</ele>
        <time>2016-05-08T13:30:41Z</time>
      </trkpt>
      <trkpt lat="47.14179" lon="-1.41327">
        <ele>32</ele>
        <time>2016-05-08T13:31:05Z</time>
      </trkpt>
      <trkpt lat="47.14177" lon="-1.41333">
        <ele>32</ele>
        <time>2016-05-08T13:31:07Z</time>
      </trkpt>
      <trkpt lat="47.1418" lon="-1.41338">
        <ele>33</ele>
        <time>2016-05-08T13:31:10Z</time>
      </trkpt>
      <trkpt lat="47.14184" lon="-1.41336">
        <ele>33</ele>
        <time>2016-05-08T13:31:12Z</time>
      </trkpt>
      <trkpt lat="47.14187" lon="-1.41339">
        <ele>33</ele>
        <time>2016-05-08T13:31:14Z</time>
      </trkpt>
      <trkpt lat="47.14204" lon="-1.41383">
        <ele>36</ele>
        <time>2016-05-08T13:31:30Z</time>
      </trkpt>
      <trkpt lat="47.14197" lon="-1.41406">
        <ele>36</ele>
        <time>2016-05-08T13:31:38Z</time>
      </trkpt>
      <trkpt lat="47.14161" lon="-1.4147">
        <ele>36</ele>
        <time>2016-05-08T13:32:01Z</time>
      </trkpt>
      <trkpt lat="47.1421" lon="-1.41577">
        <ele>42</ele>
        <time>2016-05-08T13:32:31Z</time>
      </trkpt>
      <trkpt lat="47.1424" lon="-1.41676">
        <ele>41</ele>
        <time>2016-05-08T13:32:55Z</time>
      </trkpt>
      <trkpt lat="47.14233" lon="-1.41685">
        <ele>42</ele>
        <time>2016-05-08T13:32:58Z</time>
      </trkpt>
      <trkpt lat="47.14063" lon="-1.41826">
        <ele>21</ele>
        <time>2016-05-08T13:33:28Z</time>
      </trkpt>
      <trkpt lat="47.14005" lon="-1.41848">
        <ele>13</ele>
        <time>2016-05-08T13:33:35Z</time>
      </trkpt>
      <trkpt lat="47.13942" lon="-1.41816">
        <ele>7</ele>
        <time>2016-05-08T13:33:56Z</time>
      </trkpt>
      <trkpt lat="47.13937" lon="-1.41822">
        <ele>7</ele>
        <time>2016-05-08T13:33:57Z</time>
      </trkpt>
      <trkpt lat="47.13841" lon="-1.41988">
        <ele>7</ele>
        <time>2016-05-08T13:34:27Z</time>
      </trkpt>
      <trkpt lat="47.13815" lon="-1.42057">
        <ele>8</ele>
        <time>2016-05-08T13:34:39Z</time>
      </trkpt>
      <trkpt lat="47.13831" lon="-1.4217">
        <ele>11</ele>
        <time>2016-05-08T13:34:56Z</time>
      </trkpt>
      <trkpt lat="47.1383" lon="-1.4217">
        <ele>12</ele>
        <time>2016-05-08T13:34:57Z</time>
      </trkpt>
      <trkpt lat="47.13828" lon="-1.42165">
        <ele>12</ele>
        <time>2016-05-08T13:34:59Z</time>
      </trkpt>
      <trkpt lat="47.13823" lon="-1.42135">
        <ele>11</ele>
        <time>2016-05-08T13:35:06Z</time>
      </trkpt>
      <trkpt lat="47.13825" lon="-1.42134">
        <ele>9</ele>
        <time>2016-05-08T13:37:00Z</time>
      </trkpt>
      <trkpt lat="47.13849" lon="-1.42246">
        <ele>13</ele>
        <time>2016-05-08T13:37:30Z</time>
      </trkpt>
      <trkpt lat="47.1387" lon="-1.42376">
        <ele>21</ele>
        <time>2016-05-08T13:38:00Z</time>
      </trkpt>
      <trkpt lat="47.13878" lon="-1.42492">
        <ele>25</ele>
        <time>2016-05-08T13:38:28Z</time>
      </trkpt>
      <trkpt lat="47.13881" lon="-1.42492">
        <ele>25</ele>
        <time>2016-05-08T13:38:30Z</time>
      </trkpt>
      <trkpt lat="47.1401" lon="-1.42424">
        <ele>10</ele>
        <time>2016-05-08T13:38:56Z</time>
      </trkpt>
      <trkpt lat="47.14037" lon="-1.42451">
        <ele>9</ele>
        <time>2016-05-08T13:39:08Z</time>
      </trkpt>
      <trkpt lat="47.14035" lon="-1.42449">
        <ele>8</ele>
        <time>2016-05-08T13:39:44Z</time>
      </trkpt>
      <trkpt lat="47.1401" lon="-1.42423">
        <ele>7</ele>
        <time>2016-05-08T13:40:01Z</time>
      </trkpt>
      <trkpt lat="47.14007" lon="-1.42423">
        <ele>7</ele>
        <time>2016-05-08T13:40:02Z</time>
      </trkpt>
      <trkpt lat="47.13999" lon="-1.42425">
        <ele>8</ele>
        <time>2016-05-08T13:40:06Z</time>
      </trkpt>
      <trkpt lat="47.13998" lon="-1.42427">
        <ele>8</ele>
        <time>2016-05-08T13:40:07Z</time>
      </trkpt>
      <trkpt lat="47.14" lon="-1.4243">
        <ele>9</ele>
        <time>2016-05-08T13:40:09Z</time>
      </trkpt>
      <trkpt lat="47.14068" lon="-1.42501">
        <ele>10</ele>
        <time>2016-05-08T13:40:39Z</time>
      </trkpt>
      <trkpt lat="47.1411" lon="-1.42561">
        <ele>13</ele>
        <time>2016-05-08T13:41:01Z</time>
      </trkpt>
      <trkpt lat="47.14108" lon="-1.42574">
        <ele>13</ele>
        <time>2016-05-08T13:41:04Z</time>
      </trkpt>
      <trkpt lat="47.14074" lon="-1.42662">
        <ele>22</ele>
        <time>2016-05-08T13:41:34Z</time>
      </trkpt>
      <trkpt lat="47.14058" lon="-1.42756">
        <ele>30</ele>
        <time>2016-05-08T13:42:04Z</time>
      </trkpt>
      <trkpt lat="47.14043" lon="-1.4281">
        <ele>31</ele>
        <time>2016-05-08T13:42:23Z</time>
      </trkpt>
      <trkpt lat="47.14076" lon="-1.42905">
        <ele>31</ele>
        <time>2016-05-08T13:42:47Z</time>
      </trkpt>
      <trkpt lat="47.13992" lon="-1.43">
        <ele>35</ele>
        <time>2016-05-08T13:43:17Z</time>
      </trkpt>
      <trkpt lat="47.13971" lon="-1.43032">
        <ele>36</ele>
        <time>2016-05-08T13:43:26Z</time>
      </trkpt>
      <trkpt lat="47.13976" lon="-1.43046">
        <ele>36</ele>
        <time>2016-05-08T13:43:29Z</time>
      </trkpt>
      <trkpt lat="47.14028" lon="-1.43141">
        <ele>32</ele>
        <time>2016-05-08T13:43:51Z</time>
      </trkpt>
      <trkpt lat="47.14026" lon="-1.43143">
        <ele>32</ele>
        <time>2016-05-08T13:43:52Z</time>
      </trkpt>
      <trkpt lat="47.14024" lon="-1.43144">
        <ele>32</ele>
        <time>2016-05-08T13:43:53Z</time>
      </trkpt>
      <trkpt lat="47.14023" lon="-1.43142">
        <ele>32</ele>
        <time>2016-05-08T13:43:56Z</time>
      </trkpt>
      <trkpt lat="47.14023" lon="-1.43145">
        <ele>31</ele>
        <time>2016-05-08T13:44:56Z</time>
      </trkpt>
      <trkpt lat="47.14066" lon="-1.43222">
        <ele>26</ele>
        <time>2016-05-08T13:45:11Z</time>
      </trkpt>
      <trkpt lat="47.14072" lon="-1.43223">
        <ele>26</ele>
        <time>2016-05-08T13:45:41Z</time>
      </trkpt>
      <trkpt lat="47.14136" lon="-1.43227">
        <ele>24</ele>
        <time>2016-05-08T13:46:11Z</time>
      </trkpt>
      <trkpt lat="47.1422" lon="-1.43232">
        <ele>25</ele>
        <time>2016-05-08T13:46:38Z</time>
      </trkpt>
      <trkpt lat="47.1424" lon="-1.43268">
        <ele>23</ele>
        <time>2016-05-08T13:46:48Z</time>
      </trkpt>
      <trkpt lat="47.14359" lon="-1.4317">
        <ele>8</ele>
        <time>2016-05-08T13:47:18Z</time>
      </trkpt>
      <trkpt lat="47.14393" lon="-1.43125">
        <ele>5</ele>
        <time>2016-05-08T13:47:29Z</time>
      </trkpt>
      <trkpt lat="47.14407" lon="-1.43136">
        <ele>4</ele>
        <time>2016-05-08T13:47:33Z</time>
      </trkpt>
      <trkpt lat="47.1446" lon="-1.43272">
        <ele>3</ele>
        <time>2016-05-08T13:48:03Z</time>
      </trkpt>
      <trkpt lat="47.14483" lon="-1.43356">
        <ele>2</ele>
        <time>2016-05-08T13:48:33Z</time>
      </trkpt>
      <trkpt lat="47.14483" lon="-1.43352">
        <ele>6</ele>
        <time>2016-05-08T13:50:49Z</time>
      </trkpt>
      <trkpt lat="47.14485" lon="-1.43358">
        <ele>6</ele>
        <time>2016-05-08T13:51:04Z</time>
      </trkpt>
      <trkpt lat="47.14485" lon="-1.4336">
        <ele>6</ele>
        <time>2016-05-08T13:55:30Z</time>
      </trkpt>
      <trkpt lat="47.14494" lon="-1.43382">
        <ele>7</ele>
        <time>2016-05-08T13:55:43Z</time>
      </trkpt>
      <trkpt lat="47.14491" lon="-1.43408">
        <ele>13</ele>
        <time>2016-05-08T13:55:54Z</time>
      </trkpt>
      <trkpt lat="47.14489" lon="-1.43411">
        <ele>12</ele>
        <time>2016-05-08T13:55:56Z</time>
      </trkpt>
      <trkpt lat="47.14487" lon="-1.43413">
        <ele>12</ele>
        <time>2016-05-08T13:55:58Z</time>
      </trkpt>
      <trkpt lat="47.14437" lon="-1.43436">
        <ele>21</ele>
        <time>2016-05-08T13:56:28Z</time>
      </trkpt>
      <trkpt lat="47.14425" lon="-1.43437">
        <ele>17</ele>
        <time>2016-05-08T13:56:35Z</time>
      </trkpt>
      <trkpt lat="47.14422" lon="-1.43437">
        <ele>16</ele>
        <time>2016-05-08T13:56:37Z</time>
      </trkpt>
      <trkpt lat="47.14376" lon="-1.43457">
        <ele>18</ele>
        <time>2016-05-08T13:57:07Z</time>
      </trkpt>
      <trkpt lat="47.14308" lon="-1.43478">
        <ele>27</ele>
        <time>2016-05-08T13:57:37Z</time>
      </trkpt>
      <trkpt lat="47.14211" lon="-1.43531">
        <ele>21</ele>
        <time>2016-05-08T13:58:07Z</time>
      </trkpt>
      <trkpt lat="47.14112" lon="-1.43597">
        <ele>24</ele>
        <time>2016-05-08T13:58:37Z</time>
      </trkpt>
      <trkpt lat="47.14029" lon="-1.43653">
        <ele>32</ele>
        <time>2016-05-08T13:59:07Z</time>
      </trkpt>
      <trkpt lat="47.13949" lon="-1.43694">
        <ele>32</ele>
        <time>2016-05-08T13:59:34Z</time>
      </trkpt>
      <trkpt lat="47.13948" lon="-1.43699">
        <ele>32</ele>
        <time>2016-05-08T13:59:35Z</time>
      </trkpt>
      <trkpt lat="47.13976" lon="-1.43812">
        <ele>29</ele>
        <time>2016-05-08T13:59:55Z</time>
      </trkpt>
      <trkpt lat="47.14092" lon="-1.44054">
        <ele>19</ele>
        <time>2016-05-08T14:00:24Z</time>
      </trkpt>
      <trkpt lat="47.14071" lon="-1.44076">
        <ele>20</ele>
        <time>2016-05-08T14:00:31Z</time>
      </trkpt>
      <trkpt lat="47.14057" lon="-1.44138">
        <ele>23</ele>
        <time>2016-05-08T14:00:46Z</time>
      </trkpt>
      <trkpt lat="47.14041" lon="-1.44249">
        <ele>26</ele>
        <time>2016-05-08T14:01:16Z</time>
      </trkpt>
      <trkpt lat="47.14043" lon="-1.44253">
        <ele>26</ele>
        <time>2016-05-08T14:01:18Z</time>
      </trkpt>
      <trkpt lat="47.14079" lon="-1.44327">
        <ele>31</ele>
        <time>2016-05-08T14:01:48Z</time>
      </trkpt>
      <trkpt lat="47.14089" lon="-1.44419">
        <ele>34</ele>
        <time>2016-05-08T14:02:18Z</time>
      </trkpt>
      <trkpt lat="47.14119" lon="-1.44514">
        <ele>35</ele>
        <time>2016-05-08T14:02:48Z</time>
      </trkpt>
      <trkpt lat="47.14143" lon="-1.44605">
        <ele>34</ele>
        <time>2016-05-08T14:03:06Z</time>
      </trkpt>
      <trkpt lat="47.14156" lon="-1.44605">
        <ele>33</ele>
        <time>2016-05-08T14:03:09Z</time>
      </trkpt>
      <trkpt lat="47.14341" lon="-1.44535">
        <ele>26</ele>
        <time>2016-05-08T14:03:36Z</time>
      </trkpt>
      <trkpt lat="47.14351" lon="-1.44519">
        <ele>25</ele>
        <time>2016-05-08T14:03:38Z</time>
      </trkpt>
      <trkpt lat="47.14373" lon="-1.44508">
        <ele>24</ele>
        <time>2016-05-08T14:03:42Z</time>
      </trkpt>
      <trkpt lat="47.14449" lon="-1.44724">
        <ele>24</ele>
        <time>2016-05-08T14:04:12Z</time>
      </trkpt>
      <trkpt lat="47.14519" lon="-1.44745">
        <ele>24</ele>
        <time>2016-05-08T14:04:25Z</time>
      </trkpt>
      <trkpt lat="47.14674" lon="-1.44941">
        <ele>21</ele>
        <time>2016-05-08T14:04:55Z</time>
      </trkpt>
      <trkpt lat="47.14867" lon="-1.44993">
        <ele>19</ele>
        <time>2016-05-08T14:05:25Z</time>
      </trkpt>
      <trkpt lat="47.14884" lon="-1.44994">
        <ele>18</ele>
        <time>2016-05-08T14:05:27Z</time>
      </trkpt>
      <trkpt lat="47.1495" lon="-1.44953">
        <ele>15</ele>
        <time>2016-05-08T14:05:35Z</time>
      </trkpt>
      <trkpt lat="47.14969" lon="-1.44961">
        <ele>15</ele>
        <time>2016-05-08T14:05:38Z</time>
      </trkpt>
      <trkpt lat="47.1507" lon="-1.44941">
        <ele>10</ele>
        <time>2016-05-08T14:05:54Z</time>
      </trkpt>
      <trkpt lat="47.15073" lon="-1.44947">
        <ele>9</ele>
        <time>2016-05-08T14:05:55Z</time>
      </trkpt>
      <trkpt lat="47.15072" lon="-1.4495">
        <ele>9</ele>
        <time>2016-05-08T14:05:56Z</time>
      </trkpt>
      <trkpt lat="47.15076" lon="-1.44977">
        <ele>10</ele>
        <time>2016-05-08T14:06:01Z</time>
      </trkpt>
      <trkpt lat="47.15072" lon="-1.44983">
        <ele>9</ele>
        <time>2016-05-08T14:06:04Z</time>
      </trkpt>
      <trkpt lat="47.15062" lon="-1.44996">
        <ele>9</ele>
        <time>2016-05-08T14:06:08Z</time>
      </trkpt>
      <trkpt lat="47.15062" lon="-1.45002">
        <ele>9</ele>
        <time>2016-05-08T14:06:09Z</time>
      </trkpt>
      <trkpt lat="47.15062" lon="-1.4523">
        <ele>10</ele>
        <time>2016-05-08T14:06:39Z</time>
      </trkpt>
      <trkpt lat="47.15055" lon="-1.45259">
        <ele>10</ele>
        <time>2016-05-08T14:06:43Z</time>
      </trkpt>
      <trkpt lat="47.15062" lon="-1.45285">
        <ele>8</ele>
        <time>2016-05-08T14:06:46Z</time>
      </trkpt>
      <trkpt lat="47.15065" lon="-1.45289">
        <ele>8</ele>
        <time>2016-05-08T14:06:47Z</time>
      </trkpt>
      <trkpt lat="47.15082" lon="-1.45296">
        <ele>8</ele>
        <time>2016-05-08T14:06:51Z</time>
      </trkpt>
      <trkpt lat="47.15086" lon="-1.45307">
        <ele>7</ele>
        <time>2016-05-08T14:06:53Z</time>
      </trkpt>
      <trkpt lat="47.15049" lon="-1.45545">
        <ele>3</ele>
        <time>2016-05-08T14:07:23Z</time>
      </trkpt>
      <trkpt lat="47.15023" lon="-1.45652">
        <ele>9</ele>
        <time>2016-05-08T14:07:41Z</time>
      </trkpt>
      <trkpt lat="47.15024" lon="-1.45656">
        <ele>8</ele>
        <time>2016-05-08T14:07:44Z</time>
      </trkpt>
      <trkpt lat="47.15034" lon="-1.45696">
        <ele>6</ele>
        <time>2016-05-08T14:07:53Z</time>
      </trkpt>
      <trkpt lat="47.15029" lon="-1.45806">
        <ele>6</ele>
        <time>2016-05-08T14:08:04Z</time>
      </trkpt>
      <trkpt lat="47.15009" lon="-1.46003">
        <ele>2</ele>
        <time>2016-05-08T14:08:30Z</time>
      </trkpt>
      <trkpt lat="47.15013" lon="-1.46009">
        <ele>2</ele>
        <time>2016-05-08T14:08:31Z</time>
      </trkpt>
      <trkpt lat="47.15014" lon="-1.46022">
        <ele>2</ele>
        <time>2016-05-08T14:08:33Z</time>
      </trkpt>
      <trkpt lat="47.15017" lon="-1.46025">
        <ele>3</ele>
        <time>2016-05-08T14:08:34Z</time>
      </trkpt>
      <trkpt lat="47.15024" lon="-1.46078">
        <ele>6</ele>
        <time>2016-05-08T14:08:42Z</time>
      </trkpt>
      <trkpt lat="47.15023" lon="-1.46122">
        <ele>7</ele>
        <time>2016-05-08T14:08:48Z</time>
      </trkpt>
      <trkpt lat="47.14972" lon="-1.46266">
        <ele>6</ele>
        <time>2016-05-08T14:09:18Z</time>
      </trkpt>
      <trkpt lat="47.14963" lon="-1.46511">
        <ele>-4</ele>
        <time>2016-05-08T14:09:49Z</time>
      </trkpt>
      <trkpt lat="47.14964" lon="-1.4652">
        <ele>-3</ele>
        <time>2016-05-08T14:09:50Z</time>
      </trkpt>
      <trkpt lat="47.15" lon="-1.46713">
        <ele>5</ele>
        <time>2016-05-08T14:10:20Z</time>
      </trkpt>
      <trkpt lat="47.15" lon="-1.46715">
        <ele>5</ele>
        <time>2016-05-08T14:10:23Z</time>
      </trkpt>
      <trkpt lat="47.15" lon="-1.46718">
        <ele>4</ele>
        <time>2016-05-08T14:11:07Z</time>
      </trkpt>
      <trkpt lat="47.1501" lon="-1.46719">
        <ele>5</ele>
        <time>2016-05-08T14:11:15Z</time>
      </trkpt>
      <trkpt lat="47.15016" lon="-1.46722">
        <ele>5</ele>
        <time>2016-05-08T14:11:18Z</time>
      </trkpt>
      <trkpt lat="47.15018" lon="-1.46729">
        <ele>5</ele>
        <time>2016-05-08T14:11:21Z</time>
      </trkpt>
      <trkpt lat="47.15016" lon="-1.46731">
        <ele>5</ele>
        <time>2016-05-08T14:11:41Z</time>
      </trkpt>
      <trkpt lat="47.15016" lon="-1.46729">
        <ele>5</ele>
        <time>2016-05-08T14:11:59Z</time>
      </trkpt>
      <trkpt lat="47.15018" lon="-1.46719">
        <ele>5</ele>
        <time>2016-05-08T14:12:03Z</time>
      </trkpt>
      <trkpt lat="47.1502" lon="-1.46718">
        <ele>6</ele>
        <time>2016-05-08T14:12:04Z</time>
      </trkpt>
      <trkpt lat="47.15038" lon="-1.46715">
        <ele>6</ele>
        <time>2016-05-08T14:12:15Z</time>
      </trkpt>
      <trkpt lat="47.15041" lon="-1.46704">
        <ele>6</ele>
        <time>2016-05-08T14:12:21Z</time>
      </trkpt>
      <trkpt lat="47.15044" lon="-1.46702">
        <ele>5</ele>
        <time>2016-05-08T14:12:23Z</time>
      </trkpt>
      <trkpt lat="47.15048" lon="-1.46704">
        <ele>3</ele>
        <time>2016-05-08T14:12:27Z</time>
      </trkpt>
      <trkpt lat="47.15047" lon="-1.46705">
        <ele>3.7</ele>
        <time>2016-05-08T14:12:55Z</time>
      </trkpt>
      <trkpt lat="47.1503" lon="-1.46717">
        <ele>-3</ele>
        <time>2016-05-08T14:13:05Z</time>
      </trkpt>
      <trkpt lat="47.15025" lon="-1.46716">
        <ele>-2</ele>
        <time>2016-05-08T14:13:08Z</time>
      </trkpt>
      <trkpt lat="47.14977" lon="-1.46715">
        <ele>9</ele>
        <time>2016-05-08T14:13:39Z</time>
      </trkpt>
      <trkpt lat="47.14975" lon="-1.46715">
        <ele>10</ele>
        <time>2016-05-08T14:13:40Z</time>
      </trkpt>
      <trkpt lat="47.14939" lon="-1.46695">
        <ele>17</ele>
        <time>2016-05-08T14:14:11Z</time>
      </trkpt>
      <trkpt lat="47.14937" lon="-1.46695">
        <ele>18</ele>
        <time>2016-05-08T14:14:13Z</time>
      </trkpt>
      <trkpt lat="47.14931" lon="-1.46696">
        <ele>18</ele>
        <time>2016-05-08T14:14:17Z</time>
      </trkpt>
      <trkpt lat="47.14922" lon="-1.46694">
        <ele>19</ele>
        <time>2016-05-08T14:14:26Z</time>
      </trkpt>
      <trkpt lat="47.14921" lon="-1.46696">
        <ele>19</ele>
        <time>2016-05-08T14:14:33Z</time>
      </trkpt>
      <trkpt lat="47.14918" lon="-1.46694">
        <ele>19</ele>
        <time>2016-05-08T14:14:39Z</time>
      </trkpt>
      <trkpt lat="47.1491" lon="-1.46685">
        <ele>22</ele>
        <time>2016-05-08T14:14:49Z</time>
      </trkpt>
      <trkpt lat="47.14906" lon="-1.46682">
        <ele>22</ele>
        <time>2016-05-08T14:14:54Z</time>
      </trkpt>
      <trkpt lat="47.14903" lon="-1.46677">
        <ele>21</ele>
        <time>2016-05-08T14:15:01Z</time>
      </trkpt>
      <trkpt lat="47.14893" lon="-1.4667">
        <ele>22</ele>
        <time>2016-05-08T14:15:09Z</time>
      </trkpt>
      <trkpt lat="47.14891" lon="-1.46668">
        <ele>22</ele>
        <time>2016-05-08T14:15:10Z</time>
      </trkpt>
      <trkpt lat="47.1489" lon="-1.46663">
        <ele>22</ele>
        <time>2016-05-08T14:15:22Z</time>
      </trkpt>
      <trkpt lat="47.14888" lon="-1.46662">
        <ele>22</ele>
        <time>2016-05-08T14:15:24Z</time>
      </trkpt>
      <trkpt lat="47.14886" lon="-1.4666">
        <ele>22</ele>
        <time>2016-05-08T14:15:26Z</time>
      </trkpt>
      <trkpt lat="47.14878" lon="-1.46655">
        <ele>27</ele>
        <time>2016-05-08T14:15:32Z</time>
      </trkpt>
      <trkpt lat="47.14872" lon="-1.46648">
        <ele>33</ele>
        <time>2016-05-08T14:15:37Z</time>
      </trkpt>
      <trkpt lat="47.14862" lon="-1.46635">
        <ele>40</ele>
        <time>2016-05-08T14:15:47Z</time>
      </trkpt>
      <trkpt lat="47.14859" lon="-1.46629">
        <ele>44</ele>
        <time>2016-05-08T14:15:51Z</time>
      </trkpt>
      <trkpt lat="47.14837" lon="-1.46586">
        <ele>44</ele>
        <time>2016-05-08T14:16:21Z</time>
      </trkpt>
      <trkpt lat="47.14793" lon="-1.46536">
        <ele>42</ele>
        <time>2016-05-08T14:16:48Z</time>
      </trkpt>
      <trkpt lat="47.14733" lon="-1.46496">
        <ele>41</ele>
        <time>2016-05-08T14:17:18Z</time>
      </trkpt>
      <trkpt lat="47.14642" lon="-1.46498">
        <ele>41</ele>
        <time>2016-05-08T14:17:48Z</time>
      </trkpt>
      <trkpt lat="47.14507" lon="-1.46562">
        <ele>38</ele>
        <time>2016-05-08T14:18:19Z</time>
      </trkpt>
      <trkpt lat="47.14374" lon="-1.46612">
        <ele>37</ele>
        <time>2016-05-08T14:18:49Z</time>
      </trkpt>
      <trkpt lat="47.1426" lon="-1.46635">
        <ele>39</ele>
        <time>2016-05-08T14:19:19Z</time>
      </trkpt>
      <trkpt lat="47.14153" lon="-1.46625">
        <ele>43</ele>
        <time>2016-05-08T14:19:50Z</time>
      </trkpt>
      <trkpt lat="47.14148" lon="-1.46625">
        <ele>43</ele>
        <time>2016-05-08T14:19:53Z</time>
      </trkpt>
      <trkpt lat="47.14147" lon="-1.46625">
        <ele>43</ele>
        <time>2016-05-08T14:23:22Z</time>
      </trkpt>
      <trkpt lat="47.14145" lon="-1.46622">
        <ele>43</ele>
        <time>2016-05-08T14:23:23Z</time>
      </trkpt>
      <trkpt lat="47.1411" lon="-1.46519">
        <ele>45</ele>
        <time>2016-05-08T14:23:46Z</time>
      </trkpt>
      <trkpt lat="47.14111" lon="-1.46485">
        <ele>44</ele>
        <time>2016-05-08T14:23:51Z</time>
      </trkpt>
      <trkpt lat="47.14107" lon="-1.46457">
        <ele>42</ele>
        <time>2016-05-08T14:23:56Z</time>
      </trkpt>
      <trkpt lat="47.14104" lon="-1.46453">
        <ele>42</ele>
        <time>2016-05-08T14:23:57Z</time>
      </trkpt>
      <trkpt lat="47.1402" lon="-1.46368">
        <ele>47</ele>
        <time>2016-05-08T14:24:27Z</time>
      </trkpt>
      <trkpt lat="47.13999" lon="-1.46337">
        <ele>48</ele>
        <time>2016-05-08T14:24:37Z</time>
      </trkpt>
      <trkpt lat="47.1398" lon="-1.46165">
        <ele>44</ele>
        <time>2016-05-08T14:25:07Z</time>
      </trkpt>
      <trkpt lat="47.13972" lon="-1.46152">
        <ele>46</ele>
        <time>2016-05-08T14:25:10Z</time>
      </trkpt>
      <trkpt lat="47.1393" lon="-1.46136">
        <ele>51</ele>
        <time>2016-05-08T14:25:21Z</time>
      </trkpt>
      <trkpt lat="47.13887" lon="-1.46134">
        <ele>52</ele>
        <time>2016-05-08T14:25:36Z</time>
      </trkpt>
      <trkpt lat="47.13889" lon="-1.46136">
        <ele>52</ele>
        <time>2016-05-08T14:25:39Z</time>
      </trkpt>
      <trkpt lat="47.13903" lon="-1.46126">
        <ele>51</ele>
        <time>2016-05-08T14:25:46Z</time>
      </trkpt>
      <trkpt lat="47.13903" lon="-1.46123">
        <ele>51</ele>
        <time>2016-05-08T14:25:47Z</time>
      </trkpt>
      <trkpt lat="47.13901" lon="-1.46121">
        <ele>50</ele>
        <time>2016-05-08T14:25:48Z</time>
      </trkpt>
      <trkpt lat="47.13899" lon="-1.4612">
        <ele>50</ele>
        <time>2016-05-08T14:25:49Z</time>
      </trkpt>
      <trkpt lat="47.13854" lon="-1.46108">
        <ele>55</ele>
        <time>2016-05-08T14:26:07Z</time>
      </trkpt>
      <trkpt lat="47.13854" lon="-1.46112">
        <ele>54</ele>
        <time>2016-05-08T14:26:23Z</time>
      </trkpt>
      <trkpt lat="47.13824" lon="-1.46159">
        <ele>55</ele>
        <time>2016-05-08T14:26:37Z</time>
      </trkpt>
      <trkpt lat="47.13817" lon="-1.46162">
        <ele>55</ele>
        <time>2016-05-08T14:26:39Z</time>
      </trkpt>
      <trkpt lat="47.1381" lon="-1.46159">
        <ele>55</ele>
        <time>2016-05-08T14:26:41Z</time>
      </trkpt>
      <trkpt lat="47.13747" lon="-1.46072">
        <ele>55</ele>
        <time>2016-05-08T14:27:07Z</time>
      </trkpt>
      <trkpt lat="47.13737" lon="-1.46035">
        <ele>55</ele>
        <time>2016-05-08T14:27:15Z</time>
      </trkpt>
      <trkpt lat="47.13723" lon="-1.46032">
        <ele>54</ele>
        <time>2016-05-08T14:27:19Z</time>
      </trkpt>
      <trkpt lat="47.13676" lon="-1.46043">
        <ele>58</ele>
        <time>2016-05-08T14:28:41Z</time>
      </trkpt>
      <trkpt lat="47.13611" lon="-1.46115">
        <ele>58</ele>
        <time>2016-05-08T14:29:06Z</time>
      </trkpt>
      <trkpt lat="47.13609" lon="-1.46114">
        <ele>58</ele>
        <time>2016-05-08T14:29:07Z</time>
      </trkpt>
      <trkpt lat="47.13607" lon="-1.46112">
        <ele>58</ele>
        <time>2016-05-08T14:29:08Z</time>
      </trkpt>
      <trkpt lat="47.13591" lon="-1.46058">
        <ele>57</ele>
        <time>2016-05-08T14:29:18Z</time>
      </trkpt>
      <trkpt lat="47.13553" lon="-1.45953">
        <ele>56</ele>
        <time>2016-05-08T14:29:37Z</time>
      </trkpt>
      <trkpt lat="47.13549" lon="-1.45953">
        <ele>56</ele>
        <time>2016-05-08T14:29:38Z</time>
      </trkpt>
      <trkpt lat="47.13537" lon="-1.45963">
        <ele>57</ele>
        <time>2016-05-08T14:29:41Z</time>
      </trkpt>
      <trkpt lat="47.13508" lon="-1.45998">
        <ele>58</ele>
        <time>2016-05-08T14:30:13Z</time>
      </trkpt>
      <trkpt lat="47.13412" lon="-1.46085">
        <ele>59</ele>
        <time>2016-05-08T14:30:44Z</time>
      </trkpt>
      <trkpt lat="47.13281" lon="-1.46141">
        <ele>56</ele>
        <time>2016-05-08T14:31:14Z</time>
      </trkpt>
      <trkpt lat="47.13218" lon="-1.46182">
        <ele>33</ele>
        <time>2016-05-08T14:37:24Z</time>
      </trkpt>
      <trkpt lat="47.13218" lon="-1.46182">
        <ele>33</ele>
        <time>2016-05-08T14:37:25Z</time>
      </trkpt>
      <trkpt lat="47.13219" lon="-1.4618">
        <ele>33</ele>
        <time>2016-05-08T14:37:41Z</time>
      </trkpt>
      <trkpt lat="47.13218" lon="-1.46178">
        <ele>38</ele>
        <time>2016-05-08T14:37:48Z</time>
      </trkpt>
      <trkpt lat="47.13216" lon="-1.46175">
        <ele>39</ele>
        <time>2016-05-08T14:38:00Z</time>
      </trkpt>
      <trkpt lat="47.13187" lon="-1.46041">
        <ele>48</ele>
        <time>2016-05-08T14:38:30Z</time>
      </trkpt>
      <trkpt lat="47.13165" lon="-1.45979">
        <ele>49</ele>
        <time>2016-05-08T14:38:42Z</time>
      </trkpt>
      <trkpt lat="47.13161" lon="-1.45978">
        <ele>49</ele>
        <time>2016-05-08T14:38:43Z</time>
      </trkpt>
      <trkpt lat="47.13129" lon="-1.45994">
        <ele>49</ele>
        <time>2016-05-08T14:38:51Z</time>
      </trkpt>
      <trkpt lat="47.13093" lon="-1.46012">
        <ele>50</ele>
        <time>2016-05-08T14:39:00Z</time>
      </trkpt>
      <trkpt lat="47.13091" lon="-1.46017">
        <ele>50</ele>
        <time>2016-05-08T14:39:01Z</time>
      </trkpt>
      <trkpt lat="47.13091" lon="-1.46024">
        <ele>50</ele>
        <time>2016-05-08T14:39:02Z</time>
      </trkpt>
      <trkpt lat="47.13114" lon="-1.46139">
        <ele>49</ele>
        <time>2016-05-08T14:39:26Z</time>
      </trkpt>
      <trkpt lat="47.13094" lon="-1.46149">
        <ele>51</ele>
        <time>2016-05-08T14:39:34Z</time>
      </trkpt>
      <trkpt lat="47.13092" lon="-1.46149">
        <ele>51</ele>
        <time>2016-05-08T14:39:35Z</time>
      </trkpt>
      <trkpt lat="47.13087" lon="-1.46146">
        <ele>52</ele>
        <time>2016-05-08T14:39:37Z</time>
      </trkpt>
      <trkpt lat="47.13085" lon="-1.46145">
        <ele>53</ele>
        <time>2016-05-08T14:39:38Z</time>
      </trkpt>
      <trkpt lat="47.13036" lon="-1.46183">
        <ele>59</ele>
        <time>2016-05-08T14:39:56Z</time>
      </trkpt>
      <trkpt lat="47.13035" lon="-1.46187">
        <ele>59</ele>
        <time>2016-05-08T14:39:57Z</time>
      </trkpt>
      <trkpt lat="47.13035" lon="-1.46193">
        <ele>59</ele>
        <time>2016-05-08T14:39:58Z</time>
      </trkpt>
      <trkpt lat="47.13045" lon="-1.46312">
        <ele>52</ele>
        <time>2016-05-08T14:40:16Z</time>
      </trkpt>
      <trkpt lat="47.13074" lon="-1.46494">
        <ele>51</ele>
        <time>2016-05-08T14:40:46Z</time>
      </trkpt>
      <trkpt lat="47.13123" lon="-1.46717">
        <ele>53</ele>
        <time>2016-05-08T14:41:16Z</time>
      </trkpt>
      <trkpt lat="47.1315" lon="-1.46856">
        <ele>54</ele>
        <time>2016-05-08T14:41:46Z</time>
      </trkpt>
      <trkpt lat="47.13167" lon="-1.4693">
        <ele>53</ele>
        <time>2016-05-08T14:41:55Z</time>
      </trkpt>
      <trkpt lat="47.132" lon="-1.46933">
        <ele>53</ele>
        <time>2016-05-08T14:42:02Z</time>
      </trkpt>
      <trkpt lat="47.13212" lon="-1.46934">
        <ele>52</ele>
        <time>2016-05-08T14:42:16Z</time>
      </trkpt>
      <trkpt lat="47.13214" lon="-1.46933">
        <ele>51</ele>
        <time>2016-05-08T14:45:29Z</time>
      </trkpt>
      <trkpt lat="47.13261" lon="-1.46925">
        <ele>52</ele>
        <time>2016-05-08T14:45:46Z</time>
      </trkpt>
      <trkpt lat="47.13261" lon="-1.46928">
        <ele>52</ele>
        <time>2016-05-08T14:45:48Z</time>
      </trkpt>
      <trkpt lat="47.13259" lon="-1.46928">
        <ele>51</ele>
        <time>2016-05-08T14:45:49Z</time>
      </trkpt>
      <trkpt lat="47.13211" lon="-1.46932">
        <ele>50</ele>
        <time>2016-05-08T14:46:07Z</time>
      </trkpt>
      <trkpt lat="47.13215" lon="-1.46931">
        <ele>50</ele>
        <time>2016-05-08T14:46:42Z</time>
      </trkpt>
      <trkpt lat="47.13219" lon="-1.46932">
        <ele>50</ele>
        <time>2016-05-08T14:46:46Z</time>
      </trkpt>
      <trkpt lat="47.13329" lon="-1.46919">
        <ele>48</ele>
        <time>2016-05-08T14:47:12Z</time>
      </trkpt>
      <trkpt lat="47.13434" lon="-1.46985">
        <ele>50</ele>
        <time>2016-05-08T14:47:32Z</time>
      </trkpt>
      <trkpt lat="47.13438" lon="-1.46996">
        <ele>50</ele>
        <time>2016-05-08T14:47:34Z</time>
      </trkpt>
      <trkpt lat="47.13416" lon="-1.47279">
        <ele>48</ele>
        <time>2016-05-08T14:48:04Z</time>
      </trkpt>
      <trkpt lat="47.13398" lon="-1.47617">
        <ele>40</ele>
        <time>2016-05-08T14:48:34Z</time>
      </trkpt>
      <trkpt lat="47.13387" lon="-1.47907">
        <ele>45</ele>
        <time>2016-05-08T14:49:04Z</time>
      </trkpt>
      <trkpt lat="47.13373" lon="-1.47983">
        <ele>44</ele>
        <time>2016-05-08T14:49:16Z</time>
      </trkpt>
      <trkpt lat="47.13367" lon="-1.47993">
        <ele>45</ele>
        <time>2016-05-08T14:49:22Z</time>
      </trkpt>
      <trkpt lat="47.13365" lon="-1.47994">
        <ele>46</ele>
        <time>2016-05-08T14:49:24Z</time>
      </trkpt>
      <trkpt lat="47.13363" lon="-1.47993">
        <ele>46</ele>
        <time>2016-05-08T14:49:25Z</time>
      </trkpt>
      <trkpt lat="47.13303" lon="-1.47969">
        <ele>54</ele>
        <time>2016-05-08T14:49:55Z</time>
      </trkpt>
      <trkpt lat="47.13229" lon="-1.47944">
        <ele>57</ele>
        <time>2016-05-08T14:50:25Z</time>
      </trkpt>
      <trkpt lat="47.13164" lon="-1.47924">
        <ele>63</ele>
        <time>2016-05-08T14:50:50Z</time>
      </trkpt>
      <trkpt lat="47.13161" lon="-1.47926">
        <ele>63</ele>
        <time>2016-05-08T14:50:52Z</time>
      </trkpt>
      <trkpt lat="47.13156" lon="-1.4793">
        <ele>62</ele>
        <time>2016-05-08T14:50:57Z</time>
      </trkpt>
      <trkpt lat="47.13153" lon="-1.47931">
        <ele>61</ele>
        <time>2016-05-08T14:50:59Z</time>
      </trkpt>
      <trkpt lat="47.1315" lon="-1.47926">
        <ele>60</ele>
        <time>2016-05-08T14:51:02Z</time>
      </trkpt>
      <trkpt lat="47.13147" lon="-1.4792">
        <ele>59</ele>
        <time>2016-05-08T14:51:04Z</time>
      </trkpt>
      <trkpt lat="47.13132" lon="-1.4791">
        <ele>59</ele>
        <time>2016-05-08T14:51:09Z</time>
      </trkpt>
      <trkpt lat="47.13053" lon="-1.47856">
        <ele>60</ele>
        <time>2016-05-08T14:51:32Z</time>
      </trkpt>
      <trkpt lat="47.13056" lon="-1.47857">
        <ele>60</ele>
        <time>2016-05-08T14:51:35Z</time>
      </trkpt>
      <trkpt lat="47.1306" lon="-1.47866">
        <ele>60</ele>
        <time>2016-05-08T14:51:40Z</time>
      </trkpt>
      <trkpt lat="47.13059" lon="-1.47868">
        <ele>60</ele>
        <time>2016-05-08T14:51:42Z</time>
      </trkpt>
      <trkpt lat="47.13058" lon="-1.47869">
        <ele>60</ele>
        <time>2016-05-08T14:51:44Z</time>
      </trkpt>
      <trkpt lat="47.13055" lon="-1.4787">
        <ele>60</ele>
        <time>2016-05-08T14:51:46Z</time>
      </trkpt>
      <trkpt lat="47.13039" lon="-1.47876">
        <ele>65</ele>
        <time>2016-05-08T14:51:58Z</time>
      </trkpt>
      <trkpt lat="47.13036" lon="-1.47878">
        <ele>67</ele>
        <time>2016-05-08T14:52:00Z</time>
      </trkpt>
      <trkpt lat="47.13033" lon="-1.47886">
        <ele>68</ele>
        <time>2016-05-08T14:52:04Z</time>
      </trkpt>
      <trkpt lat="47.1303" lon="-1.47889">
        <ele>68</ele>
        <time>2016-05-08T14:52:06Z</time>
      </trkpt>
      <trkpt lat="47.13027" lon="-1.47888">
        <ele>67</ele>
        <time>2016-05-08T14:52:08Z</time>
      </trkpt>
      <trkpt lat="47.13025" lon="-1.47887">
        <ele>66</ele>
        <time>2016-05-08T14:52:10Z</time>
      </trkpt>
      <trkpt lat="47.13025" lon="-1.47885">
        <ele>64</ele>
        <time>2016-05-08T14:52:12Z</time>
      </trkpt>
      <trkpt lat="47.1302" lon="-1.47882">
        <ele>64</ele>
        <time>2016-05-08T14:52:16Z</time>
      </trkpt>
      <trkpt lat="47.13014" lon="-1.47881">
        <ele>66</ele>
        <time>2016-05-08T14:52:20Z</time>
      </trkpt>
      <trkpt lat="47.13005" lon="-1.4788">
        <ele>67</ele>
        <time>2016-05-08T14:52:24Z</time>
      </trkpt>
      <trkpt lat="47.13002" lon="-1.47877">
        <ele>66</ele>
        <time>2016-05-08T14:52:26Z</time>
      </trkpt>
      <trkpt lat="47.13001" lon="-1.47874">
        <ele>65</ele>
        <time>2016-05-08T14:52:27Z</time>
      </trkpt>
      <trkpt lat="47.12992" lon="-1.47822">
        <ele>63</ele>
        <time>2016-05-08T14:52:43Z</time>
      </trkpt>
      <trkpt lat="47.12989" lon="-1.4782">
        <ele>63</ele>
        <time>2016-05-08T14:52:44Z</time>
      </trkpt>
      <trkpt lat="47.12947" lon="-1.47812">
        <ele>63</ele>
        <time>2016-05-08T14:52:59Z</time>
      </trkpt>
      <trkpt lat="47.12936" lon="-1.47823">
        <ele>66</ele>
        <time>2016-05-08T14:53:05Z</time>
      </trkpt>
      <trkpt lat="47.1293" lon="-1.47822">
        <ele>68</ele>
        <time>2016-05-08T14:53:08Z</time>
      </trkpt>
      <trkpt lat="47.12928" lon="-1.47825">
        <ele>67</ele>
        <time>2016-05-08T14:53:10Z</time>
      </trkpt>
      <trkpt lat="47.12927" lon="-1.47826">
        <ele>65</ele>
        <time>2016-05-08T14:53:14Z</time>
      </trkpt>
      <trkpt lat="47.12928" lon="-1.47831">
        <ele>65</ele>
        <time>2016-05-08T14:56:50Z</time>
      </trkpt>
      <trkpt lat="47.12933" lon="-1.47837">
        <ele>64</ele>
        <time>2016-05-08T14:56:57Z</time>
      </trkpt>
      <trkpt lat="47.12935" lon="-1.47835">
        <ele>64</ele>
        <time>2016-05-08T14:57:00Z</time>
      </trkpt>
      <trkpt lat="47.12936" lon="-1.47831">
        <ele>63</ele>
        <time>2016-05-08T14:57:03Z</time>
      </trkpt>
      <trkpt lat="47.12936" lon="-1.47828">
        <ele>63</ele>
        <time>2016-05-08T14:57:04Z</time>
      </trkpt>
      <trkpt lat="47.12933" lon="-1.47812">
        <ele>61</ele>
        <time>2016-05-08T14:57:10Z</time>
      </trkpt>
      <trkpt lat="47.12931" lon="-1.47811">
        <ele>61</ele>
        <time>2016-05-08T14:57:11Z</time>
      </trkpt>
      <trkpt lat="47.12929" lon="-1.4781">
        <ele>62</ele>
        <time>2016-05-08T14:57:12Z</time>
      </trkpt>
      <trkpt lat="47.12927" lon="-1.4781">
        <ele>62</ele>
        <time>2016-05-08T14:57:13Z</time>
      </trkpt>
      <trkpt lat="47.12929" lon="-1.47813">
        <ele>63</ele>
        <time>2016-05-08T14:57:28Z</time>
      </trkpt>
      <trkpt lat="47.1294" lon="-1.47826">
        <ele>66</ele>
        <time>2016-05-08T14:57:37Z</time>
      </trkpt>
      <trkpt lat="47.12938" lon="-1.47829">
        <ele>66</ele>
        <time>2016-05-08T14:57:39Z</time>
      </trkpt>
      <trkpt lat="47.12934" lon="-1.4783">
        <ele>66</ele>
        <time>2016-05-08T14:57:44Z</time>
      </trkpt>
      <trkpt lat="47.12933" lon="-1.47827">
        <ele>66</ele>
        <time>2016-05-08T14:57:46Z</time>
      </trkpt>
      <trkpt lat="47.12933" lon="-1.47823">
        <ele>65</ele>
        <time>2016-05-08T14:57:49Z</time>
      </trkpt>
      <trkpt lat="47.12934" lon="-1.4782">
        <ele>65</ele>
        <time>2016-05-08T14:57:51Z</time>
      </trkpt>
      <trkpt lat="47.12935" lon="-1.47818">
        <ele>65</ele>
        <time>2016-05-08T14:57:54Z</time>
      </trkpt>
      <trkpt lat="47.12937" lon="-1.47819">
        <ele>65</ele>
        <time>2016-05-08T14:57:56Z</time>
      </trkpt>
      <trkpt lat="47.12937" lon="-1.47823">
        <ele>64</ele>
        <time>2016-05-08T14:57:59Z</time>
      </trkpt>
      <trkpt lat="47.12935" lon="-1.47832">
        <ele>65</ele>
        <time>2016-05-08T14:58:02Z</time>
      </trkpt>
      <trkpt lat="47.12938" lon="-1.47835">
        <ele>64</ele>
        <time>2016-05-08T14:58:05Z</time>
      </trkpt>
      <trkpt lat="47.12941" lon="-1.47833">
        <ele>62</ele>
        <time>2016-05-08T14:58:07Z</time>
      </trkpt>
      <trkpt lat="47.12943" lon="-1.47826">
        <ele>61</ele>
        <time>2016-05-08T14:58:10Z</time>
      </trkpt>
      <trkpt lat="47.12942" lon="-1.47821">
        <ele>62</ele>
        <time>2016-05-08T14:58:12Z</time>
      </trkpt>
      <trkpt lat="47.1294" lon="-1.47818">
        <ele>62</ele>
        <time>2016-05-08T14:58:14Z</time>
      </trkpt>
      <trkpt lat="47.12938" lon="-1.47817">
        <ele>63</ele>
        <time>2016-05-08T14:58:15Z</time>
      </trkpt>
      <trkpt lat="47.12936" lon="-1.47816">
        <ele>63</ele>
        <time>2016-05-08T14:58:16Z</time>
      </trkpt>
      <trkpt lat="47.1292" lon="-1.47809">
        <ele>63</ele>
        <time>2016-05-08T14:58:21Z</time>
      </trkpt>
      <trkpt lat="47.12921" lon="-1.47807">
        <ele>63</ele>
        <time>2016-05-08T14:58:25Z</time>
      </trkpt>
      <trkpt lat="47.12921" lon="-1.47809">
        <ele>64</ele>
        <time>2016-05-08T14:58:33Z</time>
      </trkpt>
      <trkpt lat="47.12926" lon="-1.47817">
        <ele>65</ele>
        <time>2016-05-08T14:58:37Z</time>
      </trkpt>
      <trkpt lat="47.1293" lon="-1.47825">
        <ele>65</ele>
        <time>2016-05-08T14:58:39Z</time>
      </trkpt>
      <trkpt lat="47.12945" lon="-1.47829">
        <ele>64</ele>
        <time>2016-05-08T14:58:46Z</time>
      </trkpt>
      <trkpt lat="47.12946" lon="-1.47826">
        <ele>64</ele>
        <time>2016-05-08T14:58:48Z</time>
      </trkpt>
      <trkpt lat="47.12945" lon="-1.47824">
        <ele>64</ele>
        <time>2016-05-08T14:58:49Z</time>
      </trkpt>
      <trkpt lat="47.12933" lon="-1.47801">
        <ele>64</ele>
        <time>2016-05-08T14:58:55Z</time>
      </trkpt>
      <trkpt lat="47.1293" lon="-1.478">
        <ele>64</ele>
        <time>2016-05-08T14:58:56Z</time>
      </trkpt>
      <trkpt lat="47.12928" lon="-1.47802">
        <ele>65</ele>
        <time>2016-05-08T14:58:58Z</time>
      </trkpt>
      <trkpt lat="47.12928" lon="-1.47806">
        <ele>65</ele>
        <time>2016-05-08T14:59:00Z</time>
      </trkpt>
      <trkpt lat="47.12934" lon="-1.47823">
        <ele>64</ele>
        <time>2016-05-08T14:59:06Z</time>
      </trkpt>
      <trkpt lat="47.12937" lon="-1.47823">
        <ele>63</ele>
        <time>2016-05-08T14:59:08Z</time>
      </trkpt>
      <trkpt lat="47.12938" lon="-1.47819">
        <ele>63</ele>
        <time>2016-05-08T14:59:10Z</time>
      </trkpt>
      <trkpt lat="47.12939" lon="-1.47817">
        <ele>63</ele>
        <time>2016-05-08T14:59:12Z</time>
      </trkpt>
      <trkpt lat="47.12938" lon="-1.47813">
        <ele>63</ele>
        <time>2016-05-08T14:59:18Z</time>
      </trkpt>
      <trkpt lat="47.12938" lon="-1.4781">
        <ele>62</ele>
        <time>2016-05-08T14:59:20Z</time>
      </trkpt>
      <trkpt lat="47.12939" lon="-1.47807">
        <ele>62</ele>
        <time>2016-05-08T14:59:21Z</time>
      </trkpt>
      <trkpt lat="47.12937" lon="-1.47809">
        <ele>63</ele>
        <time>2016-05-08T14:59:27Z</time>
      </trkpt>
      <trkpt lat="47.12939" lon="-1.47813">
        <ele>63</ele>
        <time>2016-05-08T14:59:29Z</time>
      </trkpt>
      <trkpt lat="47.12938" lon="-1.47816">
        <ele>64</ele>
        <time>2016-05-08T14:59:31Z</time>
      </trkpt>
      <trkpt lat="47.12934" lon="-1.47821">
        <ele>63</ele>
        <time>2016-05-08T14:59:35Z</time>
      </trkpt>
      <trkpt lat="47.12929" lon="-1.47815">
        <ele>64</ele>
        <time>2016-05-08T14:59:39Z</time>
      </trkpt>
      <trkpt lat="47.12925" lon="-1.47808">
        <ele>64</ele>
        <time>2016-05-08T14:59:43Z</time>
      </trkpt>
      <trkpt lat="47.12932" lon="-1.47822">
        <ele>64</ele>
        <time>2016-05-08T14:59:52Z</time>
      </trkpt>
      <trkpt lat="47.12933" lon="-1.47819">
        <ele>65</ele>
        <time>2016-05-08T14:59:54Z</time>
      </trkpt>
      <trkpt lat="47.12931" lon="-1.47817">
        <ele>65</ele>
        <time>2016-05-08T14:59:55Z</time>
      </trkpt>
      <trkpt lat="47.12928" lon="-1.47816">
        <ele>65</ele>
        <time>2016-05-08T14:59:56Z</time>
      </trkpt>
      <trkpt lat="47.12924" lon="-1.47815">
        <ele>66</ele>
        <time>2016-05-08T14:59:59Z</time>
      </trkpt>
      <trkpt lat="47.12924" lon="-1.47814">
        <ele>66</ele>
        <time>2016-05-08T15:00:12Z</time>
      </trkpt>
      <trkpt lat="47.12942" lon="-1.4783">
        <ele>61</ele>
        <time>2016-05-08T15:00:22Z</time>
      </trkpt>
      <trkpt lat="47.12946" lon="-1.47829">
        <ele>60</ele>
        <time>2016-05-08T15:00:24Z</time>
      </trkpt>
      <trkpt lat="47.12947" lon="-1.47825">
        <ele>59</ele>
        <time>2016-05-08T15:00:26Z</time>
      </trkpt>
      <trkpt lat="47.12946" lon="-1.47821">
        <ele>58</ele>
        <time>2016-05-08T15:00:27Z</time>
      </trkpt>
      <trkpt lat="47.12942" lon="-1.47816">
        <ele>58</ele>
        <time>2016-05-08T15:00:29Z</time>
      </trkpt>
      <trkpt lat="47.12939" lon="-1.47817">
        <ele>59</ele>
        <time>2016-05-08T15:00:30Z</time>
      </trkpt>
      <trkpt lat="47.12923" lon="-1.47824">
        <ele>61</ele>
        <time>2016-05-08T15:00:36Z</time>
      </trkpt>
      <trkpt lat="47.12924" lon="-1.47828">
        <ele>62</ele>
        <time>2016-05-08T15:00:38Z</time>
      </trkpt>
      <trkpt lat="47.12929" lon="-1.47829">
        <ele>62</ele>
        <time>2016-05-08T15:00:41Z</time>
      </trkpt>
      <trkpt lat="47.12931" lon="-1.47831">
        <ele>62</ele>
        <time>2016-05-08T15:00:43Z</time>
      </trkpt>
      <trkpt lat="47.12933" lon="-1.4783">
        <ele>63</ele>
        <time>2016-05-08T15:00:46Z</time>
      </trkpt>
      <trkpt lat="47.12934" lon="-1.47835">
        <ele>63</ele>
        <time>2016-05-08T15:00:50Z</time>
      </trkpt>
      <trkpt lat="47.12932" lon="-1.47836">
        <ele>63</ele>
        <time>2016-05-08T15:00:52Z</time>
      </trkpt>
      <trkpt lat="47.1293" lon="-1.47837">
        <ele>63</ele>
        <time>2016-05-08T15:00:55Z</time>
      </trkpt>
      <trkpt lat="47.12929" lon="-1.47832">
        <ele>62</ele>
        <time>2016-05-08T15:01:16Z</time>
      </trkpt>
      <trkpt lat="47.12926" lon="-1.47832">
        <ele>60</ele>
        <time>2016-05-08T15:02:31Z</time>
      </trkpt>
      <trkpt lat="47.12925" lon="-1.47829">
        <ele>60</ele>
        <time>2016-05-08T15:02:33Z</time>
      </trkpt>
      <trkpt lat="47.12926" lon="-1.47826">
        <ele>60</ele>
        <time>2016-05-08T15:02:36Z</time>
      </trkpt>
      <trkpt lat="47.12928" lon="-1.47821">
        <ele>61</ele>
        <time>2016-05-08T15:02:41Z</time>
      </trkpt>
      <trkpt lat="47.1293" lon="-1.47818">
        <ele>61</ele>
        <time>2016-05-08T15:02:43Z</time>
      </trkpt>
      <trkpt lat="47.12932" lon="-1.47818">
        <ele>61</ele>
        <time>2016-05-08T15:02:44Z</time>
      </trkpt>
      <trkpt lat="47.12933" lon="-1.47822">
        <ele>61</ele>
        <time>2016-05-08T15:02:46Z</time>
      </trkpt>
      <trkpt lat="47.12933" lon="-1.4783">
        <ele>64</ele>
        <time>2016-05-08T15:02:49Z</time>
      </trkpt>
      <trkpt lat="47.12931" lon="-1.47831">
        <ele>65</ele>
        <time>2016-05-08T15:02:52Z</time>
      </trkpt>
      <trkpt lat="47.12929" lon="-1.4783">
        <ele>64</ele>
        <time>2016-05-08T15:03:10Z</time>
      </trkpt>
      <trkpt lat="47.12928" lon="-1.47825">
        <ele>64</ele>
        <time>2016-05-08T15:03:12Z</time>
      </trkpt>
      <trkpt lat="47.12927" lon="-1.47814">
        <ele>64</ele>
        <time>2016-05-08T15:03:16Z</time>
      </trkpt>
      <trkpt lat="47.12926" lon="-1.47811">
        <ele>64</ele>
        <time>2016-05-08T15:03:19Z</time>
      </trkpt>
      <trkpt lat="47.12926" lon="-1.47808">
        <ele>63</ele>
        <time>2016-05-08T15:03:28Z</time>
      </trkpt>
      <trkpt lat="47.12928" lon="-1.47802">
        <ele>63</ele>
        <time>2016-05-08T15:03:31Z</time>
      </trkpt>
      <trkpt lat="47.12931" lon="-1.478">
        <ele>63</ele>
        <time>2016-05-08T15:03:33Z</time>
      </trkpt>
      <trkpt lat="47.12933" lon="-1.47797">
        <ele>63</ele>
        <time>2016-05-08T15:03:35Z</time>
      </trkpt>
      <trkpt lat="47.12933" lon="-1.47792">
        <ele>63</ele>
        <time>2016-05-08T15:03:37Z</time>
      </trkpt>
      <trkpt lat="47.12932" lon="-1.4779">
        <ele>62</ele>
        <time>2016-05-08T15:03:38Z</time>
      </trkpt>
      <trkpt lat="47.12931" lon="-1.47788">
        <ele>62</ele>
        <time>2016-05-08T15:03:39Z</time>
      </trkpt>
      <trkpt lat="47.12918" lon="-1.47777">
        <ele>61</ele>
        <time>2016-05-08T15:03:47Z</time>
      </trkpt>
      <trkpt lat="47.12918" lon="-1.47775">
        <ele>61</ele>
        <time>2016-05-08T15:03:50Z</time>
      </trkpt>
      <trkpt lat="47.12917" lon="-1.47772">
        <ele>61</ele>
        <time>2016-05-08T15:04:13Z</time>
      </trkpt>
      <trkpt lat="47.12907" lon="-1.47765">
        <ele>62</ele>
        <time>2016-05-08T15:04:29Z</time>
      </trkpt>
      <trkpt lat="47.12905" lon="-1.47762">
        <ele>62</ele>
        <time>2016-05-08T15:04:31Z</time>
      </trkpt>
      <trkpt lat="47.12905" lon="-1.47747">
        <ele>63</ele>
        <time>2016-05-08T15:04:36Z</time>
      </trkpt>
      <trkpt lat="47.12922" lon="-1.47609">
        <ele>69</ele>
        <time>2016-05-08T15:05:06Z</time>
      </trkpt>
      <trkpt lat="47.12909" lon="-1.47459">
        <ele>69</ele>
        <time>2016-05-08T15:05:34Z</time>
      </trkpt>
      <trkpt lat="47.12907" lon="-1.47457">
        <ele>69</ele>
        <time>2016-05-08T15:05:36Z</time>
      </trkpt>
      <trkpt lat="47.12906" lon="-1.47455">
        <ele>70</ele>
        <time>2016-05-08T15:05:40Z</time>
      </trkpt>
      <trkpt lat="47.12905" lon="-1.47451">
        <ele>70</ele>
        <time>2016-05-08T15:05:56Z</time>
      </trkpt>
      <trkpt lat="47.12905" lon="-1.47448">
        <ele>69</ele>
        <time>2016-05-08T15:06:06Z</time>
      </trkpt>
      <trkpt lat="47.12914" lon="-1.47396">
        <ele>65</ele>
        <time>2016-05-08T15:06:19Z</time>
      </trkpt>
      <trkpt lat="47.12931" lon="-1.47347">
        <ele>66</ele>
        <time>2016-05-08T15:06:26Z</time>
      </trkpt>
      <trkpt lat="47.12928" lon="-1.47335">
        <ele>64</ele>
        <time>2016-05-08T15:06:29Z</time>
      </trkpt>
      <trkpt lat="47.12853" lon="-1.47197">
        <ele>65</ele>
        <time>2016-05-08T15:06:59Z</time>
      </trkpt>
      <trkpt lat="47.12845" lon="-1.47181">
        <ele>66</ele>
        <time>2016-05-08T15:07:03Z</time>
      </trkpt>
      <trkpt lat="47.12782" lon="-1.47064">
        <ele>71</ele>
        <time>2016-05-08T15:07:33Z</time>
      </trkpt>
      <trkpt lat="47.12778" lon="-1.4706">
        <ele>71</ele>
        <time>2016-05-08T15:07:34Z</time>
      </trkpt>
      <trkpt lat="47.12774" lon="-1.4706">
        <ele>72</ele>
        <time>2016-05-08T15:07:35Z</time>
      </trkpt>
      <trkpt lat="47.12771" lon="-1.47063">
        <ele>72</ele>
        <time>2016-05-08T15:07:36Z</time>
      </trkpt>
      <trkpt lat="47.12659" lon="-1.47089">
        <ele>66</ele>
        <time>2016-05-08T15:08:00Z</time>
      </trkpt>
      <trkpt lat="47.12643" lon="-1.47119">
        <ele>64</ele>
        <time>2016-05-08T15:08:06Z</time>
      </trkpt>
      <trkpt lat="47.12643" lon="-1.47152">
        <ele>62</ele>
        <time>2016-05-08T15:08:10Z</time>
      </trkpt>
      <trkpt lat="47.12668" lon="-1.47228">
        <ele>62</ele>
        <time>2016-05-08T15:08:22Z</time>
      </trkpt>
      <trkpt lat="47.12702" lon="-1.47319">
        <ele>63</ele>
        <time>2016-05-08T15:08:38Z</time>
      </trkpt>
      <trkpt lat="47.12699" lon="-1.47363">
        <ele>63</ele>
        <time>2016-05-08T15:08:46Z</time>
      </trkpt>
      <trkpt lat="47.12698" lon="-1.47365">
        <ele>66</ele>
        <time>2016-05-08T15:13:13Z</time>
      </trkpt>
      <trkpt lat="47.12699" lon="-1.47372">
        <ele>66</ele>
        <time>2016-05-08T15:13:17Z</time>
      </trkpt>
      <trkpt lat="47.127" lon="-1.47467">
        <ele>69</ele>
        <time>2016-05-08T15:13:34Z</time>
      </trkpt>
      <trkpt lat="47.12691" lon="-1.47483">
        <ele>68</ele>
        <time>2016-05-08T15:13:37Z</time>
      </trkpt>
      <trkpt lat="47.1266" lon="-1.47512">
        <ele>65</ele>
        <time>2016-05-08T15:13:42Z</time>
      </trkpt>
      <trkpt lat="47.12647" lon="-1.47508">
        <ele>64</ele>
        <time>2016-05-08T15:13:44Z</time>
      </trkpt>
      <trkpt lat="47.12574" lon="-1.4747">
        <ele>54</ele>
        <time>2016-05-08T15:13:57Z</time>
      </trkpt>
      <trkpt lat="47.1248" lon="-1.47407">
        <ele>55</ele>
        <time>2016-05-08T15:14:27Z</time>
      </trkpt>
      <trkpt lat="47.12379" lon="-1.47305">
        <ele>55</ele>
        <time>2016-05-08T15:14:57Z</time>
      </trkpt>
      <trkpt lat="47.12344" lon="-1.47262">
        <ele>56</ele>
        <time>2016-05-08T15:15:08Z</time>
      </trkpt>
      <trkpt lat="47.12329" lon="-1.47259">
        <ele>56</ele>
        <time>2016-05-08T15:15:11Z</time>
      </trkpt>
      <trkpt lat="47.12214" lon="-1.47381">
        <ele>54</ele>
        <time>2016-05-08T15:15:40Z</time>
      </trkpt>
      <trkpt lat="47.12102" lon="-1.47589">
        <ele>51</ele>
        <time>2016-05-08T15:16:10Z</time>
      </trkpt>
      <trkpt lat="47.11985" lon="-1.47849">
        <ele>48</ele>
        <time>2016-05-08T15:16:40Z</time>
      </trkpt>
      <trkpt lat="47.11892" lon="-1.48054">
        <ele>51</ele>
        <time>2016-05-08T15:17:10Z</time>
      </trkpt>
      <trkpt lat="47.11822" lon="-1.48208">
        <ele>54</ele>
        <time>2016-05-08T15:17:40Z</time>
      </trkpt>
      <trkpt lat="47.11757" lon="-1.48348">
        <ele>56</ele>
        <time>2016-05-08T15:18:10Z</time>
      </trkpt>
      <trkpt lat="47.11741" lon="-1.48397">
        <ele>55</ele>
        <time>2016-05-08T15:18:20Z</time>
      </trkpt>
      <trkpt lat="47.11752" lon="-1.48567">
        <ele>50</ele>
        <time>2016-05-08T15:18:45Z</time>
      </trkpt>
      <trkpt lat="47.11677" lon="-1.48616">
        <ele>45</ele>
        <time>2016-05-08T15:18:59Z</time>
      </trkpt>
      <trkpt lat="47.11467" lon="-1.48664">
        <ele>39</ele>
        <time>2016-05-08T15:19:29Z</time>
      </trkpt>
      <trkpt lat="47.11189" lon="-1.48763">
        <ele>30</ele>
        <time>2016-05-08T15:19:59Z</time>
      </trkpt>
      <trkpt lat="47.1105" lon="-1.48822">
        <ele>33</ele>
        <time>2016-05-08T15:20:29Z</time>
      </trkpt>
      <trkpt lat="47.1087" lon="-1.48893">
        <ele>26</ele>
        <time>2016-05-08T15:20:59Z</time>
      </trkpt>
      <trkpt lat="47.10631" lon="-1.48999">
        <ele>23</ele>
        <time>2016-05-08T15:21:29Z</time>
      </trkpt>
      <trkpt lat="47.10471" lon="-1.49008">
        <ele>26</ele>
        <time>2016-05-08T15:21:59Z</time>
      </trkpt>
      <trkpt lat="47.10336" lon="-1.49005">
        <ele>27</ele>
        <time>2016-05-08T15:22:29Z</time>
      </trkpt>
      <trkpt lat="47.10221" lon="-1.48999">
        <ele>27</ele>
        <time>2016-05-08T15:22:59Z</time>
      </trkpt>
      <trkpt lat="47.10143" lon="-1.49026">
        <ele>25</ele>
        <time>2016-05-08T15:23:14Z</time>
      </trkpt>
      <trkpt lat="47.10135" lon="-1.49037">
        <ele>25</ele>
        <time>2016-05-08T15:23:16Z</time>
      </trkpt>
      <trkpt lat="47.1013" lon="-1.49038">
        <ele>24</ele>
        <time>2016-05-08T15:23:17Z</time>
      </trkpt>
      <trkpt lat="47.10104" lon="-1.49028">
        <ele>24</ele>
        <time>2016-05-08T15:23:22Z</time>
      </trkpt>
      <trkpt lat="47.10096" lon="-1.48993">
        <ele>24</ele>
        <time>2016-05-08T15:23:27Z</time>
      </trkpt>
      <trkpt lat="47.10093" lon="-1.48974">
        <ele>24</ele>
        <time>2016-05-08T15:23:30Z</time>
      </trkpt>
      <trkpt lat="47.10089" lon="-1.4897">
        <ele>24</ele>
        <time>2016-05-08T15:23:31Z</time>
      </trkpt>
      <trkpt lat="47.10073" lon="-1.48968">
        <ele>24</ele>
        <time>2016-05-08T15:23:35Z</time>
      </trkpt>
      <trkpt lat="47.10048" lon="-1.48965">
        <ele>24</ele>
        <time>2016-05-08T15:23:42Z</time>
      </trkpt>
      <trkpt lat="47.10047" lon="-1.48961">
        <ele>24</ele>
        <time>2016-05-08T15:23:43Z</time>
      </trkpt>
      <trkpt lat="47.10048" lon="-1.48956">
        <ele>24</ele>
        <time>2016-05-08T15:23:44Z</time>
      </trkpt>
      <trkpt lat="47.10051" lon="-1.48953">
        <ele>23</ele>
        <time>2016-05-08T15:23:45Z</time>
      </trkpt>
      <trkpt lat="47.10053" lon="-1.48953">
        <ele>24</ele>
        <time>2016-05-08T15:23:46Z</time>
      </trkpt>
      <trkpt lat="47.10054" lon="-1.48956">
        <ele>23</ele>
        <time>2016-05-08T15:24:03Z</time>
      </trkpt>
      <trkpt lat="47.10055" lon="-1.48959">
        <ele>24</ele>
        <time>2016-05-08T15:29:07Z</time>
      </trkpt>
      <trkpt lat="47.10054" lon="-1.4896">
        <ele>24</ele>
        <time>2016-05-08T15:29:08Z</time>
      </trkpt>
      <trkpt lat="47.10053" lon="-1.4896">
        <ele>24</ele>
        <time>2016-05-08T15:29:09Z</time>
      </trkpt>
      <trkpt lat="47.1002" lon="-1.48956">
        <ele>29</ele>
        <time>2016-05-08T15:29:26Z</time>
      </trkpt>
      <trkpt lat="47.10018" lon="-1.48957">
        <ele>32</ele>
        <time>2016-05-08T15:29:33Z</time>
      </trkpt>
      <trkpt lat="47.09987" lon="-1.48974">
        <ele>30</ele>
        <time>2016-05-08T15:29:47Z</time>
      </trkpt>
      <trkpt lat="47.09923" lon="-1.48999">
        <ele>26</ele>
        <time>2016-05-08T15:30:15Z</time>
      </trkpt>
      <trkpt lat="47.0992" lon="-1.48994">
        <ele>26</ele>
        <time>2016-05-08T15:30:17Z</time>
      </trkpt>
      <trkpt lat="47.09887" lon="-1.48875">
        <ele>22</ele>
        <time>2016-05-08T15:30:41Z</time>
      </trkpt>
      <trkpt lat="47.09878" lon="-1.48876">
        <ele>23</ele>
        <time>2016-05-08T15:30:43Z</time>
      </trkpt>
      <trkpt lat="47.09801" lon="-1.48905">
        <ele>21</ele>
        <time>2016-05-08T15:31:03Z</time>
      </trkpt>
      <trkpt lat="47.09803" lon="-1.48903">
        <ele>21</ele>
        <time>2016-05-08T15:31:15Z</time>
      </trkpt>
      <trkpt lat="47.09782" lon="-1.48842">
        <ele>25</ele>
        <time>2016-05-08T15:31:28Z</time>
      </trkpt>
      <trkpt lat="47.0978" lon="-1.48843">
        <ele>25</ele>
        <time>2016-05-08T15:31:29Z</time>
      </trkpt>
      <trkpt lat="47.09777" lon="-1.48846">
        <ele>25</ele>
        <time>2016-05-08T15:31:30Z</time>
      </trkpt>
      <trkpt lat="47.0974" lon="-1.48885">
        <ele>22</ele>
        <time>2016-05-08T15:32:00Z</time>
      </trkpt>
      <trkpt lat="47.09631" lon="-1.48984">
        <ele>19</ele>
        <time>2016-05-08T15:32:30Z</time>
      </trkpt>
      <trkpt lat="47.09596" lon="-1.49047">
        <ele>19</ele>
        <time>2016-05-08T15:32:43Z</time>
      </trkpt>
      <trkpt lat="47.09593" lon="-1.49047">
        <ele>19</ele>
        <time>2016-05-08T15:32:44Z</time>
      </trkpt>
      <trkpt lat="47.09483" lon="-1.48967">
        <ele>20</ele>
        <time>2016-05-08T15:33:14Z</time>
      </trkpt>
      <trkpt lat="47.0939" lon="-1.491">
        <ele>19</ele>
        <time>2016-05-08T15:33:44Z</time>
      </trkpt>
      <trkpt lat="47.09386" lon="-1.49105">
        <ele>19</ele>
        <time>2016-05-08T15:33:45Z</time>
      </trkpt>
      <trkpt lat="47.09374" lon="-1.49137">
        <ele>19</ele>
        <time>2016-05-08T15:33:50Z</time>
      </trkpt>
      <trkpt lat="47.09277" lon="-1.49214">
        <ele>20</ele>
        <time>2016-05-08T15:34:17Z</time>
      </trkpt>
      <trkpt lat="47.09273" lon="-1.49213">
        <ele>20</ele>
        <time>2016-05-08T15:34:18Z</time>
      </trkpt>
      <trkpt lat="47.09256" lon="-1.49193">
        <ele>21</ele>
        <time>2016-05-08T15:34:24Z</time>
      </trkpt>
      <trkpt lat="47.09198" lon="-1.49121">
        <ele>22</ele>
        <time>2016-05-08T15:34:54Z</time>
      </trkpt>
      <trkpt lat="47.09181" lon="-1.49107">
        <ele>22</ele>
        <time>2016-05-08T15:35:05Z</time>
      </trkpt>
      <trkpt lat="47.09179" lon="-1.49107">
        <ele>22</ele>
        <time>2016-05-08T15:35:06Z</time>
      </trkpt>
      <trkpt lat="47.09177" lon="-1.49108">
        <ele>23</ele>
        <time>2016-05-08T15:35:07Z</time>
      </trkpt>
      <trkpt lat="47.09172" lon="-1.49114">
        <ele>23</ele>
        <time>2016-05-08T15:35:10Z</time>
      </trkpt>
      <trkpt lat="47.09169" lon="-1.49113">
        <ele>23</ele>
        <time>2016-05-08T15:35:12Z</time>
      </trkpt>
      <trkpt lat="47.09168" lon="-1.49111">
        <ele>23</ele>
        <time>2016-05-08T15:35:14Z</time>
      </trkpt>
      <trkpt lat="47.09166" lon="-1.49112">
        <ele>23</ele>
        <time>2016-05-08T15:35:16Z</time>
      </trkpt>
      <trkpt lat="47.09169" lon="-1.49114">
        <ele>23</ele>
        <time>2016-05-08T15:35:18Z</time>
      </trkpt>
      <trkpt lat="47.09172" lon="-1.49109">
        <ele>23</ele>
        <time>2016-05-08T15:35:21Z</time>
      </trkpt>
      <trkpt lat="47.09171" lon="-1.49107">
        <ele>22</ele>
        <time>2016-05-08T15:35:32Z</time>
      </trkpt>
      <trkpt lat="47.09175" lon="-1.49098">
        <ele>22</ele>
        <time>2016-05-08T15:35:36Z</time>
      </trkpt>
      <trkpt lat="47.0918" lon="-1.49096">
        <ele>22</ele>
        <time>2016-05-08T15:35:38Z</time>
      </trkpt>
      <trkpt lat="47.09276" lon="-1.49219">
        <ele>20</ele>
        <time>2016-05-08T15:36:08Z</time>
      </trkpt>
      <trkpt lat="47.09273" lon="-1.49225">
        <ele>19</ele>
        <time>2016-05-08T15:36:09Z</time>
      </trkpt>
      <trkpt lat="47.09198" lon="-1.49363">
        <ele>17</ele>
        <time>2016-05-08T15:36:39Z</time>
      </trkpt>
      <trkpt lat="47.09181" lon="-1.49393">
        <ele>16</ele>
        <time>2016-05-08T15:36:44Z</time>
      </trkpt>
      <trkpt lat="47.09181" lon="-1.49432">
        <ele>16</ele>
        <time>2016-05-08T15:36:49Z</time>
      </trkpt>
      <trkpt lat="47.09197" lon="-1.49456">
        <ele>16</ele>
        <time>2016-05-08T15:36:54Z</time>
      </trkpt>
      <trkpt lat="47.09206" lon="-1.49458">
        <ele>17</ele>
        <time>2016-05-08T15:36:56Z</time>
      </trkpt>
      <trkpt lat="47.09243" lon="-1.49457">
        <ele>18</ele>
        <time>2016-05-08T15:37:06Z</time>
      </trkpt>
      <trkpt lat="47.09257" lon="-1.4944">
        <ele>17</ele>
        <time>2016-05-08T15:37:12Z</time>
      </trkpt>
      <trkpt lat="47.09347" lon="-1.49432">
        <ele>18</ele>
        <time>2016-05-08T15:37:32Z</time>
      </trkpt>
      <trkpt lat="47.09363" lon="-1.49435">
        <ele>17</ele>
        <time>2016-05-08T15:37:36Z</time>
      </trkpt>
      <trkpt lat="47.0942" lon="-1.49429">
        <ele>19</ele>
        <time>2016-05-08T15:37:52Z</time>
      </trkpt>
      <trkpt lat="47.09442" lon="-1.49472">
        <ele>20</ele>
        <time>2016-05-08T15:38:02Z</time>
      </trkpt>
      <trkpt lat="47.09484" lon="-1.49564">
        <ele>22</ele>
        <time>2016-05-08T15:38:20Z</time>
      </trkpt>
      <trkpt lat="47.09481" lon="-1.49576">
        <ele>23</ele>
        <time>2016-05-08T15:38:22Z</time>
      </trkpt>
      <trkpt lat="47.09476" lon="-1.49579">
        <ele>24</ele>
        <time>2016-05-08T15:38:23Z</time>
      </trkpt>
      <trkpt lat="47.09439" lon="-1.4963">
        <ele>24</ele>
        <time>2016-05-08T15:38:34Z</time>
      </trkpt>
      <trkpt lat="47.09439" lon="-1.49636">
        <ele>25</ele>
        <time>2016-05-08T15:38:35Z</time>
      </trkpt>
      <trkpt lat="47.09442" lon="-1.4964">
        <ele>24</ele>
        <time>2016-05-08T15:38:36Z</time>
      </trkpt>
      <trkpt lat="47.0947" lon="-1.49694">
        <ele>26</ele>
        <time>2016-05-08T15:38:48Z</time>
      </trkpt>
      <trkpt lat="47.09465" lon="-1.49718">
        <ele>26</ele>
        <time>2016-05-08T15:38:52Z</time>
      </trkpt>
      <trkpt lat="47.09454" lon="-1.49735">
        <ele>26</ele>
        <time>2016-05-08T15:38:55Z</time>
      </trkpt>
      <trkpt lat="47.09451" lon="-1.49773">
        <ele>26</ele>
        <time>2016-05-08T15:39:00Z</time>
      </trkpt>
      <trkpt lat="47.09473" lon="-1.49807">
        <ele>25</ele>
        <time>2016-05-08T15:39:06Z</time>
      </trkpt>
      <trkpt lat="47.09552" lon="-1.49895">
        <ele>23</ele>
        <time>2016-05-08T15:39:28Z</time>
      </trkpt>
      <trkpt lat="47.0955" lon="-1.49906">
        <ele>23</ele>
        <time>2016-05-08T15:39:30Z</time>
      </trkpt>
      <trkpt lat="47.09496" lon="-1.50218">
        <ele>16</ele>
        <time>2016-05-08T15:40:00Z</time>
      </trkpt>
      <trkpt lat="47.09437" lon="-1.50437">
        <ele>17</ele>
        <time>2016-05-08T15:40:30Z</time>
      </trkpt>
      <trkpt lat="47.09418" lon="-1.50544">
        <ele>21</ele>
        <time>2016-05-08T15:40:55Z</time>
      </trkpt>
      <trkpt lat="47.09408" lon="-1.50546">
        <ele>21</ele>
        <time>2016-05-08T15:40:58Z</time>
      </trkpt>
      <trkpt lat="47.09267" lon="-1.50477">
        <ele>19</ele>
        <time>2016-05-08T15:41:28Z</time>
      </trkpt>
      <trkpt lat="47.09242" lon="-1.50472">
        <ele>18</ele>
        <time>2016-05-08T15:41:33Z</time>
      </trkpt>
      <trkpt lat="47.09229" lon="-1.50486">
        <ele>18</ele>
        <time>2016-05-08T15:41:36Z</time>
      </trkpt>
      <trkpt lat="47.09133" lon="-1.50654">
        <ele>17</ele>
        <time>2016-05-08T15:42:06Z</time>
      </trkpt>
      <trkpt lat="47.09091" lon="-1.50715">
        <ele>16</ele>
        <time>2016-05-08T15:42:20Z</time>
      </trkpt>
      <trkpt lat="47.09082" lon="-1.50714">
        <ele>16</ele>
        <time>2016-05-08T15:42:22Z</time>
      </trkpt>
      <trkpt lat="47.08913" lon="-1.50647">
        <ele>11</ele>
        <time>2016-05-08T15:42:52Z</time>
      </trkpt>
      <trkpt lat="47.08903" lon="-1.50639">
        <ele>10</ele>
        <time>2016-05-08T15:42:55Z</time>
      </trkpt>
      <trkpt lat="47.08902" lon="-1.50635">
        <ele>10</ele>
        <time>2016-05-08T15:42:56Z</time>
      </trkpt>
      <trkpt lat="47.08892" lon="-1.50622">
        <ele>10</ele>
        <time>2016-05-08T15:42:59Z</time>
      </trkpt>
      <trkpt lat="47.08888" lon="-1.50624">
        <ele>10</ele>
        <time>2016-05-08T15:43:01Z</time>
      </trkpt>
      <trkpt lat="47.08805" lon="-1.50726">
        <ele>11</ele>
        <time>2016-05-08T15:43:31Z</time>
      </trkpt>
      <trkpt lat="47.08796" lon="-1.5074">
        <ele>10</ele>
        <time>2016-05-08T15:43:35Z</time>
      </trkpt>
      <trkpt lat="47.08791" lon="-1.50739">
        <ele>13</ele>
        <time>2016-05-08T15:43:37Z</time>
      </trkpt>
      <trkpt lat="47.08705" lon="-1.5071">
        <ele>14</ele>
        <time>2016-05-08T15:44:00Z</time>
      </trkpt>
      <trkpt lat="47.08688" lon="-1.50769">
        <ele>15</ele>
        <time>2016-05-08T15:44:13Z</time>
      </trkpt>
      <trkpt lat="47.08689" lon="-1.50792">
        <ele>16</ele>
        <time>2016-05-08T15:44:18Z</time>
      </trkpt>
      <trkpt lat="47.08705" lon="-1.5092">
        <ele>16</ele>
        <time>2016-05-08T15:44:47Z</time>
      </trkpt>
      <trkpt lat="47.08643" lon="-1.51053">
        <ele>19</ele>
        <time>2016-05-08T15:45:17Z</time>
      </trkpt>
      <trkpt lat="47.08585" lon="-1.51164">
        <ele>24</ele>
        <time>2016-05-08T15:45:47Z</time>
      </trkpt>
      <trkpt lat="47.0856" lon="-1.51204">
        <ele>25</ele>
        <time>2016-05-08T15:46:01Z</time>
      </trkpt>
      <trkpt lat="47.08553" lon="-1.51198">
        <ele>26</ele>
        <time>2016-05-08T15:46:05Z</time>
      </trkpt>
      <trkpt lat="47.0855" lon="-1.51198">
        <ele>26</ele>
        <time>2016-05-08T15:46:07Z</time>
      </trkpt>
      <trkpt lat="47.08544" lon="-1.51206">
        <ele>26</ele>
        <time>2016-05-08T15:46:11Z</time>
      </trkpt>
      <trkpt lat="47.08541" lon="-1.5122">
        <ele>26</ele>
        <time>2016-05-08T15:46:15Z</time>
      </trkpt>
      <trkpt lat="47.08543" lon="-1.51236">
        <ele>26</ele>
        <time>2016-05-08T15:46:20Z</time>
      </trkpt>
      <trkpt lat="47.0854" lon="-1.5124">
        <ele>26</ele>
        <time>2016-05-08T15:46:21Z</time>
      </trkpt>
      <trkpt lat="47.08501" lon="-1.51304">
        <ele>25</ele>
        <time>2016-05-08T15:46:44Z</time>
      </trkpt>
      <trkpt lat="47.08504" lon="-1.5131">
        <ele>25</ele>
        <time>2016-05-08T15:46:46Z</time>
      </trkpt>
      <trkpt lat="47.08509" lon="-1.51313">
        <ele>25</ele>
        <time>2016-05-08T15:46:48Z</time>
      </trkpt>
      <trkpt lat="47.08582" lon="-1.51264">
        <ele>26</ele>
        <time>2016-05-08T15:47:18Z</time>
      </trkpt>
      <trkpt lat="47.08594" lon="-1.51256">
        <ele>25</ele>
        <time>2016-05-08T15:47:23Z</time>
      </trkpt>
      <trkpt lat="47.08595" lon="-1.51248">
        <ele>25</ele>
        <time>2016-05-08T15:47:25Z</time>
      </trkpt>
      <trkpt lat="47.08594" lon="-1.51244">
        <ele>25</ele>
        <time>2016-05-08T15:47:26Z</time>
      </trkpt>
      <trkpt lat="47.08593" lon="-1.51241">
        <ele>25</ele>
        <time>2016-05-08T15:47:27Z</time>
      </trkpt>
      <trkpt lat="47.0859" lon="-1.51238">
        <ele>25</ele>
        <time>2016-05-08T15:47:28Z</time>
      </trkpt>
      <trkpt lat="47.08588" lon="-1.51238">
        <ele>24</ele>
        <time>2016-05-08T15:47:29Z</time>
      </trkpt>
      <trkpt lat="47.08583" lon="-1.5124">
        <ele>25</ele>
        <time>2016-05-08T15:47:31Z</time>
      </trkpt>
      <trkpt lat="47.08574" lon="-1.51252">
        <ele>25</ele>
        <time>2016-05-08T15:47:39Z</time>
      </trkpt>
      <trkpt lat="47.08571" lon="-1.51251">
        <ele>25</ele>
        <time>2016-05-08T15:47:41Z</time>
      </trkpt>
      <trkpt lat="47.08572" lon="-1.51247">
        <ele>25</ele>
        <time>2016-05-08T15:47:43Z</time>
      </trkpt>
      <trkpt lat="47.08573" lon="-1.51246">
        <ele>25</ele>
        <time>2016-05-08T15:47:44Z</time>
      </trkpt>
      <trkpt lat="47.08586" lon="-1.5124">
        <ele>26</ele>
        <time>2016-05-08T15:47:50Z</time>
      </trkpt>
      <trkpt lat="47.08603" lon="-1.51246">
        <ele>26</ele>
        <time>2016-05-08T15:47:56Z</time>
      </trkpt>
      <trkpt lat="47.0863" lon="-1.51226">
        <ele>24</ele>
        <time>2016-05-08T15:48:06Z</time>
      </trkpt>
      <trkpt lat="47.08646" lon="-1.51219">
        <ele>23</ele>
        <time>2016-05-08T15:48:36Z</time>
      </trkpt>
      <trkpt lat="47.08696" lon="-1.51184">
        <ele>23</ele>
        <time>2016-05-08T15:48:50Z</time>
      </trkpt>
      <trkpt lat="47.08693" lon="-1.5118">
        <ele>23</ele>
        <time>2016-05-08T15:48:51Z</time>
      </trkpt>
      <trkpt lat="47.08693" lon="-1.51174">
        <ele>23</ele>
        <time>2016-05-08T15:48:53Z</time>
      </trkpt>
      <trkpt lat="47.08692" lon="-1.51171">
        <ele>22</ele>
        <time>2016-05-08T15:49:26Z</time>
      </trkpt>
      <trkpt lat="47.08691" lon="-1.51171">
        <ele>20</ele>
        <time>2016-05-08T15:52:34Z</time>
      </trkpt>
      <trkpt lat="47.08689" lon="-1.51171">
        <ele>19</ele>
        <time>2016-05-08T15:53:49Z</time>
      </trkpt>
      <trkpt lat="47.08689" lon="-1.51172">
        <ele>16</ele>
        <time>2016-05-08T16:06:40Z</time>
      </trkpt>
      <trkpt lat="47.08689" lon="-1.51175">
        <ele>16</ele>
        <time>2016-05-08T16:07:07Z</time>
      </trkpt>
      <trkpt lat="47.0869" lon="-1.51179">
        <ele>16</ele>
        <time>2016-05-08T16:07:09Z</time>
      </trkpt>
      <trkpt lat="47.08692" lon="-1.5119">
        <ele>20</ele>
        <time>2016-05-08T16:07:12Z</time>
      </trkpt>
      <trkpt lat="47.08691" lon="-1.51194">
        <ele>20</ele>
        <time>2016-05-08T16:07:13Z</time>
      </trkpt>
      <trkpt lat="47.08681" lon="-1.51203">
        <ele>21</ele>
        <time>2016-05-08T16:07:17Z</time>
      </trkpt>
      <trkpt lat="47.08606" lon="-1.5125">
        <ele>22</ele>
        <time>2016-05-08T16:07:47Z</time>
      </trkpt>
      <trkpt lat="47.08602" lon="-1.51252">
        <ele>22</ele>
        <time>2016-05-08T16:07:49Z</time>
      </trkpt>
      <trkpt lat="47.086" lon="-1.51252">
        <ele>23</ele>
        <time>2016-05-08T16:07:50Z</time>
      </trkpt>
      <trkpt lat="47.08598" lon="-1.5125">
        <ele>23</ele>
        <time>2016-05-08T16:07:51Z</time>
      </trkpt>
      <trkpt lat="47.08588" lon="-1.51236">
        <ele>23</ele>
        <time>2016-05-08T16:07:57Z</time>
      </trkpt>
      <trkpt lat="47.08586" lon="-1.51237">
        <ele>24</ele>
        <time>2016-05-08T16:07:58Z</time>
      </trkpt>
      <trkpt lat="47.08578" lon="-1.51247">
        <ele>25</ele>
        <time>2016-05-08T16:08:03Z</time>
      </trkpt>
      <trkpt lat="47.08577" lon="-1.51248">
        <ele>26</ele>
        <time>2016-05-08T16:08:04Z</time>
      </trkpt>
      <trkpt lat="47.08576" lon="-1.51244">
        <ele>26</ele>
        <time>2016-05-08T16:08:09Z</time>
      </trkpt>
    </trkseg>
  </trk>
</gpx>